<?xml version="1.0" encoding="UTF-8" standalone="no" ?>
<gpx xmlns="http://www.topografix.com/GPX/1/1" xmlns:xsi="http://www.w3.org/2001/XMLSchema-instance" xsi:schemaLocation="http://www.topografix.com/GPX/1/1 http://www.topografix.com/GPX/1/1/gpx.xsd" version="1.1" creator="VisuGPX - https://www.visugpx.com">
  <metadata>
    <name>83-L-Lorgues</name>
    <desc><![CDATA[83-L-Lorgues : Sauveclare - Chapelle Saint Jean
2026-02-23-PM]]></desc>
  </metadata>
  <trk>
    <name><![CDATA[2026-02-23-L-Lorgues]]></name>
    <extensions>
      <line xmlns="http://www.topografix.com/GPX/gpx_style/0/2">
        <width>4</width>
      </line>
    </extensions>
    <trkseg>
      <trkpt lat="43.50772" lon="6.38856">
        <ele>183</ele>
        <time>2026-02-23T08:13:28.000Z</time>
      </trkpt>
      <trkpt lat="43.50772" lon="6.38856">
        <ele>183</ele>
        <time>2026-02-23T08:13:29.000Z</time>
      </trkpt>
      <trkpt lat="43.5077" lon="6.3885">
        <ele>182.9</ele>
        <time>2026-02-23T08:13:53.000Z</time>
      </trkpt>
      <trkpt lat="43.5077" lon="6.38855">
        <ele>182.7</ele>
        <time>2026-02-23T08:14:28.000Z</time>
      </trkpt>
      <trkpt lat="43.5077" lon="6.38855">
        <ele>182.7</ele>
        <time>2026-02-23T08:14:28.000Z</time>
      </trkpt>
      <trkpt lat="43.50779" lon="6.38853">
        <ele>182.7</ele>
        <time>2026-02-23T08:15:05.000Z</time>
      </trkpt>
      <trkpt lat="43.50777" lon="6.3885">
        <ele>182.7</ele>
        <time>2026-02-23T08:15:13.000Z</time>
      </trkpt>
      <trkpt lat="43.50776" lon="6.3885">
        <ele>182.6</ele>
        <time>2026-02-23T08:16:23.000Z</time>
      </trkpt>
      <trkpt lat="43.50776" lon="6.38848">
        <ele>182.6</ele>
        <time>2026-02-23T08:16:33.000Z</time>
      </trkpt>
      <trkpt lat="43.50776" lon="6.38853">
        <ele>182.6</ele>
        <time>2026-02-23T08:16:52.000Z</time>
      </trkpt>
      <trkpt lat="43.50777" lon="6.38858">
        <ele>182.7</ele>
        <time>2026-02-23T08:17:06.000Z</time>
      </trkpt>
      <trkpt lat="43.50786" lon="6.38855">
        <ele>183</ele>
        <time>2026-02-23T08:18:18.000Z</time>
      </trkpt>
      <trkpt lat="43.50787" lon="6.38856">
        <ele>184.8</ele>
        <time>2026-02-23T08:19:13.000Z</time>
      </trkpt>
      <trkpt lat="43.50786" lon="6.38855">
        <ele>184.9</ele>
        <time>2026-02-23T08:19:23.000Z</time>
      </trkpt>
      <trkpt lat="43.50777" lon="6.38856">
        <ele>185</ele>
        <time>2026-02-23T08:20:28.000Z</time>
      </trkpt>
      <trkpt lat="43.50768" lon="6.38861">
        <ele>184.9</ele>
        <time>2026-02-23T08:20:44.000Z</time>
      </trkpt>
      <trkpt lat="43.50764" lon="6.38873">
        <ele>184.7</ele>
        <time>2026-02-23T08:21:00.000Z</time>
      </trkpt>
      <trkpt lat="43.50765" lon="6.38886">
        <ele>184.8</ele>
        <time>2026-02-23T08:21:13.000Z</time>
      </trkpt>
      <trkpt lat="43.50766" lon="6.38899">
        <ele>185.1</ele>
        <time>2026-02-23T08:21:23.000Z</time>
      </trkpt>
      <trkpt lat="43.50766" lon="6.38912">
        <ele>186</ele>
        <time>2026-02-23T08:21:34.000Z</time>
      </trkpt>
      <trkpt lat="43.50766" lon="6.38925">
        <ele>188.1</ele>
        <time>2026-02-23T08:21:48.000Z</time>
      </trkpt>
      <trkpt lat="43.50769" lon="6.38937">
        <ele>189.7</ele>
        <time>2026-02-23T08:21:58.000Z</time>
      </trkpt>
      <trkpt lat="43.50772" lon="6.3895">
        <ele>191</ele>
        <time>2026-02-23T08:22:08.000Z</time>
      </trkpt>
      <trkpt lat="43.50774" lon="6.38964">
        <ele>192.3</ele>
        <time>2026-02-23T08:22:18.000Z</time>
      </trkpt>
      <trkpt lat="43.5078" lon="6.38975">
        <ele>193.3</ele>
        <time>2026-02-23T08:22:27.000Z</time>
      </trkpt>
      <trkpt lat="43.50784" lon="6.38986">
        <ele>193.8</ele>
        <time>2026-02-23T08:22:36.000Z</time>
      </trkpt>
      <trkpt lat="43.50792" lon="6.38995">
        <ele>193.9</ele>
        <time>2026-02-23T08:22:46.000Z</time>
      </trkpt>
      <trkpt lat="43.50799" lon="6.39003">
        <ele>193.8</ele>
        <time>2026-02-23T08:22:56.000Z</time>
      </trkpt>
      <trkpt lat="43.50807" lon="6.39011">
        <ele>193.7</ele>
        <time>2026-02-23T08:23:06.000Z</time>
      </trkpt>
      <trkpt lat="43.50816" lon="6.39019">
        <ele>193.6</ele>
        <time>2026-02-23T08:23:16.000Z</time>
      </trkpt>
      <trkpt lat="43.50824" lon="6.39024">
        <ele>193.4</ele>
        <time>2026-02-23T08:23:25.000Z</time>
      </trkpt>
      <trkpt lat="43.50833" lon="6.39029">
        <ele>193.4</ele>
        <time>2026-02-23T08:23:34.000Z</time>
      </trkpt>
      <trkpt lat="43.50841" lon="6.39036">
        <ele>193.4</ele>
        <time>2026-02-23T08:23:45.000Z</time>
      </trkpt>
      <trkpt lat="43.50849" lon="6.39041">
        <ele>193.5</ele>
        <time>2026-02-23T08:23:53.000Z</time>
      </trkpt>
      <trkpt lat="43.50858" lon="6.39047">
        <ele>193.6</ele>
        <time>2026-02-23T08:24:02.000Z</time>
      </trkpt>
      <trkpt lat="43.50867" lon="6.39048">
        <ele>193.7</ele>
        <time>2026-02-23T08:24:13.000Z</time>
      </trkpt>
      <trkpt lat="43.50877" lon="6.39049">
        <ele>193.6</ele>
        <time>2026-02-23T08:24:21.000Z</time>
      </trkpt>
      <trkpt lat="43.50886" lon="6.39051">
        <ele>193.2</ele>
        <time>2026-02-23T08:24:30.000Z</time>
      </trkpt>
      <trkpt lat="43.50896" lon="6.39054">
        <ele>192.6</ele>
        <time>2026-02-23T08:24:39.000Z</time>
      </trkpt>
      <trkpt lat="43.50905" lon="6.39059">
        <ele>192.1</ele>
        <time>2026-02-23T08:24:47.000Z</time>
      </trkpt>
      <trkpt lat="43.50913" lon="6.39064">
        <ele>191.9</ele>
        <time>2026-02-23T08:24:54.000Z</time>
      </trkpt>
      <trkpt lat="43.50923" lon="6.39065">
        <ele>191.4</ele>
        <time>2026-02-23T08:25:07.000Z</time>
      </trkpt>
      <trkpt lat="43.50931" lon="6.39068">
        <ele>191.2</ele>
        <time>2026-02-23T08:25:15.000Z</time>
      </trkpt>
      <trkpt lat="43.5094" lon="6.39071">
        <ele>191</ele>
        <time>2026-02-23T08:25:23.000Z</time>
      </trkpt>
      <trkpt lat="43.5095" lon="6.39074">
        <ele>190.8</ele>
        <time>2026-02-23T08:25:32.000Z</time>
      </trkpt>
      <trkpt lat="43.50959" lon="6.39074">
        <ele>190.6</ele>
        <time>2026-02-23T08:25:42.000Z</time>
      </trkpt>
      <trkpt lat="43.50968" lon="6.39074">
        <ele>190.4</ele>
        <time>2026-02-23T08:25:52.000Z</time>
      </trkpt>
      <trkpt lat="43.50977" lon="6.39074">
        <ele>190.2</ele>
        <time>2026-02-23T08:26:01.000Z</time>
      </trkpt>
      <trkpt lat="43.50986" lon="6.39079">
        <ele>190.1</ele>
        <time>2026-02-23T08:26:10.000Z</time>
      </trkpt>
      <trkpt lat="43.50996" lon="6.39077">
        <ele>189.9</ele>
        <time>2026-02-23T08:26:19.000Z</time>
      </trkpt>
      <trkpt lat="43.51004" lon="6.3907">
        <ele>189.6</ele>
        <time>2026-02-23T08:26:33.000Z</time>
      </trkpt>
      <trkpt lat="43.51013" lon="6.39069">
        <ele>189.5</ele>
        <time>2026-02-23T08:26:43.000Z</time>
      </trkpt>
      <trkpt lat="43.51023" lon="6.39069">
        <ele>189.5</ele>
        <time>2026-02-23T08:26:54.000Z</time>
      </trkpt>
      <trkpt lat="43.51032" lon="6.39066">
        <ele>189.5</ele>
        <time>2026-02-23T08:27:02.000Z</time>
      </trkpt>
      <trkpt lat="43.51042" lon="6.39065">
        <ele>189.5</ele>
        <time>2026-02-23T08:27:15.000Z</time>
      </trkpt>
      <trkpt lat="43.51052" lon="6.39062">
        <ele>189.4</ele>
        <time>2026-02-23T08:27:26.000Z</time>
      </trkpt>
      <trkpt lat="43.51061" lon="6.39059">
        <ele>189.3</ele>
        <time>2026-02-23T08:27:37.000Z</time>
      </trkpt>
      <trkpt lat="43.51066" lon="6.39048">
        <ele>189.1</ele>
        <time>2026-02-23T08:27:46.000Z</time>
      </trkpt>
      <trkpt lat="43.51069" lon="6.39036">
        <ele>189</ele>
        <time>2026-02-23T08:28:09.000Z</time>
      </trkpt>
      <trkpt lat="43.51068" lon="6.39037">
        <ele>188.8</ele>
        <time>2026-02-23T08:28:36.000Z</time>
      </trkpt>
      <trkpt lat="43.51069" lon="6.39037">
        <ele>188.6</ele>
        <time>2026-02-23T08:28:51.000Z</time>
      </trkpt>
      <trkpt lat="43.51076" lon="6.39036">
        <ele>188.5</ele>
        <time>2026-02-23T08:29:38.000Z</time>
      </trkpt>
      <trkpt lat="43.51075" lon="6.39039">
        <ele>188.6</ele>
        <time>2026-02-23T08:30:03.000Z</time>
      </trkpt>
      <trkpt lat="43.51084" lon="6.39039">
        <ele>188.6</ele>
        <time>2026-02-23T08:30:17.000Z</time>
      </trkpt>
      <trkpt lat="43.51094" lon="6.39036">
        <ele>188.9</ele>
        <time>2026-02-23T08:30:30.000Z</time>
      </trkpt>
      <trkpt lat="43.51103" lon="6.3903">
        <ele>189.9</ele>
        <time>2026-02-23T08:30:42.000Z</time>
      </trkpt>
      <trkpt lat="43.51112" lon="6.39029">
        <ele>191.4</ele>
        <time>2026-02-23T08:30:54.000Z</time>
      </trkpt>
      <trkpt lat="43.5112" lon="6.39024">
        <ele>192.4</ele>
        <time>2026-02-23T08:31:04.000Z</time>
      </trkpt>
      <trkpt lat="43.51129" lon="6.39023">
        <ele>193.4</ele>
        <time>2026-02-23T08:31:15.000Z</time>
      </trkpt>
      <trkpt lat="43.51138" lon="6.39019">
        <ele>195.5</ele>
        <time>2026-02-23T08:31:38.000Z</time>
      </trkpt>
      <trkpt lat="43.51146" lon="6.39014">
        <ele>195.7</ele>
        <time>2026-02-23T08:31:51.000Z</time>
      </trkpt>
      <trkpt lat="43.51155" lon="6.39013">
        <ele>196.4</ele>
        <time>2026-02-23T08:32:03.000Z</time>
      </trkpt>
      <trkpt lat="43.51164" lon="6.39007">
        <ele>197.4</ele>
        <time>2026-02-23T08:32:13.000Z</time>
      </trkpt>
      <trkpt lat="43.51173" lon="6.39004">
        <ele>198.7</ele>
        <time>2026-02-23T08:32:23.000Z</time>
      </trkpt>
      <trkpt lat="43.51183" lon="6.39002">
        <ele>199.8</ele>
        <time>2026-02-23T08:32:34.000Z</time>
      </trkpt>
      <trkpt lat="43.51192" lon="6.38999">
        <ele>200.4</ele>
        <time>2026-02-23T08:32:44.000Z</time>
      </trkpt>
      <trkpt lat="43.51201" lon="6.38996">
        <ele>201.1</ele>
        <time>2026-02-23T08:32:54.000Z</time>
      </trkpt>
      <trkpt lat="43.5121" lon="6.38992">
        <ele>202.1</ele>
        <time>2026-02-23T08:33:06.000Z</time>
      </trkpt>
      <trkpt lat="43.51219" lon="6.38989">
        <ele>203.1</ele>
        <time>2026-02-23T08:33:17.000Z</time>
      </trkpt>
      <trkpt lat="43.51227" lon="6.38983">
        <ele>203.7</ele>
        <time>2026-02-23T08:33:26.000Z</time>
      </trkpt>
      <trkpt lat="43.51236" lon="6.3898">
        <ele>204.3</ele>
        <time>2026-02-23T08:33:36.000Z</time>
      </trkpt>
      <trkpt lat="43.51246" lon="6.38978">
        <ele>205</ele>
        <time>2026-02-23T08:33:46.000Z</time>
      </trkpt>
      <trkpt lat="43.51254" lon="6.38975">
        <ele>205.9</ele>
        <time>2026-02-23T08:33:57.000Z</time>
      </trkpt>
      <trkpt lat="43.51264" lon="6.38973">
        <ele>207</ele>
        <time>2026-02-23T08:34:09.000Z</time>
      </trkpt>
      <trkpt lat="43.51273" lon="6.38969">
        <ele>207.8</ele>
        <time>2026-02-23T08:34:19.000Z</time>
      </trkpt>
      <trkpt lat="43.51282" lon="6.38965">
        <ele>208.5</ele>
        <time>2026-02-23T08:34:29.000Z</time>
      </trkpt>
      <trkpt lat="43.51292" lon="6.38963">
        <ele>209.3</ele>
        <time>2026-02-23T08:34:40.000Z</time>
      </trkpt>
      <trkpt lat="43.513" lon="6.38959">
        <ele>209.8</ele>
        <time>2026-02-23T08:34:50.000Z</time>
      </trkpt>
      <trkpt lat="43.51309" lon="6.38954">
        <ele>210.5</ele>
        <time>2026-02-23T08:35:01.000Z</time>
      </trkpt>
      <trkpt lat="43.51318" lon="6.38949">
        <ele>211.4</ele>
        <time>2026-02-23T08:35:12.000Z</time>
      </trkpt>
      <trkpt lat="43.51327" lon="6.38946">
        <ele>212.1</ele>
        <time>2026-02-23T08:35:23.000Z</time>
      </trkpt>
      <trkpt lat="43.51337" lon="6.38943">
        <ele>213.2</ele>
        <time>2026-02-23T08:35:38.000Z</time>
      </trkpt>
      <trkpt lat="43.51346" lon="6.38942">
        <ele>213.8</ele>
        <time>2026-02-23T08:35:54.000Z</time>
      </trkpt>
      <trkpt lat="43.51356" lon="6.38941">
        <ele>214.2</ele>
        <time>2026-02-23T08:36:06.000Z</time>
      </trkpt>
      <trkpt lat="43.51365" lon="6.38934">
        <ele>214.8</ele>
        <time>2026-02-23T08:36:17.000Z</time>
      </trkpt>
      <trkpt lat="43.51374" lon="6.38933">
        <ele>215.5</ele>
        <time>2026-02-23T08:36:28.000Z</time>
      </trkpt>
      <trkpt lat="43.51383" lon="6.38929">
        <ele>216.2</ele>
        <time>2026-02-23T08:36:39.000Z</time>
      </trkpt>
      <trkpt lat="43.51391" lon="6.38925">
        <ele>217</ele>
        <time>2026-02-23T08:36:50.000Z</time>
      </trkpt>
      <trkpt lat="43.514" lon="6.38919">
        <ele>217.8</ele>
        <time>2026-02-23T08:37:03.000Z</time>
      </trkpt>
      <trkpt lat="43.51404" lon="6.38909">
        <ele>219.5</ele>
        <time>2026-02-23T08:37:31.000Z</time>
      </trkpt>
      <trkpt lat="43.51404" lon="6.38909">
        <ele>220.1</ele>
        <time>2026-02-23T08:38:18.000Z</time>
      </trkpt>
      <trkpt lat="43.51405" lon="6.38907">
        <ele>220.1</ele>
        <time>2026-02-23T08:38:33.000Z</time>
      </trkpt>
      <trkpt lat="43.51406" lon="6.38908">
        <ele>220.1</ele>
        <time>2026-02-23T08:38:37.000Z</time>
      </trkpt>
      <trkpt lat="43.51415" lon="6.38911">
        <ele>220.4</ele>
        <time>2026-02-23T08:39:09.000Z</time>
      </trkpt>
      <trkpt lat="43.51416" lon="6.38913">
        <ele>220.6</ele>
        <time>2026-02-23T08:39:20.000Z</time>
      </trkpt>
      <trkpt lat="43.51415" lon="6.38915">
        <ele>220.8</ele>
        <time>2026-02-23T08:39:30.000Z</time>
      </trkpt>
      <trkpt lat="43.51414" lon="6.38914">
        <ele>220.8</ele>
        <time>2026-02-23T08:39:50.000Z</time>
      </trkpt>
      <trkpt lat="43.51412" lon="6.3892">
        <ele>220.9</ele>
        <time>2026-02-23T08:40:05.000Z</time>
      </trkpt>
      <trkpt lat="43.51413" lon="6.38932">
        <ele>220.7</ele>
        <time>2026-02-23T08:40:24.000Z</time>
      </trkpt>
      <trkpt lat="43.51413" lon="6.38945">
        <ele>219.9</ele>
        <time>2026-02-23T08:40:38.000Z</time>
      </trkpt>
      <trkpt lat="43.51418" lon="6.38957">
        <ele>218.5</ele>
        <time>2026-02-23T08:40:49.000Z</time>
      </trkpt>
      <trkpt lat="43.51424" lon="6.38966">
        <ele>216.9</ele>
        <time>2026-02-23T08:41:06.000Z</time>
      </trkpt>
      <trkpt lat="43.51431" lon="6.38974">
        <ele>216.6</ele>
        <time>2026-02-23T08:41:29.000Z</time>
      </trkpt>
      <trkpt lat="43.51438" lon="6.38985">
        <ele>216.5</ele>
        <time>2026-02-23T08:41:39.000Z</time>
      </trkpt>
      <trkpt lat="43.51442" lon="6.38997">
        <ele>216.5</ele>
        <time>2026-02-23T08:41:48.000Z</time>
      </trkpt>
      <trkpt lat="43.51448" lon="6.39007">
        <ele>216.5</ele>
        <time>2026-02-23T08:41:57.000Z</time>
      </trkpt>
      <trkpt lat="43.51455" lon="6.39015">
        <ele>216.5</ele>
        <time>2026-02-23T08:42:06.000Z</time>
      </trkpt>
      <trkpt lat="43.51464" lon="6.39022">
        <ele>216.7</ele>
        <time>2026-02-23T08:42:15.000Z</time>
      </trkpt>
      <trkpt lat="43.51471" lon="6.3903">
        <ele>216.8</ele>
        <time>2026-02-23T08:42:25.000Z</time>
      </trkpt>
      <trkpt lat="43.5148" lon="6.39036">
        <ele>217.1</ele>
        <time>2026-02-23T08:42:35.000Z</time>
      </trkpt>
      <trkpt lat="43.51489" lon="6.39041">
        <ele>217.3</ele>
        <time>2026-02-23T08:42:45.000Z</time>
      </trkpt>
      <trkpt lat="43.51497" lon="6.39046">
        <ele>217.6</ele>
        <time>2026-02-23T08:42:55.000Z</time>
      </trkpt>
      <trkpt lat="43.51506" lon="6.39051">
        <ele>217.8</ele>
        <time>2026-02-23T08:43:04.000Z</time>
      </trkpt>
      <trkpt lat="43.51515" lon="6.39055">
        <ele>217.9</ele>
        <time>2026-02-23T08:43:13.000Z</time>
      </trkpt>
      <trkpt lat="43.51524" lon="6.39058">
        <ele>218.2</ele>
        <time>2026-02-23T08:43:22.000Z</time>
      </trkpt>
      <trkpt lat="43.51534" lon="6.3906">
        <ele>218.6</ele>
        <time>2026-02-23T08:43:32.000Z</time>
      </trkpt>
      <trkpt lat="43.51543" lon="6.39062">
        <ele>219</ele>
        <time>2026-02-23T08:43:42.000Z</time>
      </trkpt>
      <trkpt lat="43.51553" lon="6.39065">
        <ele>219.5</ele>
        <time>2026-02-23T08:43:52.000Z</time>
      </trkpt>
      <trkpt lat="43.51561" lon="6.39072">
        <ele>219.9</ele>
        <time>2026-02-23T08:44:04.000Z</time>
      </trkpt>
      <trkpt lat="43.5157" lon="6.39077">
        <ele>220.2</ele>
        <time>2026-02-23T08:44:14.000Z</time>
      </trkpt>
      <trkpt lat="43.51579" lon="6.3908">
        <ele>220.4</ele>
        <time>2026-02-23T08:44:24.000Z</time>
      </trkpt>
      <trkpt lat="43.51588" lon="6.39082">
        <ele>220.7</ele>
        <time>2026-02-23T08:44:32.000Z</time>
      </trkpt>
      <trkpt lat="43.51597" lon="6.39086">
        <ele>221</ele>
        <time>2026-02-23T08:44:43.000Z</time>
      </trkpt>
      <trkpt lat="43.51606" lon="6.39087">
        <ele>221.4</ele>
        <time>2026-02-23T08:44:55.000Z</time>
      </trkpt>
      <trkpt lat="43.51616" lon="6.39088">
        <ele>221.8</ele>
        <time>2026-02-23T08:45:05.000Z</time>
      </trkpt>
      <trkpt lat="43.51625" lon="6.39093">
        <ele>221.9</ele>
        <time>2026-02-23T08:45:14.000Z</time>
      </trkpt>
      <trkpt lat="43.51635" lon="6.39097">
        <ele>222.2</ele>
        <time>2026-02-23T08:45:24.000Z</time>
      </trkpt>
      <trkpt lat="43.51643" lon="6.39101">
        <ele>222.4</ele>
        <time>2026-02-23T08:45:35.000Z</time>
      </trkpt>
      <trkpt lat="43.51652" lon="6.39106">
        <ele>222.6</ele>
        <time>2026-02-23T08:45:45.000Z</time>
      </trkpt>
      <trkpt lat="43.51661" lon="6.3911">
        <ele>223</ele>
        <time>2026-02-23T08:45:56.000Z</time>
      </trkpt>
      <trkpt lat="43.51668" lon="6.39118">
        <ele>223.3</ele>
        <time>2026-02-23T08:46:09.000Z</time>
      </trkpt>
      <trkpt lat="43.51675" lon="6.39125">
        <ele>223.7</ele>
        <time>2026-02-23T08:46:21.000Z</time>
      </trkpt>
      <trkpt lat="43.51682" lon="6.39134">
        <ele>223.9</ele>
        <time>2026-02-23T08:46:30.000Z</time>
      </trkpt>
      <trkpt lat="43.5169" lon="6.39141">
        <ele>224.1</ele>
        <time>2026-02-23T08:46:38.000Z</time>
      </trkpt>
      <trkpt lat="43.51696" lon="6.39149">
        <ele>224.3</ele>
        <time>2026-02-23T08:46:47.000Z</time>
      </trkpt>
      <trkpt lat="43.51702" lon="6.3916">
        <ele>224.6</ele>
        <time>2026-02-23T08:46:56.000Z</time>
      </trkpt>
      <trkpt lat="43.5171" lon="6.39167">
        <ele>225</ele>
        <time>2026-02-23T08:47:10.000Z</time>
      </trkpt>
      <trkpt lat="43.51716" lon="6.39177">
        <ele>225.3</ele>
        <time>2026-02-23T08:47:21.000Z</time>
      </trkpt>
      <trkpt lat="43.51719" lon="6.3919">
        <ele>225.5</ele>
        <time>2026-02-23T08:47:30.000Z</time>
      </trkpt>
      <trkpt lat="43.5172" lon="6.39202">
        <ele>225.7</ele>
        <time>2026-02-23T08:47:38.000Z</time>
      </trkpt>
      <trkpt lat="43.51726" lon="6.39212">
        <ele>225.9</ele>
        <time>2026-02-23T08:47:49.000Z</time>
      </trkpt>
      <trkpt lat="43.51731" lon="6.39224">
        <ele>226.7</ele>
        <time>2026-02-23T08:47:58.000Z</time>
      </trkpt>
      <trkpt lat="43.51733" lon="6.39237">
        <ele>226.9</ele>
        <time>2026-02-23T08:48:07.000Z</time>
      </trkpt>
      <trkpt lat="43.51735" lon="6.39249">
        <ele>227.3</ele>
        <time>2026-02-23T08:48:16.000Z</time>
      </trkpt>
      <trkpt lat="43.51735" lon="6.39262">
        <ele>227.5</ele>
        <time>2026-02-23T08:48:24.000Z</time>
      </trkpt>
      <trkpt lat="43.51736" lon="6.39274">
        <ele>227.7</ele>
        <time>2026-02-23T08:48:33.000Z</time>
      </trkpt>
      <trkpt lat="43.51736" lon="6.39287">
        <ele>227.8</ele>
        <time>2026-02-23T08:48:43.000Z</time>
      </trkpt>
      <trkpt lat="43.51736" lon="6.393">
        <ele>228.1</ele>
        <time>2026-02-23T08:48:53.000Z</time>
      </trkpt>
      <trkpt lat="43.51735" lon="6.39313">
        <ele>228.4</ele>
        <time>2026-02-23T08:49:03.000Z</time>
      </trkpt>
      <trkpt lat="43.51732" lon="6.39326">
        <ele>228.8</ele>
        <time>2026-02-23T08:49:13.000Z</time>
      </trkpt>
      <trkpt lat="43.51729" lon="6.39339">
        <ele>228.9</ele>
        <time>2026-02-23T08:49:23.000Z</time>
      </trkpt>
      <trkpt lat="43.51725" lon="6.39351">
        <ele>229.1</ele>
        <time>2026-02-23T08:49:32.000Z</time>
      </trkpt>
      <trkpt lat="43.51721" lon="6.39362">
        <ele>229.3</ele>
        <time>2026-02-23T08:49:42.000Z</time>
      </trkpt>
      <trkpt lat="43.51714" lon="6.39371">
        <ele>229.4</ele>
        <time>2026-02-23T08:49:51.000Z</time>
      </trkpt>
      <trkpt lat="43.51708" lon="6.39381">
        <ele>229.5</ele>
        <time>2026-02-23T08:50:01.000Z</time>
      </trkpt>
      <trkpt lat="43.51703" lon="6.39392">
        <ele>229.7</ele>
        <time>2026-02-23T08:50:10.000Z</time>
      </trkpt>
      <trkpt lat="43.51698" lon="6.39403">
        <ele>230</ele>
        <time>2026-02-23T08:50:23.000Z</time>
      </trkpt>
      <trkpt lat="43.51689" lon="6.3941">
        <ele>230.5</ele>
        <time>2026-02-23T08:50:50.000Z</time>
      </trkpt>
      <trkpt lat="43.51683" lon="6.3942">
        <ele>230.6</ele>
        <time>2026-02-23T08:51:00.000Z</time>
      </trkpt>
      <trkpt lat="43.51677" lon="6.39429">
        <ele>230.8</ele>
        <time>2026-02-23T08:51:10.000Z</time>
      </trkpt>
      <trkpt lat="43.51668" lon="6.39434">
        <ele>231.1</ele>
        <time>2026-02-23T08:51:22.000Z</time>
      </trkpt>
      <trkpt lat="43.51661" lon="6.39443">
        <ele>231.5</ele>
        <time>2026-02-23T08:51:35.000Z</time>
      </trkpt>
      <trkpt lat="43.51652" lon="6.3945">
        <ele>231.8</ele>
        <time>2026-02-23T08:51:45.000Z</time>
      </trkpt>
      <trkpt lat="43.51645" lon="6.39454">
        <ele>232.2</ele>
        <time>2026-02-23T08:52:05.000Z</time>
      </trkpt>
      <trkpt lat="43.51643" lon="6.39457">
        <ele>232.3</ele>
        <time>2026-02-23T08:52:23.000Z</time>
      </trkpt>
      <trkpt lat="43.51635" lon="6.39463">
        <ele>232.4</ele>
        <time>2026-02-23T08:52:38.000Z</time>
      </trkpt>
      <trkpt lat="43.51625" lon="6.3946">
        <ele>232.7</ele>
        <time>2026-02-23T08:52:48.000Z</time>
      </trkpt>
      <trkpt lat="43.51618" lon="6.39469">
        <ele>233</ele>
        <time>2026-02-23T08:53:00.000Z</time>
      </trkpt>
      <trkpt lat="43.5161" lon="6.39476">
        <ele>234</ele>
        <time>2026-02-23T08:53:10.000Z</time>
      </trkpt>
      <trkpt lat="43.51604" lon="6.39485">
        <ele>235.4</ele>
        <time>2026-02-23T08:53:19.000Z</time>
      </trkpt>
      <trkpt lat="43.516" lon="6.39497">
        <ele>236.7</ele>
        <time>2026-02-23T08:53:32.000Z</time>
      </trkpt>
      <trkpt lat="43.51593" lon="6.39507">
        <ele>237.4</ele>
        <time>2026-02-23T08:53:43.000Z</time>
      </trkpt>
      <trkpt lat="43.51586" lon="6.39514">
        <ele>237.9</ele>
        <time>2026-02-23T08:53:54.000Z</time>
      </trkpt>
      <trkpt lat="43.51579" lon="6.39524">
        <ele>238.5</ele>
        <time>2026-02-23T08:54:06.000Z</time>
      </trkpt>
      <trkpt lat="43.51573" lon="6.39534">
        <ele>239.2</ele>
        <time>2026-02-23T08:54:17.000Z</time>
      </trkpt>
      <trkpt lat="43.51572" lon="6.39547">
        <ele>240.1</ele>
        <time>2026-02-23T08:54:26.000Z</time>
      </trkpt>
      <trkpt lat="43.51569" lon="6.39558">
        <ele>241</ele>
        <time>2026-02-23T08:54:36.000Z</time>
      </trkpt>
      <trkpt lat="43.51567" lon="6.39571">
        <ele>242</ele>
        <time>2026-02-23T08:54:47.000Z</time>
      </trkpt>
      <trkpt lat="43.51564" lon="6.39584">
        <ele>243.1</ele>
        <time>2026-02-23T08:54:59.000Z</time>
      </trkpt>
      <trkpt lat="43.51563" lon="6.39597">
        <ele>244.3</ele>
        <time>2026-02-23T08:55:11.000Z</time>
      </trkpt>
      <trkpt lat="43.51564" lon="6.39611">
        <ele>245.4</ele>
        <time>2026-02-23T08:55:24.000Z</time>
      </trkpt>
      <trkpt lat="43.51563" lon="6.39624">
        <ele>246.8</ele>
        <time>2026-02-23T08:55:36.000Z</time>
      </trkpt>
      <trkpt lat="43.51562" lon="6.39631">
        <ele>248.3</ele>
        <time>2026-02-23T08:55:56.000Z</time>
      </trkpt>
      <trkpt lat="43.51562" lon="6.39632">
        <ele>248.3</ele>
        <time>2026-02-23T08:55:59.000Z</time>
      </trkpt>
      <trkpt lat="43.51564" lon="6.39645">
        <ele>248.8</ele>
        <time>2026-02-23T08:56:13.000Z</time>
      </trkpt>
      <trkpt lat="43.51565" lon="6.39658">
        <ele>249.6</ele>
        <time>2026-02-23T08:56:22.000Z</time>
      </trkpt>
      <trkpt lat="43.51565" lon="6.39671">
        <ele>250.5</ele>
        <time>2026-02-23T08:56:34.000Z</time>
      </trkpt>
      <trkpt lat="43.51561" lon="6.39682">
        <ele>251.3</ele>
        <time>2026-02-23T08:56:47.000Z</time>
      </trkpt>
      <trkpt lat="43.51554" lon="6.39689">
        <ele>251.7</ele>
        <time>2026-02-23T08:56:58.000Z</time>
      </trkpt>
      <trkpt lat="43.51553" lon="6.39699">
        <ele>252.7</ele>
        <time>2026-02-23T08:57:23.000Z</time>
      </trkpt>
      <trkpt lat="43.51553" lon="6.39699">
        <ele>252.8</ele>
        <time>2026-02-23T08:57:33.000Z</time>
      </trkpt>
      <trkpt lat="43.51543" lon="6.39701">
        <ele>252.8</ele>
        <time>2026-02-23T08:57:49.000Z</time>
      </trkpt>
      <trkpt lat="43.5154" lon="6.39703">
        <ele>252.4</ele>
        <time>2026-02-23T08:58:26.000Z</time>
      </trkpt>
      <trkpt lat="43.51541" lon="6.39707">
        <ele>252.4</ele>
        <time>2026-02-23T08:59:57.000Z</time>
      </trkpt>
      <trkpt lat="43.51541" lon="6.39707">
        <ele>252.4</ele>
        <time>2026-02-23T09:00:07.000Z</time>
      </trkpt>
      <trkpt lat="43.5154" lon="6.39712">
        <ele>252.3</ele>
        <time>2026-02-23T09:01:08.000Z</time>
      </trkpt>
      <trkpt lat="43.51539" lon="6.39713">
        <ele>252.3</ele>
        <time>2026-02-23T09:01:23.000Z</time>
      </trkpt>
      <trkpt lat="43.51539" lon="6.39713">
        <ele>252.2</ele>
        <time>2026-02-23T09:01:55.000Z</time>
      </trkpt>
      <trkpt lat="43.51539" lon="6.39714">
        <ele>252.1</ele>
        <time>2026-02-23T09:02:06.000Z</time>
      </trkpt>
      <trkpt lat="43.51539" lon="6.39714">
        <ele>252</ele>
        <time>2026-02-23T09:02:35.000Z</time>
      </trkpt>
      <trkpt lat="43.51536" lon="6.39727">
        <ele>251.6</ele>
        <time>2026-02-23T09:02:58.000Z</time>
      </trkpt>
      <trkpt lat="43.51531" lon="6.39738">
        <ele>251.1</ele>
        <time>2026-02-23T09:03:13.000Z</time>
      </trkpt>
      <trkpt lat="43.5153" lon="6.39751">
        <ele>249.4</ele>
        <time>2026-02-23T09:03:27.000Z</time>
      </trkpt>
      <trkpt lat="43.51525" lon="6.39763">
        <ele>248.3</ele>
        <time>2026-02-23T09:03:35.000Z</time>
      </trkpt>
      <trkpt lat="43.51521" lon="6.39774">
        <ele>247</ele>
        <time>2026-02-23T09:03:44.000Z</time>
      </trkpt>
      <trkpt lat="43.51521" lon="6.39787">
        <ele>245.9</ele>
        <time>2026-02-23T09:03:53.000Z</time>
      </trkpt>
      <trkpt lat="43.51524" lon="6.39799">
        <ele>245</ele>
        <time>2026-02-23T09:04:03.000Z</time>
      </trkpt>
      <trkpt lat="43.5153" lon="6.3981">
        <ele>244.5</ele>
        <time>2026-02-23T09:04:12.000Z</time>
      </trkpt>
      <trkpt lat="43.51535" lon="6.3982">
        <ele>244.2</ele>
        <time>2026-02-23T09:04:22.000Z</time>
      </trkpt>
      <trkpt lat="43.51542" lon="6.39829">
        <ele>244.1</ele>
        <time>2026-02-23T09:04:31.000Z</time>
      </trkpt>
      <trkpt lat="43.51549" lon="6.39839">
        <ele>244</ele>
        <time>2026-02-23T09:04:40.000Z</time>
      </trkpt>
      <trkpt lat="43.51555" lon="6.3985">
        <ele>244.2</ele>
        <time>2026-02-23T09:04:51.000Z</time>
      </trkpt>
      <trkpt lat="43.51563" lon="6.39857">
        <ele>244.4</ele>
        <time>2026-02-23T09:04:58.000Z</time>
      </trkpt>
      <trkpt lat="43.51572" lon="6.3986">
        <ele>244.7</ele>
        <time>2026-02-23T09:05:08.000Z</time>
      </trkpt>
      <trkpt lat="43.51581" lon="6.39863">
        <ele>244.8</ele>
        <time>2026-02-23T09:05:16.000Z</time>
      </trkpt>
      <trkpt lat="43.5159" lon="6.39868">
        <ele>244.8</ele>
        <time>2026-02-23T09:05:27.000Z</time>
      </trkpt>
      <trkpt lat="43.51597" lon="6.39878">
        <ele>244.4</ele>
        <time>2026-02-23T09:05:39.000Z</time>
      </trkpt>
      <trkpt lat="43.51604" lon="6.39886">
        <ele>242.7</ele>
        <time>2026-02-23T09:05:52.000Z</time>
      </trkpt>
      <trkpt lat="43.51608" lon="6.39897">
        <ele>240.9</ele>
        <time>2026-02-23T09:06:08.000Z</time>
      </trkpt>
      <trkpt lat="43.51608" lon="6.39907">
        <ele>239.6</ele>
        <time>2026-02-23T09:06:32.000Z</time>
      </trkpt>
      <trkpt lat="43.51608" lon="6.39907">
        <ele>239.5</ele>
        <time>2026-02-23T09:07:12.000Z</time>
      </trkpt>
      <trkpt lat="43.51608" lon="6.39907">
        <ele>239.4</ele>
        <time>2026-02-23T09:07:23.000Z</time>
      </trkpt>
      <trkpt lat="43.51608" lon="6.39907">
        <ele>239.5</ele>
        <time>2026-02-23T09:07:56.000Z</time>
      </trkpt>
      <trkpt lat="43.51611" lon="6.3992">
        <ele>239.5</ele>
        <time>2026-02-23T09:08:20.000Z</time>
      </trkpt>
      <trkpt lat="43.51612" lon="6.39932">
        <ele>239.4</ele>
        <time>2026-02-23T09:08:29.000Z</time>
      </trkpt>
      <trkpt lat="43.51612" lon="6.39946">
        <ele>239.4</ele>
        <time>2026-02-23T09:08:38.000Z</time>
      </trkpt>
      <trkpt lat="43.51611" lon="6.39959">
        <ele>239.4</ele>
        <time>2026-02-23T09:08:48.000Z</time>
      </trkpt>
      <trkpt lat="43.51611" lon="6.39972">
        <ele>239.5</ele>
        <time>2026-02-23T09:08:58.000Z</time>
      </trkpt>
      <trkpt lat="43.5161" lon="6.39986">
        <ele>239.7</ele>
        <time>2026-02-23T09:09:08.000Z</time>
      </trkpt>
      <trkpt lat="43.51606" lon="6.39998">
        <ele>239.9</ele>
        <time>2026-02-23T09:09:19.000Z</time>
      </trkpt>
      <trkpt lat="43.51601" lon="6.4001">
        <ele>240</ele>
        <time>2026-02-23T09:09:30.000Z</time>
      </trkpt>
      <trkpt lat="43.51594" lon="6.40018">
        <ele>240.2</ele>
        <time>2026-02-23T09:09:41.000Z</time>
      </trkpt>
      <trkpt lat="43.51587" lon="6.40027">
        <ele>240.3</ele>
        <time>2026-02-23T09:09:50.000Z</time>
      </trkpt>
      <trkpt lat="43.51581" lon="6.40037">
        <ele>240.4</ele>
        <time>2026-02-23T09:10:00.000Z</time>
      </trkpt>
      <trkpt lat="43.51576" lon="6.40048">
        <ele>240.7</ele>
        <time>2026-02-23T09:10:28.000Z</time>
      </trkpt>
      <trkpt lat="43.51569" lon="6.40056">
        <ele>241.2</ele>
        <time>2026-02-23T09:10:46.000Z</time>
      </trkpt>
      <trkpt lat="43.51563" lon="6.40066">
        <ele>242.4</ele>
        <time>2026-02-23T09:10:57.000Z</time>
      </trkpt>
      <trkpt lat="43.51555" lon="6.40072">
        <ele>244.2</ele>
        <time>2026-02-23T09:11:13.000Z</time>
      </trkpt>
      <trkpt lat="43.51548" lon="6.40082">
        <ele>245.9</ele>
        <time>2026-02-23T09:11:24.000Z</time>
      </trkpt>
      <trkpt lat="43.51541" lon="6.40092">
        <ele>247.1</ele>
        <time>2026-02-23T09:11:34.000Z</time>
      </trkpt>
      <trkpt lat="43.51535" lon="6.401">
        <ele>248</ele>
        <time>2026-02-23T09:11:46.000Z</time>
      </trkpt>
      <trkpt lat="43.51529" lon="6.40111">
        <ele>248.5</ele>
        <time>2026-02-23T09:11:58.000Z</time>
      </trkpt>
      <trkpt lat="43.51524" lon="6.40122">
        <ele>249.1</ele>
        <time>2026-02-23T09:12:10.000Z</time>
      </trkpt>
      <trkpt lat="43.51516" lon="6.40131">
        <ele>249.6</ele>
        <time>2026-02-23T09:12:17.000Z</time>
      </trkpt>
      <trkpt lat="43.51514" lon="6.40143">
        <ele>251.7</ele>
        <time>2026-02-23T09:12:43.000Z</time>
      </trkpt>
      <trkpt lat="43.5151" lon="6.40156">
        <ele>253.8</ele>
        <time>2026-02-23T09:12:59.000Z</time>
      </trkpt>
      <trkpt lat="43.51509" lon="6.40169">
        <ele>254.7</ele>
        <time>2026-02-23T09:13:06.000Z</time>
      </trkpt>
      <trkpt lat="43.515" lon="6.40176">
        <ele>255.5</ele>
        <time>2026-02-23T09:13:17.000Z</time>
      </trkpt>
      <trkpt lat="43.51495" lon="6.40187">
        <ele>255.9</ele>
        <time>2026-02-23T09:13:29.000Z</time>
      </trkpt>
      <trkpt lat="43.51494" lon="6.40195">
        <ele>255.7</ele>
        <time>2026-02-23T09:13:53.000Z</time>
      </trkpt>
      <trkpt lat="43.51491" lon="6.40198">
        <ele>255.6</ele>
        <time>2026-02-23T09:14:02.000Z</time>
      </trkpt>
      <trkpt lat="43.51485" lon="6.40209">
        <ele>255.5</ele>
        <time>2026-02-23T09:14:09.000Z</time>
      </trkpt>
      <trkpt lat="43.51478" lon="6.40219">
        <ele>255.5</ele>
        <time>2026-02-23T09:14:17.000Z</time>
      </trkpt>
      <trkpt lat="43.51475" lon="6.40231">
        <ele>255.2</ele>
        <time>2026-02-23T09:14:37.000Z</time>
      </trkpt>
      <trkpt lat="43.51478" lon="6.40244">
        <ele>254.6</ele>
        <time>2026-02-23T09:14:47.000Z</time>
      </trkpt>
      <trkpt lat="43.51485" lon="6.40252">
        <ele>253.1</ele>
        <time>2026-02-23T09:14:58.000Z</time>
      </trkpt>
      <trkpt lat="43.51488" lon="6.40264">
        <ele>251.5</ele>
        <time>2026-02-23T09:15:08.000Z</time>
      </trkpt>
      <trkpt lat="43.51494" lon="6.40274">
        <ele>250.1</ele>
        <time>2026-02-23T09:15:16.000Z</time>
      </trkpt>
      <trkpt lat="43.51497" lon="6.40287">
        <ele>248.6</ele>
        <time>2026-02-23T09:15:26.000Z</time>
      </trkpt>
      <trkpt lat="43.51501" lon="6.40298">
        <ele>247.3</ele>
        <time>2026-02-23T09:15:35.000Z</time>
      </trkpt>
      <trkpt lat="43.51507" lon="6.40307">
        <ele>245.5</ele>
        <time>2026-02-23T09:15:49.000Z</time>
      </trkpt>
      <trkpt lat="43.51513" lon="6.40318">
        <ele>244.3</ele>
        <time>2026-02-23T09:16:00.000Z</time>
      </trkpt>
      <trkpt lat="43.51515" lon="6.4033">
        <ele>243.2</ele>
        <time>2026-02-23T09:16:13.000Z</time>
      </trkpt>
      <trkpt lat="43.51522" lon="6.40337">
        <ele>242.4</ele>
        <time>2026-02-23T09:16:41.000Z</time>
      </trkpt>
      <trkpt lat="43.51526" lon="6.40348">
        <ele>242.3</ele>
        <time>2026-02-23T09:16:49.000Z</time>
      </trkpt>
      <trkpt lat="43.51528" lon="6.40362">
        <ele>242.1</ele>
        <time>2026-02-23T09:16:58.000Z</time>
      </trkpt>
      <trkpt lat="43.51534" lon="6.40372">
        <ele>242</ele>
        <time>2026-02-23T09:17:08.000Z</time>
      </trkpt>
      <trkpt lat="43.51539" lon="6.40382">
        <ele>242</ele>
        <time>2026-02-23T09:17:17.000Z</time>
      </trkpt>
      <trkpt lat="43.51543" lon="6.40394">
        <ele>242</ele>
        <time>2026-02-23T09:17:27.000Z</time>
      </trkpt>
      <trkpt lat="43.51549" lon="6.40404">
        <ele>242</ele>
        <time>2026-02-23T09:17:37.000Z</time>
      </trkpt>
      <trkpt lat="43.51553" lon="6.40416">
        <ele>242.1</ele>
        <time>2026-02-23T09:17:50.000Z</time>
      </trkpt>
      <trkpt lat="43.51557" lon="6.40427">
        <ele>242.3</ele>
        <time>2026-02-23T09:18:00.000Z</time>
      </trkpt>
      <trkpt lat="43.51559" lon="6.4044">
        <ele>242.5</ele>
        <time>2026-02-23T09:18:11.000Z</time>
      </trkpt>
      <trkpt lat="43.51562" lon="6.40452">
        <ele>242.8</ele>
        <time>2026-02-23T09:18:23.000Z</time>
      </trkpt>
      <trkpt lat="43.51566" lon="6.40464">
        <ele>243</ele>
        <time>2026-02-23T09:18:33.000Z</time>
      </trkpt>
      <trkpt lat="43.51566" lon="6.40477">
        <ele>243.1</ele>
        <time>2026-02-23T09:18:43.000Z</time>
      </trkpt>
      <trkpt lat="43.51565" lon="6.4049">
        <ele>243.2</ele>
        <time>2026-02-23T09:18:55.000Z</time>
      </trkpt>
      <trkpt lat="43.51565" lon="6.40503">
        <ele>243.2</ele>
        <time>2026-02-23T09:19:04.000Z</time>
      </trkpt>
      <trkpt lat="43.51566" lon="6.40515">
        <ele>243.2</ele>
        <time>2026-02-23T09:19:12.000Z</time>
      </trkpt>
      <trkpt lat="43.51568" lon="6.40529">
        <ele>243.3</ele>
        <time>2026-02-23T09:19:23.000Z</time>
      </trkpt>
      <trkpt lat="43.51568" lon="6.40541">
        <ele>243.4</ele>
        <time>2026-02-23T09:19:33.000Z</time>
      </trkpt>
      <trkpt lat="43.51569" lon="6.40554">
        <ele>243.6</ele>
        <time>2026-02-23T09:19:44.000Z</time>
      </trkpt>
      <trkpt lat="43.5157" lon="6.40566">
        <ele>244.3</ele>
        <time>2026-02-23T09:19:57.000Z</time>
      </trkpt>
      <trkpt lat="43.51573" lon="6.40578">
        <ele>245.5</ele>
        <time>2026-02-23T09:20:07.000Z</time>
      </trkpt>
      <trkpt lat="43.51576" lon="6.40591">
        <ele>247.3</ele>
        <time>2026-02-23T09:20:21.000Z</time>
      </trkpt>
      <trkpt lat="43.51577" lon="6.40603">
        <ele>248.7</ele>
        <time>2026-02-23T09:20:32.000Z</time>
      </trkpt>
      <trkpt lat="43.51583" lon="6.40614">
        <ele>249.7</ele>
        <time>2026-02-23T09:20:44.000Z</time>
      </trkpt>
      <trkpt lat="43.51586" lon="6.40627">
        <ele>250.5</ele>
        <time>2026-02-23T09:20:55.000Z</time>
      </trkpt>
      <trkpt lat="43.5159" lon="6.40639">
        <ele>250.7</ele>
        <time>2026-02-23T09:21:06.000Z</time>
      </trkpt>
      <trkpt lat="43.51591" lon="6.40652">
        <ele>250.7</ele>
        <time>2026-02-23T09:21:16.000Z</time>
      </trkpt>
      <trkpt lat="43.51592" lon="6.40665">
        <ele>250.8</ele>
        <time>2026-02-23T09:21:25.000Z</time>
      </trkpt>
      <trkpt lat="43.51597" lon="6.40675">
        <ele>250.7</ele>
        <time>2026-02-23T09:21:34.000Z</time>
      </trkpt>
      <trkpt lat="43.51604" lon="6.40684">
        <ele>250.8</ele>
        <time>2026-02-23T09:21:44.000Z</time>
      </trkpt>
      <trkpt lat="43.51612" lon="6.40689">
        <ele>250.8</ele>
        <time>2026-02-23T09:21:53.000Z</time>
      </trkpt>
      <trkpt lat="43.51621" lon="6.40691">
        <ele>250.8</ele>
        <time>2026-02-23T09:22:01.000Z</time>
      </trkpt>
      <trkpt lat="43.5163" lon="6.40692">
        <ele>250.8</ele>
        <time>2026-02-23T09:22:14.000Z</time>
      </trkpt>
      <trkpt lat="43.5164" lon="6.4069">
        <ele>250.5</ele>
        <time>2026-02-23T09:22:27.000Z</time>
      </trkpt>
      <trkpt lat="43.51649" lon="6.4069">
        <ele>249.6</ele>
        <time>2026-02-23T09:22:38.000Z</time>
      </trkpt>
      <trkpt lat="43.51659" lon="6.4069">
        <ele>248.1</ele>
        <time>2026-02-23T09:22:52.000Z</time>
      </trkpt>
      <trkpt lat="43.51668" lon="6.40689">
        <ele>246.8</ele>
        <time>2026-02-23T09:23:06.000Z</time>
      </trkpt>
      <trkpt lat="43.51677" lon="6.40687">
        <ele>246.2</ele>
        <time>2026-02-23T09:23:16.000Z</time>
      </trkpt>
      <trkpt lat="43.51678" lon="6.40691">
        <ele>245.2</ele>
        <time>2026-02-23T09:23:41.000Z</time>
      </trkpt>
      <trkpt lat="43.5168" lon="6.40691">
        <ele>245.1</ele>
        <time>2026-02-23T09:23:46.000Z</time>
      </trkpt>
      <trkpt lat="43.51687" lon="6.40686">
        <ele>245</ele>
        <time>2026-02-23T09:23:58.000Z</time>
      </trkpt>
      <trkpt lat="43.51692" lon="6.40687">
        <ele>245</ele>
        <time>2026-02-23T09:24:21.000Z</time>
      </trkpt>
      <trkpt lat="43.51702" lon="6.40684">
        <ele>244.9</ele>
        <time>2026-02-23T09:24:48.000Z</time>
      </trkpt>
      <trkpt lat="43.51711" lon="6.40686">
        <ele>244.9</ele>
        <time>2026-02-23T09:24:58.000Z</time>
      </trkpt>
      <trkpt lat="43.5172" lon="6.40689">
        <ele>244.9</ele>
        <time>2026-02-23T09:25:05.000Z</time>
      </trkpt>
      <trkpt lat="43.51729" lon="6.40689">
        <ele>244.9</ele>
        <time>2026-02-23T09:25:14.000Z</time>
      </trkpt>
      <trkpt lat="43.51738" lon="6.40686">
        <ele>245</ele>
        <time>2026-02-23T09:25:26.000Z</time>
      </trkpt>
      <trkpt lat="43.51747" lon="6.40689">
        <ele>245.2</ele>
        <time>2026-02-23T09:25:40.000Z</time>
      </trkpt>
      <trkpt lat="43.51756" lon="6.40693">
        <ele>245.4</ele>
        <time>2026-02-23T09:25:50.000Z</time>
      </trkpt>
      <trkpt lat="43.51766" lon="6.40692">
        <ele>245.5</ele>
        <time>2026-02-23T09:26:02.000Z</time>
      </trkpt>
      <trkpt lat="43.51775" lon="6.40691">
        <ele>245.6</ele>
        <time>2026-02-23T09:26:11.000Z</time>
      </trkpt>
      <trkpt lat="43.51784" lon="6.40693">
        <ele>245.6</ele>
        <time>2026-02-23T09:26:23.000Z</time>
      </trkpt>
      <trkpt lat="43.51794" lon="6.40692">
        <ele>245.6</ele>
        <time>2026-02-23T09:26:32.000Z</time>
      </trkpt>
      <trkpt lat="43.51803" lon="6.40692">
        <ele>245.7</ele>
        <time>2026-02-23T09:26:40.000Z</time>
      </trkpt>
      <trkpt lat="43.51813" lon="6.40695">
        <ele>245.7</ele>
        <time>2026-02-23T09:26:52.000Z</time>
      </trkpt>
      <trkpt lat="43.51822" lon="6.40695">
        <ele>245.7</ele>
        <time>2026-02-23T09:27:00.000Z</time>
      </trkpt>
      <trkpt lat="43.51831" lon="6.40692">
        <ele>245.8</ele>
        <time>2026-02-23T09:27:09.000Z</time>
      </trkpt>
      <trkpt lat="43.51841" lon="6.40694">
        <ele>245.8</ele>
        <time>2026-02-23T09:27:18.000Z</time>
      </trkpt>
      <trkpt lat="43.5185" lon="6.40693">
        <ele>245.9</ele>
        <time>2026-02-23T09:27:27.000Z</time>
      </trkpt>
      <trkpt lat="43.5186" lon="6.40695">
        <ele>245.9</ele>
        <time>2026-02-23T09:27:36.000Z</time>
      </trkpt>
      <trkpt lat="43.5187" lon="6.40693">
        <ele>245.9</ele>
        <time>2026-02-23T09:27:45.000Z</time>
      </trkpt>
      <trkpt lat="43.51879" lon="6.40695">
        <ele>245.9</ele>
        <time>2026-02-23T09:27:55.000Z</time>
      </trkpt>
      <trkpt lat="43.51889" lon="6.40698">
        <ele>245.9</ele>
        <time>2026-02-23T09:28:05.000Z</time>
      </trkpt>
      <trkpt lat="43.51898" lon="6.40698">
        <ele>246</ele>
        <time>2026-02-23T09:28:15.000Z</time>
      </trkpt>
      <trkpt lat="43.51908" lon="6.40697">
        <ele>246</ele>
        <time>2026-02-23T09:28:24.000Z</time>
      </trkpt>
      <trkpt lat="43.51917" lon="6.40697">
        <ele>246.1</ele>
        <time>2026-02-23T09:28:33.000Z</time>
      </trkpt>
      <trkpt lat="43.51926" lon="6.40698">
        <ele>246.1</ele>
        <time>2026-02-23T09:28:43.000Z</time>
      </trkpt>
      <trkpt lat="43.51936" lon="6.407">
        <ele>246.2</ele>
        <time>2026-02-23T09:28:54.000Z</time>
      </trkpt>
      <trkpt lat="43.51945" lon="6.40704">
        <ele>246.2</ele>
        <time>2026-02-23T09:29:03.000Z</time>
      </trkpt>
      <trkpt lat="43.51954" lon="6.40708">
        <ele>246.3</ele>
        <time>2026-02-23T09:29:12.000Z</time>
      </trkpt>
      <trkpt lat="43.51962" lon="6.40713">
        <ele>246.2</ele>
        <time>2026-02-23T09:29:21.000Z</time>
      </trkpt>
      <trkpt lat="43.5197" lon="6.4072">
        <ele>246.3</ele>
        <time>2026-02-23T09:29:29.000Z</time>
      </trkpt>
      <trkpt lat="43.51978" lon="6.40726">
        <ele>246.3</ele>
        <time>2026-02-23T09:29:38.000Z</time>
      </trkpt>
      <trkpt lat="43.51985" lon="6.40735">
        <ele>246.3</ele>
        <time>2026-02-23T09:29:48.000Z</time>
      </trkpt>
      <trkpt lat="43.51994" lon="6.40741">
        <ele>246.3</ele>
        <time>2026-02-23T09:29:58.000Z</time>
      </trkpt>
      <trkpt lat="43.52003" lon="6.40746">
        <ele>246.3</ele>
        <time>2026-02-23T09:30:08.000Z</time>
      </trkpt>
      <trkpt lat="43.52011" lon="6.40752">
        <ele>246.3</ele>
        <time>2026-02-23T09:30:18.000Z</time>
      </trkpt>
      <trkpt lat="43.52019" lon="6.4076">
        <ele>246.3</ele>
        <time>2026-02-23T09:30:27.000Z</time>
      </trkpt>
      <trkpt lat="43.52026" lon="6.40768">
        <ele>246.4</ele>
        <time>2026-02-23T09:30:36.000Z</time>
      </trkpt>
      <trkpt lat="43.52033" lon="6.40775">
        <ele>246.4</ele>
        <time>2026-02-23T09:30:45.000Z</time>
      </trkpt>
      <trkpt lat="43.52042" lon="6.4078">
        <ele>246.4</ele>
        <time>2026-02-23T09:30:54.000Z</time>
      </trkpt>
      <trkpt lat="43.52051" lon="6.40785">
        <ele>246.4</ele>
        <time>2026-02-23T09:31:03.000Z</time>
      </trkpt>
      <trkpt lat="43.52058" lon="6.40793">
        <ele>246.4</ele>
        <time>2026-02-23T09:31:12.000Z</time>
      </trkpt>
      <trkpt lat="43.52065" lon="6.40801">
        <ele>246.4</ele>
        <time>2026-02-23T09:31:22.000Z</time>
      </trkpt>
      <trkpt lat="43.52074" lon="6.40809">
        <ele>246.5</ele>
        <time>2026-02-23T09:31:32.000Z</time>
      </trkpt>
      <trkpt lat="43.52082" lon="6.40815">
        <ele>246.7</ele>
        <time>2026-02-23T09:31:42.000Z</time>
      </trkpt>
      <trkpt lat="43.5209" lon="6.40821">
        <ele>246.8</ele>
        <time>2026-02-23T09:31:51.000Z</time>
      </trkpt>
      <trkpt lat="43.52099" lon="6.40828">
        <ele>246.8</ele>
        <time>2026-02-23T09:32:01.000Z</time>
      </trkpt>
      <trkpt lat="43.52106" lon="6.40834">
        <ele>246.7</ele>
        <time>2026-02-23T09:32:11.000Z</time>
      </trkpt>
      <trkpt lat="43.52116" lon="6.40837">
        <ele>246.6</ele>
        <time>2026-02-23T09:32:20.000Z</time>
      </trkpt>
      <trkpt lat="43.52124" lon="6.40842">
        <ele>246.5</ele>
        <time>2026-02-23T09:32:29.000Z</time>
      </trkpt>
      <trkpt lat="43.52134" lon="6.40845">
        <ele>246.2</ele>
        <time>2026-02-23T09:32:40.000Z</time>
      </trkpt>
      <trkpt lat="43.52143" lon="6.40849">
        <ele>246</ele>
        <time>2026-02-23T09:32:50.000Z</time>
      </trkpt>
      <trkpt lat="43.52152" lon="6.4085">
        <ele>245.9</ele>
        <time>2026-02-23T09:32:58.000Z</time>
      </trkpt>
      <trkpt lat="43.52161" lon="6.40854">
        <ele>245.8</ele>
        <time>2026-02-23T09:33:13.000Z</time>
      </trkpt>
      <trkpt lat="43.5217" lon="6.40854">
        <ele>245.7</ele>
        <time>2026-02-23T09:33:25.000Z</time>
      </trkpt>
      <trkpt lat="43.5218" lon="6.40851">
        <ele>245.7</ele>
        <time>2026-02-23T09:33:34.000Z</time>
      </trkpt>
      <trkpt lat="43.52189" lon="6.4085">
        <ele>245.7</ele>
        <time>2026-02-23T09:33:42.000Z</time>
      </trkpt>
      <trkpt lat="43.52197" lon="6.40845">
        <ele>245.7</ele>
        <time>2026-02-23T09:33:53.000Z</time>
      </trkpt>
      <trkpt lat="43.52198" lon="6.40843">
        <ele>245.7</ele>
        <time>2026-02-23T09:34:03.000Z</time>
      </trkpt>
      <trkpt lat="43.52202" lon="6.40841">
        <ele>245.7</ele>
        <time>2026-02-23T09:34:26.000Z</time>
      </trkpt>
      <trkpt lat="43.52211" lon="6.40837">
        <ele>245.7</ele>
        <time>2026-02-23T09:34:41.000Z</time>
      </trkpt>
      <trkpt lat="43.5222" lon="6.40833">
        <ele>245.7</ele>
        <time>2026-02-23T09:34:49.000Z</time>
      </trkpt>
      <trkpt lat="43.5223" lon="6.40828">
        <ele>245.7</ele>
        <time>2026-02-23T09:35:01.000Z</time>
      </trkpt>
      <trkpt lat="43.52229" lon="6.40825">
        <ele>245.7</ele>
        <time>2026-02-23T09:35:10.000Z</time>
      </trkpt>
      <trkpt lat="43.52231" lon="6.40828">
        <ele>245.7</ele>
        <time>2026-02-23T09:35:28.000Z</time>
      </trkpt>
      <trkpt lat="43.5224" lon="6.40826">
        <ele>245.7</ele>
        <time>2026-02-23T09:35:42.000Z</time>
      </trkpt>
      <trkpt lat="43.5225" lon="6.40823">
        <ele>245.7</ele>
        <time>2026-02-23T09:35:55.000Z</time>
      </trkpt>
      <trkpt lat="43.52258" lon="6.40818">
        <ele>245.8</ele>
        <time>2026-02-23T09:36:06.000Z</time>
      </trkpt>
      <trkpt lat="43.52267" lon="6.40814">
        <ele>245.8</ele>
        <time>2026-02-23T09:36:16.000Z</time>
      </trkpt>
      <trkpt lat="43.52275" lon="6.4081">
        <ele>245.9</ele>
        <time>2026-02-23T09:36:26.000Z</time>
      </trkpt>
      <trkpt lat="43.52283" lon="6.40804">
        <ele>246</ele>
        <time>2026-02-23T09:36:37.000Z</time>
      </trkpt>
      <trkpt lat="43.52293" lon="6.40801">
        <ele>246.2</ele>
        <time>2026-02-23T09:36:47.000Z</time>
      </trkpt>
      <trkpt lat="43.52302" lon="6.40798">
        <ele>246.3</ele>
        <time>2026-02-23T09:36:57.000Z</time>
      </trkpt>
      <trkpt lat="43.52312" lon="6.40795">
        <ele>246.3</ele>
        <time>2026-02-23T09:37:07.000Z</time>
      </trkpt>
      <trkpt lat="43.5232" lon="6.40791">
        <ele>246.4</ele>
        <time>2026-02-23T09:37:16.000Z</time>
      </trkpt>
      <trkpt lat="43.5233" lon="6.40788">
        <ele>246.5</ele>
        <time>2026-02-23T09:37:26.000Z</time>
      </trkpt>
      <trkpt lat="43.52339" lon="6.40783">
        <ele>246.6</ele>
        <time>2026-02-23T09:37:37.000Z</time>
      </trkpt>
      <trkpt lat="43.52346" lon="6.40774">
        <ele>246.7</ele>
        <time>2026-02-23T09:37:50.000Z</time>
      </trkpt>
      <trkpt lat="43.52355" lon="6.40774">
        <ele>246.8</ele>
        <time>2026-02-23T09:38:00.000Z</time>
      </trkpt>
      <trkpt lat="43.52364" lon="6.40769">
        <ele>246.9</ele>
        <time>2026-02-23T09:38:10.000Z</time>
      </trkpt>
      <trkpt lat="43.5237" lon="6.4076">
        <ele>247.3</ele>
        <time>2026-02-23T09:38:18.000Z</time>
      </trkpt>
      <trkpt lat="43.52377" lon="6.40751">
        <ele>247.6</ele>
        <time>2026-02-23T09:38:30.000Z</time>
      </trkpt>
      <trkpt lat="43.52385" lon="6.40746">
        <ele>247.6</ele>
        <time>2026-02-23T09:38:39.000Z</time>
      </trkpt>
      <trkpt lat="43.52393" lon="6.40741">
        <ele>247.8</ele>
        <time>2026-02-23T09:39:00.000Z</time>
      </trkpt>
      <trkpt lat="43.52402" lon="6.40735">
        <ele>247.9</ele>
        <time>2026-02-23T09:39:15.000Z</time>
      </trkpt>
      <trkpt lat="43.52404" lon="6.40734">
        <ele>247.9</ele>
        <time>2026-02-23T09:39:27.000Z</time>
      </trkpt>
      <trkpt lat="43.52404" lon="6.40734">
        <ele>247.9</ele>
        <time>2026-02-23T09:39:28.000Z</time>
      </trkpt>
      <trkpt lat="43.52399" lon="6.40729">
        <ele>247.7</ele>
        <time>2026-02-23T09:39:53.000Z</time>
      </trkpt>
      <trkpt lat="43.524" lon="6.40732">
        <ele>247.4</ele>
        <time>2026-02-23T09:40:33.000Z</time>
      </trkpt>
      <trkpt lat="43.52401" lon="6.4074">
        <ele>247.3</ele>
        <time>2026-02-23T09:41:17.000Z</time>
      </trkpt>
      <trkpt lat="43.52406" lon="6.4074">
        <ele>247.3</ele>
        <time>2026-02-23T09:41:45.000Z</time>
      </trkpt>
      <trkpt lat="43.52406" lon="6.40733">
        <ele>247.5</ele>
        <time>2026-02-23T09:42:18.000Z</time>
      </trkpt>
      <trkpt lat="43.52403" lon="6.40734">
        <ele>247.5</ele>
        <time>2026-02-23T09:42:33.000Z</time>
      </trkpt>
      <trkpt lat="43.52404" lon="6.40731">
        <ele>247.4</ele>
        <time>2026-02-23T09:42:45.000Z</time>
      </trkpt>
      <trkpt lat="43.52403" lon="6.4073">
        <ele>247.4</ele>
        <time>2026-02-23T09:43:01.000Z</time>
      </trkpt>
      <trkpt lat="43.52403" lon="6.4073">
        <ele>247.5</ele>
        <time>2026-02-23T09:43:15.000Z</time>
      </trkpt>
      <trkpt lat="43.52404" lon="6.40731">
        <ele>247.6</ele>
        <time>2026-02-23T09:43:28.000Z</time>
      </trkpt>
      <trkpt lat="43.52405" lon="6.40731">
        <ele>247.5</ele>
        <time>2026-02-23T09:43:39.000Z</time>
      </trkpt>
      <trkpt lat="43.52402" lon="6.40736">
        <ele>247.4</ele>
        <time>2026-02-23T09:44:06.000Z</time>
      </trkpt>
      <trkpt lat="43.52401" lon="6.40748">
        <ele>247.2</ele>
        <time>2026-02-23T09:44:16.000Z</time>
      </trkpt>
      <trkpt lat="43.52394" lon="6.40757">
        <ele>246.3</ele>
        <time>2026-02-23T09:44:27.000Z</time>
      </trkpt>
      <trkpt lat="43.52387" lon="6.40766">
        <ele>244.7</ele>
        <time>2026-02-23T09:44:36.000Z</time>
      </trkpt>
      <trkpt lat="43.5238" lon="6.40776">
        <ele>242.9</ele>
        <time>2026-02-23T09:44:50.000Z</time>
      </trkpt>
      <trkpt lat="43.5238" lon="6.40789">
        <ele>241.6</ele>
        <time>2026-02-23T09:45:03.000Z</time>
      </trkpt>
      <trkpt lat="43.52371" lon="6.40789">
        <ele>239.7</ele>
        <time>2026-02-23T09:45:25.000Z</time>
      </trkpt>
      <trkpt lat="43.52362" lon="6.4079">
        <ele>238.6</ele>
        <time>2026-02-23T09:45:37.000Z</time>
      </trkpt>
      <trkpt lat="43.52353" lon="6.40794">
        <ele>237.1</ele>
        <time>2026-02-23T09:45:53.000Z</time>
      </trkpt>
      <trkpt lat="43.52344" lon="6.40799">
        <ele>236.1</ele>
        <time>2026-02-23T09:46:06.000Z</time>
      </trkpt>
      <trkpt lat="43.52335" lon="6.40804">
        <ele>235</ele>
        <time>2026-02-23T09:46:20.000Z</time>
      </trkpt>
      <trkpt lat="43.52327" lon="6.40809">
        <ele>234.1</ele>
        <time>2026-02-23T09:46:35.000Z</time>
      </trkpt>
      <trkpt lat="43.52318" lon="6.40814">
        <ele>233.5</ele>
        <time>2026-02-23T09:46:47.000Z</time>
      </trkpt>
      <trkpt lat="43.52309" lon="6.40821">
        <ele>233</ele>
        <time>2026-02-23T09:47:01.000Z</time>
      </trkpt>
      <trkpt lat="43.52301" lon="6.40827">
        <ele>232.6</ele>
        <time>2026-02-23T09:47:11.000Z</time>
      </trkpt>
      <trkpt lat="43.52293" lon="6.40832">
        <ele>232.2</ele>
        <time>2026-02-23T09:47:21.000Z</time>
      </trkpt>
      <trkpt lat="43.52284" lon="6.40836">
        <ele>231.7</ele>
        <time>2026-02-23T09:47:32.000Z</time>
      </trkpt>
      <trkpt lat="43.52275" lon="6.4084">
        <ele>231.3</ele>
        <time>2026-02-23T09:47:44.000Z</time>
      </trkpt>
      <trkpt lat="43.52267" lon="6.40846">
        <ele>230.8</ele>
        <time>2026-02-23T09:47:57.000Z</time>
      </trkpt>
      <trkpt lat="43.52257" lon="6.40852">
        <ele>230.6</ele>
        <time>2026-02-23T09:48:09.000Z</time>
      </trkpt>
      <trkpt lat="43.52249" lon="6.40857">
        <ele>230.3</ele>
        <time>2026-02-23T09:48:20.000Z</time>
      </trkpt>
      <trkpt lat="43.52242" lon="6.40867">
        <ele>230</ele>
        <time>2026-02-23T09:48:28.000Z</time>
      </trkpt>
      <trkpt lat="43.52236" lon="6.40875">
        <ele>229.4</ele>
        <time>2026-02-23T09:48:37.000Z</time>
      </trkpt>
      <trkpt lat="43.52229" lon="6.40884">
        <ele>228</ele>
        <time>2026-02-23T09:48:51.000Z</time>
      </trkpt>
      <trkpt lat="43.52223" lon="6.40894">
        <ele>227</ele>
        <time>2026-02-23T09:49:05.000Z</time>
      </trkpt>
      <trkpt lat="43.52214" lon="6.40901">
        <ele>225.8</ele>
        <time>2026-02-23T09:49:26.000Z</time>
      </trkpt>
      <trkpt lat="43.52212" lon="6.40906">
        <ele>223.9</ele>
        <time>2026-02-23T09:49:57.000Z</time>
      </trkpt>
      <trkpt lat="43.52212" lon="6.40906">
        <ele>223.6</ele>
        <time>2026-02-23T09:50:16.000Z</time>
      </trkpt>
      <trkpt lat="43.5221" lon="6.40918">
        <ele>223.3</ele>
        <time>2026-02-23T09:50:39.000Z</time>
      </trkpt>
      <trkpt lat="43.5221" lon="6.4092">
        <ele>223.1</ele>
        <time>2026-02-23T09:50:53.000Z</time>
      </trkpt>
      <trkpt lat="43.52211" lon="6.40921">
        <ele>223.1</ele>
        <time>2026-02-23T09:51:07.000Z</time>
      </trkpt>
      <trkpt lat="43.52211" lon="6.40921">
        <ele>223</ele>
        <time>2026-02-23T09:51:17.000Z</time>
      </trkpt>
      <trkpt lat="43.52211" lon="6.4092">
        <ele>223</ele>
        <time>2026-02-23T09:51:36.000Z</time>
      </trkpt>
      <trkpt lat="43.52212" lon="6.40919">
        <ele>223</ele>
        <time>2026-02-23T09:52:07.000Z</time>
      </trkpt>
      <trkpt lat="43.52212" lon="6.40919">
        <ele>223</ele>
        <time>2026-02-23T09:52:12.000Z</time>
      </trkpt>
      <trkpt lat="43.52211" lon="6.40919">
        <ele>223</ele>
        <time>2026-02-23T09:52:38.000Z</time>
      </trkpt>
      <trkpt lat="43.52211" lon="6.40919">
        <ele>223</ele>
        <time>2026-02-23T09:52:42.000Z</time>
      </trkpt>
      <trkpt lat="43.5221" lon="6.40921">
        <ele>223</ele>
        <time>2026-02-23T09:52:55.000Z</time>
      </trkpt>
      <trkpt lat="43.52214" lon="6.40918">
        <ele>223</ele>
        <time>2026-02-23T09:53:48.000Z</time>
      </trkpt>
      <trkpt lat="43.5221" lon="6.40921">
        <ele>222.9</ele>
        <time>2026-02-23T09:54:31.000Z</time>
      </trkpt>
      <trkpt lat="43.52214" lon="6.40923">
        <ele>222.6</ele>
        <time>2026-02-23T09:56:13.000Z</time>
      </trkpt>
      <trkpt lat="43.5222" lon="6.40922">
        <ele>222.7</ele>
        <time>2026-02-23T09:56:24.000Z</time>
      </trkpt>
      <trkpt lat="43.52218" lon="6.40926">
        <ele>222.8</ele>
        <time>2026-02-23T09:57:18.000Z</time>
      </trkpt>
      <trkpt lat="43.52218" lon="6.40926">
        <ele>222.8</ele>
        <time>2026-02-23T09:57:28.000Z</time>
      </trkpt>
      <trkpt lat="43.52217" lon="6.40923">
        <ele>222.8</ele>
        <time>2026-02-23T09:58:08.000Z</time>
      </trkpt>
      <trkpt lat="43.52216" lon="6.40922">
        <ele>222.9</ele>
        <time>2026-02-23T09:58:22.000Z</time>
      </trkpt>
      <trkpt lat="43.52215" lon="6.4092">
        <ele>223.1</ele>
        <time>2026-02-23T09:58:56.000Z</time>
      </trkpt>
      <trkpt lat="43.52215" lon="6.4092">
        <ele>223.1</ele>
        <time>2026-02-23T09:59:07.000Z</time>
      </trkpt>
      <trkpt lat="43.52215" lon="6.40917">
        <ele>223.1</ele>
        <time>2026-02-23T09:59:14.000Z</time>
      </trkpt>
      <trkpt lat="43.52206" lon="6.40915">
        <ele>223.9</ele>
        <time>2026-02-23T09:59:55.000Z</time>
      </trkpt>
      <trkpt lat="43.52197" lon="6.40913">
        <ele>223.7</ele>
        <time>2026-02-23T10:00:03.000Z</time>
      </trkpt>
      <trkpt lat="43.52192" lon="6.40925">
        <ele>222.3</ele>
        <time>2026-02-23T10:00:42.000Z</time>
      </trkpt>
      <trkpt lat="43.5219" lon="6.40937">
        <ele>222.3</ele>
        <time>2026-02-23T10:01:02.000Z</time>
      </trkpt>
      <trkpt lat="43.52198" lon="6.40943">
        <ele>221.1</ele>
        <time>2026-02-23T10:01:32.000Z</time>
      </trkpt>
      <trkpt lat="43.52201" lon="6.40941">
        <ele>220.3</ele>
        <time>2026-02-23T10:01:48.000Z</time>
      </trkpt>
      <trkpt lat="43.52197" lon="6.40939">
        <ele>219.9</ele>
        <time>2026-02-23T10:02:01.000Z</time>
      </trkpt>
      <trkpt lat="43.52187" lon="6.40938">
        <ele>220.6</ele>
        <time>2026-02-23T10:02:19.000Z</time>
      </trkpt>
      <trkpt lat="43.52178" lon="6.40941">
        <ele>221.8</ele>
        <time>2026-02-23T10:02:34.000Z</time>
      </trkpt>
      <trkpt lat="43.52169" lon="6.40942">
        <ele>222.9</ele>
        <time>2026-02-23T10:03:13.000Z</time>
      </trkpt>
      <trkpt lat="43.52159" lon="6.40944">
        <ele>223.6</ele>
        <time>2026-02-23T10:03:32.000Z</time>
      </trkpt>
      <trkpt lat="43.5215" lon="6.40945">
        <ele>223.6</ele>
        <time>2026-02-23T10:03:41.000Z</time>
      </trkpt>
      <trkpt lat="43.52141" lon="6.40949">
        <ele>223.6</ele>
        <time>2026-02-23T10:03:51.000Z</time>
      </trkpt>
      <trkpt lat="43.52132" lon="6.40949">
        <ele>223.5</ele>
        <time>2026-02-23T10:04:08.000Z</time>
      </trkpt>
      <trkpt lat="43.52122" lon="6.40952">
        <ele>223.5</ele>
        <time>2026-02-23T10:04:21.000Z</time>
      </trkpt>
      <trkpt lat="43.52113" lon="6.40955">
        <ele>223.5</ele>
        <time>2026-02-23T10:04:31.000Z</time>
      </trkpt>
      <trkpt lat="43.52105" lon="6.40959">
        <ele>223.7</ele>
        <time>2026-02-23T10:04:45.000Z</time>
      </trkpt>
      <trkpt lat="43.52097" lon="6.40966">
        <ele>223.8</ele>
        <time>2026-02-23T10:04:52.000Z</time>
      </trkpt>
      <trkpt lat="43.52088" lon="6.4097">
        <ele>224.4</ele>
        <time>2026-02-23T10:05:04.000Z</time>
      </trkpt>
      <trkpt lat="43.52081" lon="6.40979">
        <ele>225.1</ele>
        <time>2026-02-23T10:05:13.000Z</time>
      </trkpt>
      <trkpt lat="43.52074" lon="6.40989">
        <ele>226.2</ele>
        <time>2026-02-23T10:05:26.000Z</time>
      </trkpt>
      <trkpt lat="43.52068" lon="6.40999">
        <ele>227</ele>
        <time>2026-02-23T10:05:40.000Z</time>
      </trkpt>
      <trkpt lat="43.52062" lon="6.41008">
        <ele>228</ele>
        <time>2026-02-23T10:06:02.000Z</time>
      </trkpt>
      <trkpt lat="43.52055" lon="6.41002">
        <ele>228.6</ele>
        <time>2026-02-23T10:06:34.000Z</time>
      </trkpt>
      <trkpt lat="43.5205" lon="6.4099">
        <ele>229.4</ele>
        <time>2026-02-23T10:06:51.000Z</time>
      </trkpt>
      <trkpt lat="43.5205" lon="6.40977">
        <ele>229.9</ele>
        <time>2026-02-23T10:07:05.000Z</time>
      </trkpt>
      <trkpt lat="43.52048" lon="6.40964">
        <ele>230.7</ele>
        <time>2026-02-23T10:07:20.000Z</time>
      </trkpt>
      <trkpt lat="43.52046" lon="6.40952">
        <ele>231.4</ele>
        <time>2026-02-23T10:07:34.000Z</time>
      </trkpt>
      <trkpt lat="43.52042" lon="6.4094">
        <ele>231.6</ele>
        <time>2026-02-23T10:07:46.000Z</time>
      </trkpt>
      <trkpt lat="43.52035" lon="6.4093">
        <ele>231.7</ele>
        <time>2026-02-23T10:07:57.000Z</time>
      </trkpt>
      <trkpt lat="43.52028" lon="6.40922">
        <ele>231.7</ele>
        <time>2026-02-23T10:08:07.000Z</time>
      </trkpt>
      <trkpt lat="43.5202" lon="6.40914">
        <ele>232.2</ele>
        <time>2026-02-23T10:08:29.000Z</time>
      </trkpt>
      <trkpt lat="43.52013" lon="6.40907">
        <ele>232.9</ele>
        <time>2026-02-23T10:08:45.000Z</time>
      </trkpt>
      <trkpt lat="43.52005" lon="6.40899">
        <ele>233.7</ele>
        <time>2026-02-23T10:08:59.000Z</time>
      </trkpt>
      <trkpt lat="43.51996" lon="6.40897">
        <ele>234.6</ele>
        <time>2026-02-23T10:09:15.000Z</time>
      </trkpt>
      <trkpt lat="43.51988" lon="6.40888">
        <ele>235.4</ele>
        <time>2026-02-23T10:09:34.000Z</time>
      </trkpt>
      <trkpt lat="43.5198" lon="6.40883">
        <ele>235.8</ele>
        <time>2026-02-23T10:09:47.000Z</time>
      </trkpt>
      <trkpt lat="43.51973" lon="6.40875">
        <ele>236.9</ele>
        <time>2026-02-23T10:10:03.000Z</time>
      </trkpt>
      <trkpt lat="43.51963" lon="6.40872">
        <ele>237.9</ele>
        <time>2026-02-23T10:10:21.000Z</time>
      </trkpt>
      <trkpt lat="43.51953" lon="6.40872">
        <ele>238.6</ele>
        <time>2026-02-23T10:10:32.000Z</time>
      </trkpt>
      <trkpt lat="43.51943" lon="6.40873">
        <ele>239.9</ele>
        <time>2026-02-23T10:10:50.000Z</time>
      </trkpt>
      <trkpt lat="43.51934" lon="6.40872">
        <ele>240.6</ele>
        <time>2026-02-23T10:11:05.000Z</time>
      </trkpt>
      <trkpt lat="43.51926" lon="6.40877">
        <ele>241.3</ele>
        <time>2026-02-23T10:11:17.000Z</time>
      </trkpt>
      <trkpt lat="43.51916" lon="6.4088">
        <ele>242.1</ele>
        <time>2026-02-23T10:11:31.000Z</time>
      </trkpt>
      <trkpt lat="43.51908" lon="6.40886">
        <ele>242.6</ele>
        <time>2026-02-23T10:11:43.000Z</time>
      </trkpt>
      <trkpt lat="43.51898" lon="6.40888">
        <ele>243.3</ele>
        <time>2026-02-23T10:11:56.000Z</time>
      </trkpt>
      <trkpt lat="43.5189" lon="6.40882">
        <ele>244.4</ele>
        <time>2026-02-23T10:12:12.000Z</time>
      </trkpt>
      <trkpt lat="43.51881" lon="6.40878">
        <ele>245.1</ele>
        <time>2026-02-23T10:12:25.000Z</time>
      </trkpt>
      <trkpt lat="43.51872" lon="6.40878">
        <ele>245.7</ele>
        <time>2026-02-23T10:12:37.000Z</time>
      </trkpt>
      <trkpt lat="43.51863" lon="6.40877">
        <ele>246.3</ele>
        <time>2026-02-23T10:12:47.000Z</time>
      </trkpt>
      <trkpt lat="43.51853" lon="6.40876">
        <ele>246.6</ele>
        <time>2026-02-23T10:12:57.000Z</time>
      </trkpt>
      <trkpt lat="43.51845" lon="6.40881">
        <ele>247</ele>
        <time>2026-02-23T10:13:14.000Z</time>
      </trkpt>
      <trkpt lat="43.51836" lon="6.40886">
        <ele>247.2</ele>
        <time>2026-02-23T10:13:24.000Z</time>
      </trkpt>
      <trkpt lat="43.51827" lon="6.40889">
        <ele>247.3</ele>
        <time>2026-02-23T10:13:33.000Z</time>
      </trkpt>
      <trkpt lat="43.51817" lon="6.40889">
        <ele>247.3</ele>
        <time>2026-02-23T10:13:44.000Z</time>
      </trkpt>
      <trkpt lat="43.51808" lon="6.40888">
        <ele>247.6</ele>
        <time>2026-02-23T10:13:59.000Z</time>
      </trkpt>
      <trkpt lat="43.51798" lon="6.40889">
        <ele>248.5</ele>
        <time>2026-02-23T10:14:12.000Z</time>
      </trkpt>
      <trkpt lat="43.5179" lon="6.40895">
        <ele>249.2</ele>
        <time>2026-02-23T10:14:22.000Z</time>
      </trkpt>
      <trkpt lat="43.51782" lon="6.40902">
        <ele>250</ele>
        <time>2026-02-23T10:14:36.000Z</time>
      </trkpt>
      <trkpt lat="43.51774" lon="6.40909">
        <ele>250.4</ele>
        <time>2026-02-23T10:14:45.000Z</time>
      </trkpt>
      <trkpt lat="43.51767" lon="6.40918">
        <ele>250.8</ele>
        <time>2026-02-23T10:14:58.000Z</time>
      </trkpt>
      <trkpt lat="43.51759" lon="6.40924">
        <ele>251.1</ele>
        <time>2026-02-23T10:15:11.000Z</time>
      </trkpt>
      <trkpt lat="43.51755" lon="6.40936">
        <ele>251.6</ele>
        <time>2026-02-23T10:15:21.000Z</time>
      </trkpt>
      <trkpt lat="43.51746" lon="6.4094">
        <ele>252.3</ele>
        <time>2026-02-23T10:15:31.000Z</time>
      </trkpt>
      <trkpt lat="43.51738" lon="6.40948">
        <ele>252.9</ele>
        <time>2026-02-23T10:15:43.000Z</time>
      </trkpt>
      <trkpt lat="43.51731" lon="6.40955">
        <ele>253.7</ele>
        <time>2026-02-23T10:15:54.000Z</time>
      </trkpt>
      <trkpt lat="43.51724" lon="6.40964">
        <ele>254.3</ele>
        <time>2026-02-23T10:16:06.000Z</time>
      </trkpt>
      <trkpt lat="43.51717" lon="6.40973">
        <ele>254.5</ele>
        <time>2026-02-23T10:16:14.000Z</time>
      </trkpt>
      <trkpt lat="43.51709" lon="6.4098">
        <ele>254.8</ele>
        <time>2026-02-23T10:16:27.000Z</time>
      </trkpt>
      <trkpt lat="43.51702" lon="6.40988">
        <ele>255.5</ele>
        <time>2026-02-23T10:16:39.000Z</time>
      </trkpt>
      <trkpt lat="43.51694" lon="6.40995">
        <ele>256.6</ele>
        <time>2026-02-23T10:16:54.000Z</time>
      </trkpt>
      <trkpt lat="43.51685" lon="6.41">
        <ele>257.7</ele>
        <time>2026-02-23T10:17:08.000Z</time>
      </trkpt>
      <trkpt lat="43.51678" lon="6.41008">
        <ele>258.2</ele>
        <time>2026-02-23T10:17:15.000Z</time>
      </trkpt>
      <trkpt lat="43.51671" lon="6.41017">
        <ele>258.7</ele>
        <time>2026-02-23T10:17:24.000Z</time>
      </trkpt>
      <trkpt lat="43.51662" lon="6.4102">
        <ele>259.3</ele>
        <time>2026-02-23T10:17:37.000Z</time>
      </trkpt>
      <trkpt lat="43.51653" lon="6.41022">
        <ele>259.8</ele>
        <time>2026-02-23T10:17:47.000Z</time>
      </trkpt>
      <trkpt lat="43.51644" lon="6.41026">
        <ele>260.5</ele>
        <time>2026-02-23T10:18:01.000Z</time>
      </trkpt>
      <trkpt lat="43.51634" lon="6.4103">
        <ele>260.7</ele>
        <time>2026-02-23T10:18:10.000Z</time>
      </trkpt>
      <trkpt lat="43.51626" lon="6.41034">
        <ele>260.9</ele>
        <time>2026-02-23T10:18:23.000Z</time>
      </trkpt>
      <trkpt lat="43.51617" lon="6.41039">
        <ele>261.5</ele>
        <time>2026-02-23T10:18:37.000Z</time>
      </trkpt>
      <trkpt lat="43.51609" lon="6.41046">
        <ele>262.1</ele>
        <time>2026-02-23T10:18:48.000Z</time>
      </trkpt>
      <trkpt lat="43.51601" lon="6.41054">
        <ele>262.6</ele>
        <time>2026-02-23T10:19:04.000Z</time>
      </trkpt>
      <trkpt lat="43.51594" lon="6.41064">
        <ele>263</ele>
        <time>2026-02-23T10:19:15.000Z</time>
      </trkpt>
      <trkpt lat="43.51588" lon="6.41074">
        <ele>263.3</ele>
        <time>2026-02-23T10:19:25.000Z</time>
      </trkpt>
      <trkpt lat="43.5158" lon="6.41082">
        <ele>263.4</ele>
        <time>2026-02-23T10:19:34.000Z</time>
      </trkpt>
      <trkpt lat="43.51572" lon="6.41086">
        <ele>263.6</ele>
        <time>2026-02-23T10:19:45.000Z</time>
      </trkpt>
      <trkpt lat="43.51564" lon="6.41094">
        <ele>263.7</ele>
        <time>2026-02-23T10:19:58.000Z</time>
      </trkpt>
      <trkpt lat="43.51557" lon="6.41102">
        <ele>263.8</ele>
        <time>2026-02-23T10:20:12.000Z</time>
      </trkpt>
      <trkpt lat="43.51551" lon="6.41113">
        <ele>264.4</ele>
        <time>2026-02-23T10:20:29.000Z</time>
      </trkpt>
      <trkpt lat="43.51545" lon="6.41123">
        <ele>264.9</ele>
        <time>2026-02-23T10:20:53.000Z</time>
      </trkpt>
      <trkpt lat="43.51538" lon="6.41132">
        <ele>265.2</ele>
        <time>2026-02-23T10:21:02.000Z</time>
      </trkpt>
      <trkpt lat="43.5153" lon="6.41139">
        <ele>265.6</ele>
        <time>2026-02-23T10:21:11.000Z</time>
      </trkpt>
      <trkpt lat="43.51523" lon="6.41147">
        <ele>265.9</ele>
        <time>2026-02-23T10:21:22.000Z</time>
      </trkpt>
      <trkpt lat="43.51515" lon="6.41157">
        <ele>265.9</ele>
        <time>2026-02-23T10:21:33.000Z</time>
      </trkpt>
      <trkpt lat="43.51509" lon="6.41167">
        <ele>266</ele>
        <time>2026-02-23T10:21:41.000Z</time>
      </trkpt>
      <trkpt lat="43.51505" lon="6.41178">
        <ele>266.2</ele>
        <time>2026-02-23T10:21:51.000Z</time>
      </trkpt>
      <trkpt lat="43.51502" lon="6.4119">
        <ele>266.7</ele>
        <time>2026-02-23T10:22:01.000Z</time>
      </trkpt>
      <trkpt lat="43.51505" lon="6.41199">
        <ele>267.6</ele>
        <time>2026-02-23T10:22:25.000Z</time>
      </trkpt>
      <trkpt lat="43.51503" lon="6.41198">
        <ele>267.6</ele>
        <time>2026-02-23T10:22:45.000Z</time>
      </trkpt>
      <trkpt lat="43.51504" lon="6.41198">
        <ele>267.4</ele>
        <time>2026-02-23T10:23:07.000Z</time>
      </trkpt>
      <trkpt lat="43.51499" lon="6.41197">
        <ele>267.3</ele>
        <time>2026-02-23T10:23:17.000Z</time>
      </trkpt>
      <trkpt lat="43.5149" lon="6.41201">
        <ele>267.1</ele>
        <time>2026-02-23T10:23:27.000Z</time>
      </trkpt>
      <trkpt lat="43.51481" lon="6.41201">
        <ele>266.7</ele>
        <time>2026-02-23T10:23:35.000Z</time>
      </trkpt>
      <trkpt lat="43.51472" lon="6.41204">
        <ele>266.4</ele>
        <time>2026-02-23T10:23:45.000Z</time>
      </trkpt>
      <trkpt lat="43.51462" lon="6.41201">
        <ele>266.2</ele>
        <time>2026-02-23T10:23:56.000Z</time>
      </trkpt>
      <trkpt lat="43.51457" lon="6.41208">
        <ele>266.2</ele>
        <time>2026-02-23T10:24:37.000Z</time>
      </trkpt>
      <trkpt lat="43.51457" lon="6.41209">
        <ele>266.3</ele>
        <time>2026-02-23T10:24:57.000Z</time>
      </trkpt>
      <trkpt lat="43.51456" lon="6.41197">
        <ele>266.4</ele>
        <time>2026-02-23T10:25:20.000Z</time>
      </trkpt>
      <trkpt lat="43.51453" lon="6.41185">
        <ele>265.9</ele>
        <time>2026-02-23T10:25:33.000Z</time>
      </trkpt>
      <trkpt lat="43.51446" lon="6.41175">
        <ele>265.4</ele>
        <time>2026-02-23T10:25:48.000Z</time>
      </trkpt>
      <trkpt lat="43.51439" lon="6.41167">
        <ele>265.4</ele>
        <time>2026-02-23T10:26:02.000Z</time>
      </trkpt>
      <trkpt lat="43.5143" lon="6.41161">
        <ele>265.6</ele>
        <time>2026-02-23T10:26:14.000Z</time>
      </trkpt>
      <trkpt lat="43.51424" lon="6.41152">
        <ele>266.1</ele>
        <time>2026-02-23T10:26:29.000Z</time>
      </trkpt>
      <trkpt lat="43.51418" lon="6.41143">
        <ele>266.9</ele>
        <time>2026-02-23T10:26:42.000Z</time>
      </trkpt>
      <trkpt lat="43.51412" lon="6.41133">
        <ele>267.8</ele>
        <time>2026-02-23T10:26:58.000Z</time>
      </trkpt>
      <trkpt lat="43.51404" lon="6.41125">
        <ele>268.6</ele>
        <time>2026-02-23T10:27:15.000Z</time>
      </trkpt>
      <trkpt lat="43.51397" lon="6.41117">
        <ele>269.6</ele>
        <time>2026-02-23T10:27:33.000Z</time>
      </trkpt>
      <trkpt lat="43.51389" lon="6.41109">
        <ele>270.7</ele>
        <time>2026-02-23T10:27:49.000Z</time>
      </trkpt>
      <trkpt lat="43.51381" lon="6.41103">
        <ele>271.7</ele>
        <time>2026-02-23T10:28:02.000Z</time>
      </trkpt>
      <trkpt lat="43.51373" lon="6.41097">
        <ele>272.4</ele>
        <time>2026-02-23T10:28:15.000Z</time>
      </trkpt>
      <trkpt lat="43.51366" lon="6.41088">
        <ele>273.2</ele>
        <time>2026-02-23T10:28:24.000Z</time>
      </trkpt>
      <trkpt lat="43.51359" lon="6.4108">
        <ele>273.5</ele>
        <time>2026-02-23T10:28:35.000Z</time>
      </trkpt>
      <trkpt lat="43.51351" lon="6.41074">
        <ele>273.7</ele>
        <time>2026-02-23T10:28:45.000Z</time>
      </trkpt>
      <trkpt lat="43.51343" lon="6.41067">
        <ele>273.7</ele>
        <time>2026-02-23T10:28:56.000Z</time>
      </trkpt>
      <trkpt lat="43.51334" lon="6.41067">
        <ele>274</ele>
        <time>2026-02-23T10:29:09.000Z</time>
      </trkpt>
      <trkpt lat="43.51326" lon="6.41073">
        <ele>274.3</ele>
        <time>2026-02-23T10:29:22.000Z</time>
      </trkpt>
      <trkpt lat="43.51319" lon="6.41066">
        <ele>274.5</ele>
        <time>2026-02-23T10:29:46.000Z</time>
      </trkpt>
      <trkpt lat="43.51309" lon="6.41069">
        <ele>274.5</ele>
        <time>2026-02-23T10:29:54.000Z</time>
      </trkpt>
      <trkpt lat="43.513" lon="6.41074">
        <ele>274.6</ele>
        <time>2026-02-23T10:30:04.000Z</time>
      </trkpt>
      <trkpt lat="43.51291" lon="6.41076">
        <ele>274.7</ele>
        <time>2026-02-23T10:30:15.000Z</time>
      </trkpt>
      <trkpt lat="43.51283" lon="6.41082">
        <ele>275.1</ele>
        <time>2026-02-23T10:30:31.000Z</time>
      </trkpt>
      <trkpt lat="43.51274" lon="6.41085">
        <ele>275.3</ele>
        <time>2026-02-23T10:30:46.000Z</time>
      </trkpt>
      <trkpt lat="43.51265" lon="6.41089">
        <ele>275.4</ele>
        <time>2026-02-23T10:31:20.000Z</time>
      </trkpt>
      <trkpt lat="43.51256" lon="6.41092">
        <ele>275.4</ele>
        <time>2026-02-23T10:31:35.000Z</time>
      </trkpt>
      <trkpt lat="43.51246" lon="6.41097">
        <ele>275.2</ele>
        <time>2026-02-23T10:31:47.000Z</time>
      </trkpt>
      <trkpt lat="43.51238" lon="6.41104">
        <ele>275.1</ele>
        <time>2026-02-23T10:31:55.000Z</time>
      </trkpt>
      <trkpt lat="43.51229" lon="6.4111">
        <ele>274.9</ele>
        <time>2026-02-23T10:32:04.000Z</time>
      </trkpt>
      <trkpt lat="43.5122" lon="6.41116">
        <ele>274.5</ele>
        <time>2026-02-23T10:32:14.000Z</time>
      </trkpt>
      <trkpt lat="43.51212" lon="6.4112">
        <ele>274.1</ele>
        <time>2026-02-23T10:32:29.000Z</time>
      </trkpt>
      <trkpt lat="43.51202" lon="6.41126">
        <ele>273.8</ele>
        <time>2026-02-23T10:32:39.000Z</time>
      </trkpt>
      <trkpt lat="43.51193" lon="6.41122">
        <ele>273.1</ele>
        <time>2026-02-23T10:33:01.000Z</time>
      </trkpt>
      <trkpt lat="43.51184" lon="6.41126">
        <ele>272.9</ele>
        <time>2026-02-23T10:33:08.000Z</time>
      </trkpt>
      <trkpt lat="43.51175" lon="6.41127">
        <ele>272.7</ele>
        <time>2026-02-23T10:33:19.000Z</time>
      </trkpt>
      <trkpt lat="43.51166" lon="6.41127">
        <ele>272.5</ele>
        <time>2026-02-23T10:33:38.000Z</time>
      </trkpt>
      <trkpt lat="43.51157" lon="6.41126">
        <ele>272.4</ele>
        <time>2026-02-23T10:33:47.000Z</time>
      </trkpt>
      <trkpt lat="43.51149" lon="6.4112">
        <ele>272.4</ele>
        <time>2026-02-23T10:33:55.000Z</time>
      </trkpt>
      <trkpt lat="43.51141" lon="6.41114">
        <ele>272.5</ele>
        <time>2026-02-23T10:34:04.000Z</time>
      </trkpt>
      <trkpt lat="43.51132" lon="6.41117">
        <ele>272.5</ele>
        <time>2026-02-23T10:34:17.000Z</time>
      </trkpt>
      <trkpt lat="43.51128" lon="6.4113">
        <ele>272.6</ele>
        <time>2026-02-23T10:34:28.000Z</time>
      </trkpt>
      <trkpt lat="43.51123" lon="6.4114">
        <ele>273.2</ele>
        <time>2026-02-23T10:34:43.000Z</time>
      </trkpt>
      <trkpt lat="43.51116" lon="6.41149">
        <ele>274.4</ele>
        <time>2026-02-23T10:35:00.000Z</time>
      </trkpt>
      <trkpt lat="43.51108" lon="6.41157">
        <ele>275.4</ele>
        <time>2026-02-23T10:35:15.000Z</time>
      </trkpt>
      <trkpt lat="43.51099" lon="6.41163">
        <ele>275.9</ele>
        <time>2026-02-23T10:35:27.000Z</time>
      </trkpt>
      <trkpt lat="43.51091" lon="6.4117">
        <ele>276.2</ele>
        <time>2026-02-23T10:35:35.000Z</time>
      </trkpt>
      <trkpt lat="43.51084" lon="6.4118">
        <ele>276.7</ele>
        <time>2026-02-23T10:35:44.000Z</time>
      </trkpt>
      <trkpt lat="43.51076" lon="6.41187">
        <ele>277.4</ele>
        <time>2026-02-23T10:35:55.000Z</time>
      </trkpt>
      <trkpt lat="43.51068" lon="6.41191">
        <ele>278</ele>
        <time>2026-02-23T10:36:10.000Z</time>
      </trkpt>
      <trkpt lat="43.51059" lon="6.41194">
        <ele>278.3</ele>
        <time>2026-02-23T10:36:17.000Z</time>
      </trkpt>
      <trkpt lat="43.5105" lon="6.41197">
        <ele>278.6</ele>
        <time>2026-02-23T10:36:23.000Z</time>
      </trkpt>
      <trkpt lat="43.51042" lon="6.41204">
        <ele>279</ele>
        <time>2026-02-23T10:36:32.000Z</time>
      </trkpt>
      <trkpt lat="43.51033" lon="6.41209">
        <ele>279.8</ele>
        <time>2026-02-23T10:36:46.000Z</time>
      </trkpt>
      <trkpt lat="43.51023" lon="6.41213">
        <ele>280.4</ele>
        <time>2026-02-23T10:36:54.000Z</time>
      </trkpt>
      <trkpt lat="43.51014" lon="6.41219">
        <ele>281.3</ele>
        <time>2026-02-23T10:37:09.000Z</time>
      </trkpt>
      <trkpt lat="43.5101" lon="6.41216">
        <ele>282</ele>
        <time>2026-02-23T10:37:30.000Z</time>
      </trkpt>
      <trkpt lat="43.51009" lon="6.41216">
        <ele>282.1</ele>
        <time>2026-02-23T10:37:31.000Z</time>
      </trkpt>
      <trkpt lat="43.51002" lon="6.41216">
        <ele>282.4</ele>
        <time>2026-02-23T10:37:56.000Z</time>
      </trkpt>
      <trkpt lat="43.51002" lon="6.41218">
        <ele>282.7</ele>
        <time>2026-02-23T10:38:12.000Z</time>
      </trkpt>
      <trkpt lat="43.51001" lon="6.4122">
        <ele>282.9</ele>
        <time>2026-02-23T10:38:23.000Z</time>
      </trkpt>
      <trkpt lat="43.51002" lon="6.4122">
        <ele>283</ele>
        <time>2026-02-23T10:38:33.000Z</time>
      </trkpt>
      <trkpt lat="43.51002" lon="6.41221">
        <ele>282.9</ele>
        <time>2026-02-23T10:38:52.000Z</time>
      </trkpt>
      <trkpt lat="43.51001" lon="6.41223">
        <ele>282.9</ele>
        <time>2026-02-23T10:39:05.000Z</time>
      </trkpt>
      <trkpt lat="43.50995" lon="6.41233">
        <ele>282.9</ele>
        <time>2026-02-23T10:39:16.000Z</time>
      </trkpt>
      <trkpt lat="43.50985" lon="6.41236">
        <ele>283</ele>
        <time>2026-02-23T10:39:27.000Z</time>
      </trkpt>
      <trkpt lat="43.50976" lon="6.41239">
        <ele>283.2</ele>
        <time>2026-02-23T10:39:35.000Z</time>
      </trkpt>
      <trkpt lat="43.50968" lon="6.41244">
        <ele>283.6</ele>
        <time>2026-02-23T10:39:50.000Z</time>
      </trkpt>
      <trkpt lat="43.50962" lon="6.41255">
        <ele>284</ele>
        <time>2026-02-23T10:39:59.000Z</time>
      </trkpt>
      <trkpt lat="43.50955" lon="6.41262">
        <ele>284.1</ele>
        <time>2026-02-23T10:40:07.000Z</time>
      </trkpt>
      <trkpt lat="43.50947" lon="6.4127">
        <ele>284.1</ele>
        <time>2026-02-23T10:40:25.000Z</time>
      </trkpt>
      <trkpt lat="43.5094" lon="6.41278">
        <ele>283.9</ele>
        <time>2026-02-23T10:40:36.000Z</time>
      </trkpt>
      <trkpt lat="43.50932" lon="6.41287">
        <ele>283.7</ele>
        <time>2026-02-23T10:40:43.000Z</time>
      </trkpt>
      <trkpt lat="43.50926" lon="6.41298">
        <ele>283.4</ele>
        <time>2026-02-23T10:40:52.000Z</time>
      </trkpt>
      <trkpt lat="43.50919" lon="6.41306">
        <ele>283</ele>
        <time>2026-02-23T10:41:03.000Z</time>
      </trkpt>
      <trkpt lat="43.50912" lon="6.41315">
        <ele>282.3</ele>
        <time>2026-02-23T10:41:17.000Z</time>
      </trkpt>
      <trkpt lat="43.50909" lon="6.41328">
        <ele>281.5</ele>
        <time>2026-02-23T10:41:30.000Z</time>
      </trkpt>
      <trkpt lat="43.50901" lon="6.41336">
        <ele>281</ele>
        <time>2026-02-23T10:41:38.000Z</time>
      </trkpt>
      <trkpt lat="43.50895" lon="6.41345">
        <ele>280.6</ele>
        <time>2026-02-23T10:41:45.000Z</time>
      </trkpt>
      <trkpt lat="43.50887" lon="6.41353">
        <ele>279.7</ele>
        <time>2026-02-23T10:41:58.000Z</time>
      </trkpt>
      <trkpt lat="43.50881" lon="6.41363">
        <ele>278.9</ele>
        <time>2026-02-23T10:42:11.000Z</time>
      </trkpt>
      <trkpt lat="43.50875" lon="6.41374">
        <ele>278.2</ele>
        <time>2026-02-23T10:42:22.000Z</time>
      </trkpt>
      <trkpt lat="43.50869" lon="6.41385">
        <ele>277.6</ele>
        <time>2026-02-23T10:42:30.000Z</time>
      </trkpt>
      <trkpt lat="43.50864" lon="6.41394">
        <ele>276.7</ele>
        <time>2026-02-23T10:42:42.000Z</time>
      </trkpt>
      <trkpt lat="43.50859" lon="6.41406">
        <ele>276.1</ele>
        <time>2026-02-23T10:42:55.000Z</time>
      </trkpt>
      <trkpt lat="43.50856" lon="6.41417">
        <ele>275.6</ele>
        <time>2026-02-23T10:43:05.000Z</time>
      </trkpt>
      <trkpt lat="43.5085" lon="6.41429">
        <ele>275.3</ele>
        <time>2026-02-23T10:43:12.000Z</time>
      </trkpt>
      <trkpt lat="43.50844" lon="6.41439">
        <ele>274.8</ele>
        <time>2026-02-23T10:43:24.000Z</time>
      </trkpt>
      <trkpt lat="43.50839" lon="6.41449">
        <ele>274.2</ele>
        <time>2026-02-23T10:43:38.000Z</time>
      </trkpt>
      <trkpt lat="43.50831" lon="6.41457">
        <ele>273.8</ele>
        <time>2026-02-23T10:43:48.000Z</time>
      </trkpt>
      <trkpt lat="43.50824" lon="6.41465">
        <ele>273.5</ele>
        <time>2026-02-23T10:43:58.000Z</time>
      </trkpt>
      <trkpt lat="43.50815" lon="6.41474">
        <ele>273.3</ele>
        <time>2026-02-23T10:44:08.000Z</time>
      </trkpt>
      <trkpt lat="43.50815" lon="6.4148">
        <ele>273.1</ele>
        <time>2026-02-23T10:44:35.000Z</time>
      </trkpt>
      <trkpt lat="43.50815" lon="6.4148">
        <ele>273</ele>
        <time>2026-02-23T10:44:38.000Z</time>
      </trkpt>
      <trkpt lat="43.50815" lon="6.41481">
        <ele>273</ele>
        <time>2026-02-23T10:44:41.000Z</time>
      </trkpt>
      <trkpt lat="43.50813" lon="6.41481">
        <ele>272.9</ele>
        <time>2026-02-23T10:44:57.000Z</time>
      </trkpt>
      <trkpt lat="43.50811" lon="6.4148">
        <ele>272.6</ele>
        <time>2026-02-23T10:45:43.000Z</time>
      </trkpt>
      <trkpt lat="43.50811" lon="6.41481">
        <ele>272.6</ele>
        <time>2026-02-23T10:45:59.000Z</time>
      </trkpt>
      <trkpt lat="43.50808" lon="6.41485">
        <ele>272.6</ele>
        <time>2026-02-23T10:46:43.000Z</time>
      </trkpt>
      <trkpt lat="43.5081" lon="6.41486">
        <ele>272.6</ele>
        <time>2026-02-23T10:47:05.000Z</time>
      </trkpt>
      <trkpt lat="43.50809" lon="6.41487">
        <ele>272.6</ele>
        <time>2026-02-23T10:47:15.000Z</time>
      </trkpt>
      <trkpt lat="43.50808" lon="6.41489">
        <ele>272.7</ele>
        <time>2026-02-23T10:47:40.000Z</time>
      </trkpt>
      <trkpt lat="43.50808" lon="6.41489">
        <ele>272.8</ele>
        <time>2026-02-23T10:47:56.000Z</time>
      </trkpt>
      <trkpt lat="43.50808" lon="6.41488">
        <ele>272.8</ele>
        <time>2026-02-23T10:47:57.000Z</time>
      </trkpt>
      <trkpt lat="43.50808" lon="6.41489">
        <ele>273.1</ele>
        <time>2026-02-23T10:48:23.000Z</time>
      </trkpt>
      <trkpt lat="43.50808" lon="6.41489">
        <ele>273.2</ele>
        <time>2026-02-23T10:48:37.000Z</time>
      </trkpt>
      <trkpt lat="43.50805" lon="6.41491">
        <ele>273.4</ele>
        <time>2026-02-23T10:48:49.000Z</time>
      </trkpt>
      <trkpt lat="43.50803" lon="6.41491">
        <ele>273.5</ele>
        <time>2026-02-23T10:49:10.000Z</time>
      </trkpt>
      <trkpt lat="43.50806" lon="6.41491">
        <ele>273.6</ele>
        <time>2026-02-23T10:49:24.000Z</time>
      </trkpt>
      <trkpt lat="43.50805" lon="6.41492">
        <ele>273.6</ele>
        <time>2026-02-23T10:49:58.000Z</time>
      </trkpt>
      <trkpt lat="43.50805" lon="6.41493">
        <ele>274</ele>
        <time>2026-02-23T10:50:08.000Z</time>
      </trkpt>
      <trkpt lat="43.50806" lon="6.41492">
        <ele>273.8</ele>
        <time>2026-02-23T10:51:13.000Z</time>
      </trkpt>
      <trkpt lat="43.50805" lon="6.41493">
        <ele>273.8</ele>
        <time>2026-02-23T10:51:48.000Z</time>
      </trkpt>
      <trkpt lat="43.50807" lon="6.41489">
        <ele>273.8</ele>
        <time>2026-02-23T10:52:13.000Z</time>
      </trkpt>
      <trkpt lat="43.50809" lon="6.41482">
        <ele>273.9</ele>
        <time>2026-02-23T10:52:23.000Z</time>
      </trkpt>
      <trkpt lat="43.50808" lon="6.41483">
        <ele>273.9</ele>
        <time>2026-02-23T10:52:27.000Z</time>
      </trkpt>
      <trkpt lat="43.50805" lon="6.41485">
        <ele>273.9</ele>
        <time>2026-02-23T10:52:42.000Z</time>
      </trkpt>
      <trkpt lat="43.50806" lon="6.41484">
        <ele>273.9</ele>
        <time>2026-02-23T10:52:45.000Z</time>
      </trkpt>
      <trkpt lat="43.50808" lon="6.41482">
        <ele>274.1</ele>
        <time>2026-02-23T10:53:01.000Z</time>
      </trkpt>
      <trkpt lat="43.50808" lon="6.41483">
        <ele>274.1</ele>
        <time>2026-02-23T10:53:09.000Z</time>
      </trkpt>
      <trkpt lat="43.50807" lon="6.41485">
        <ele>274.1</ele>
        <time>2026-02-23T10:53:23.000Z</time>
      </trkpt>
      <trkpt lat="43.50808" lon="6.41485">
        <ele>274</ele>
        <time>2026-02-23T10:53:54.000Z</time>
      </trkpt>
      <trkpt lat="43.5081" lon="6.41484">
        <ele>274.2</ele>
        <time>2026-02-23T10:54:05.000Z</time>
      </trkpt>
      <trkpt lat="43.50811" lon="6.41484">
        <ele>274.2</ele>
        <time>2026-02-23T10:54:10.000Z</time>
      </trkpt>
      <trkpt lat="43.5081" lon="6.41483">
        <ele>274.1</ele>
        <time>2026-02-23T10:54:23.000Z</time>
      </trkpt>
      <trkpt lat="43.50809" lon="6.41482">
        <ele>274</ele>
        <time>2026-02-23T10:56:20.000Z</time>
      </trkpt>
      <trkpt lat="43.50807" lon="6.41483">
        <ele>274.1</ele>
        <time>2026-02-23T10:56:34.000Z</time>
      </trkpt>
      <trkpt lat="43.50807" lon="6.41484">
        <ele>274.1</ele>
        <time>2026-02-23T10:56:37.000Z</time>
      </trkpt>
      <trkpt lat="43.50806" lon="6.41488">
        <ele>273.6</ele>
        <time>2026-02-23T10:56:55.000Z</time>
      </trkpt>
      <trkpt lat="43.50807" lon="6.41486">
        <ele>274.6</ele>
        <time>2026-02-23T10:57:11.000Z</time>
      </trkpt>
      <trkpt lat="43.5081" lon="6.41481">
        <ele>274.4</ele>
        <time>2026-02-23T10:57:23.000Z</time>
      </trkpt>
      <trkpt lat="43.50804" lon="6.41471">
        <ele>274.2</ele>
        <time>2026-02-23T10:57:57.000Z</time>
      </trkpt>
      <trkpt lat="43.50806" lon="6.41484">
        <ele>274.7</ele>
        <time>2026-02-23T11:02:42.000Z</time>
      </trkpt>
      <trkpt lat="43.50805" lon="6.41471">
        <ele>274.7</ele>
        <time>2026-02-23T11:03:07.000Z</time>
      </trkpt>
      <trkpt lat="43.50809" lon="6.41483">
        <ele>274.7</ele>
        <time>2026-02-23T11:04:11.000Z</time>
      </trkpt>
      <trkpt lat="43.50809" lon="6.41478">
        <ele>274.7</ele>
        <time>2026-02-23T11:05:03.000Z</time>
      </trkpt>
      <trkpt lat="43.50807" lon="6.41485">
        <ele>274.7</ele>
        <time>2026-02-23T11:05:18.000Z</time>
      </trkpt>
      <trkpt lat="43.50807" lon="6.41486">
        <ele>274.7</ele>
        <time>2026-02-23T11:05:28.000Z</time>
      </trkpt>
      <trkpt lat="43.50807" lon="6.41483">
        <ele>274.7</ele>
        <time>2026-02-23T11:05:48.000Z</time>
      </trkpt>
      <trkpt lat="43.50807" lon="6.41486">
        <ele>274.8</ele>
        <time>2026-02-23T11:06:25.000Z</time>
      </trkpt>
      <trkpt lat="43.50808" lon="6.41484">
        <ele>274.8</ele>
        <time>2026-02-23T11:06:40.000Z</time>
      </trkpt>
      <trkpt lat="43.50802" lon="6.41479">
        <ele>275</ele>
        <time>2026-02-23T11:11:23.000Z</time>
      </trkpt>
      <trkpt lat="43.50802" lon="6.4148">
        <ele>275</ele>
        <time>2026-02-23T11:11:33.000Z</time>
      </trkpt>
      <trkpt lat="43.50806" lon="6.41484">
        <ele>276.2</ele>
        <time>2026-02-23T11:13:26.000Z</time>
      </trkpt>
      <trkpt lat="43.50807" lon="6.41487">
        <ele>276.4</ele>
        <time>2026-02-23T11:13:47.000Z</time>
      </trkpt>
      <trkpt lat="43.50806" lon="6.41488">
        <ele>276.2</ele>
        <time>2026-02-23T11:13:58.000Z</time>
      </trkpt>
      <trkpt lat="43.50806" lon="6.41488">
        <ele>276.6</ele>
        <time>2026-02-23T11:14:10.000Z</time>
      </trkpt>
      <trkpt lat="43.50807" lon="6.41489">
        <ele>276.3</ele>
        <time>2026-02-23T11:14:23.000Z</time>
      </trkpt>
      <trkpt lat="43.50807" lon="6.41476">
        <ele>276.4</ele>
        <time>2026-02-23T11:15:38.000Z</time>
      </trkpt>
      <trkpt lat="43.50809" lon="6.41482">
        <ele>276</ele>
        <time>2026-02-23T11:16:50.000Z</time>
      </trkpt>
      <trkpt lat="43.50808" lon="6.41484">
        <ele>276.1</ele>
        <time>2026-02-23T11:17:19.000Z</time>
      </trkpt>
      <trkpt lat="43.5081" lon="6.41485">
        <ele>275.6</ele>
        <time>2026-02-23T11:17:30.000Z</time>
      </trkpt>
      <trkpt lat="43.5081" lon="6.41486">
        <ele>276.6</ele>
        <time>2026-02-23T11:18:17.000Z</time>
      </trkpt>
      <trkpt lat="43.50809" lon="6.41488">
        <ele>276.2</ele>
        <time>2026-02-23T11:18:28.000Z</time>
      </trkpt>
      <trkpt lat="43.50809" lon="6.41486">
        <ele>276.7</ele>
        <time>2026-02-23T11:18:49.000Z</time>
      </trkpt>
      <trkpt lat="43.50809" lon="6.41486">
        <ele>276.5</ele>
        <time>2026-02-23T11:19:00.000Z</time>
      </trkpt>
      <trkpt lat="43.50807" lon="6.41487">
        <ele>276.3</ele>
        <time>2026-02-23T11:19:10.000Z</time>
      </trkpt>
      <trkpt lat="43.50807" lon="6.41484">
        <ele>276.3</ele>
        <time>2026-02-23T11:19:25.000Z</time>
      </trkpt>
      <trkpt lat="43.50806" lon="6.41479">
        <ele>276.2</ele>
        <time>2026-02-23T11:19:41.000Z</time>
      </trkpt>
      <trkpt lat="43.50806" lon="6.41483">
        <ele>276.2</ele>
        <time>2026-02-23T11:19:46.000Z</time>
      </trkpt>
      <trkpt lat="43.50805" lon="6.4148">
        <ele>276.4</ele>
        <time>2026-02-23T11:20:46.000Z</time>
      </trkpt>
      <trkpt lat="43.50806" lon="6.41474">
        <ele>276.4</ele>
        <time>2026-02-23T11:21:08.000Z</time>
      </trkpt>
      <trkpt lat="43.50806" lon="6.4148">
        <ele>276.4</ele>
        <time>2026-02-23T11:21:44.000Z</time>
      </trkpt>
      <trkpt lat="43.50807" lon="6.41481">
        <ele>276.4</ele>
        <time>2026-02-23T11:21:51.000Z</time>
      </trkpt>
      <trkpt lat="43.50809" lon="6.41482">
        <ele>276.4</ele>
        <time>2026-02-23T11:22:15.000Z</time>
      </trkpt>
      <trkpt lat="43.50811" lon="6.4148">
        <ele>276.4</ele>
        <time>2026-02-23T11:22:26.000Z</time>
      </trkpt>
      <trkpt lat="43.5081" lon="6.41481">
        <ele>276.5</ele>
        <time>2026-02-23T11:23:36.000Z</time>
      </trkpt>
      <trkpt lat="43.50808" lon="6.41482">
        <ele>276.5</ele>
        <time>2026-02-23T11:23:48.000Z</time>
      </trkpt>
      <trkpt lat="43.50805" lon="6.4148">
        <ele>277.3</ele>
        <time>2026-02-23T11:29:00.000Z</time>
      </trkpt>
      <trkpt lat="43.50804" lon="6.41486">
        <ele>277.3</ele>
        <time>2026-02-23T11:29:16.000Z</time>
      </trkpt>
      <trkpt lat="43.50802" lon="6.4149">
        <ele>277.3</ele>
        <time>2026-02-23T11:29:30.000Z</time>
      </trkpt>
      <trkpt lat="43.50805" lon="6.41491">
        <ele>277.5</ele>
        <time>2026-02-23T11:30:08.000Z</time>
      </trkpt>
      <trkpt lat="43.50805" lon="6.41487">
        <ele>277.5</ele>
        <time>2026-02-23T11:31:05.000Z</time>
      </trkpt>
      <trkpt lat="43.50805" lon="6.41487">
        <ele>277.6</ele>
        <time>2026-02-23T11:31:19.000Z</time>
      </trkpt>
      <trkpt lat="43.50808" lon="6.41489">
        <ele>277.6</ele>
        <time>2026-02-23T11:32:13.000Z</time>
      </trkpt>
      <trkpt lat="43.50808" lon="6.41487">
        <ele>277.6</ele>
        <time>2026-02-23T11:32:23.000Z</time>
      </trkpt>
      <trkpt lat="43.50805" lon="6.41485">
        <ele>277.7</ele>
        <time>2026-02-23T11:32:48.000Z</time>
      </trkpt>
      <trkpt lat="43.50805" lon="6.41487">
        <ele>277.7</ele>
        <time>2026-02-23T11:32:55.000Z</time>
      </trkpt>
      <trkpt lat="43.50804" lon="6.41475">
        <ele>277.8</ele>
        <time>2026-02-23T11:33:38.000Z</time>
      </trkpt>
      <trkpt lat="43.50807" lon="6.41478">
        <ele>277.8</ele>
        <time>2026-02-23T11:33:53.000Z</time>
      </trkpt>
      <trkpt lat="43.50812" lon="6.41483">
        <ele>277.9</ele>
        <time>2026-02-23T11:34:19.000Z</time>
      </trkpt>
      <trkpt lat="43.50809" lon="6.41483">
        <ele>277.9</ele>
        <time>2026-02-23T11:34:30.000Z</time>
      </trkpt>
      <trkpt lat="43.50809" lon="6.41482">
        <ele>278.1</ele>
        <time>2026-02-23T11:35:01.000Z</time>
      </trkpt>
      <trkpt lat="43.50808" lon="6.41481">
        <ele>278.3</ele>
        <time>2026-02-23T11:35:22.000Z</time>
      </trkpt>
      <trkpt lat="43.50808" lon="6.41484">
        <ele>278</ele>
        <time>2026-02-23T11:35:51.000Z</time>
      </trkpt>
      <trkpt lat="43.50808" lon="6.41484">
        <ele>278</ele>
        <time>2026-02-23T11:36:02.000Z</time>
      </trkpt>
      <trkpt lat="43.50806" lon="6.41487">
        <ele>278</ele>
        <time>2026-02-23T11:36:27.000Z</time>
      </trkpt>
      <trkpt lat="43.50806" lon="6.41483">
        <ele>278.3</ele>
        <time>2026-02-23T11:36:48.000Z</time>
      </trkpt>
      <trkpt lat="43.50809" lon="6.41483">
        <ele>277.3</ele>
        <time>2026-02-23T11:37:26.000Z</time>
      </trkpt>
      <trkpt lat="43.50808" lon="6.41484">
        <ele>278.8</ele>
        <time>2026-02-23T11:38:06.000Z</time>
      </trkpt>
      <trkpt lat="43.50808" lon="6.41486">
        <ele>279</ele>
        <time>2026-02-23T11:38:11.000Z</time>
      </trkpt>
      <trkpt lat="43.50805" lon="6.4149">
        <ele>279</ele>
        <time>2026-02-23T11:38:31.000Z</time>
      </trkpt>
      <trkpt lat="43.50811" lon="6.41485">
        <ele>280.6</ele>
        <time>2026-02-23T11:45:27.000Z</time>
      </trkpt>
      <trkpt lat="43.50809" lon="6.41479">
        <ele>281.1</ele>
        <time>2026-02-23T11:45:48.000Z</time>
      </trkpt>
      <trkpt lat="43.50808" lon="6.41478">
        <ele>280.9</ele>
        <time>2026-02-23T11:46:20.000Z</time>
      </trkpt>
      <trkpt lat="43.50808" lon="6.41478">
        <ele>280.8</ele>
        <time>2026-02-23T11:46:31.000Z</time>
      </trkpt>
      <trkpt lat="43.50806" lon="6.41477">
        <ele>280.9</ele>
        <time>2026-02-23T11:46:55.000Z</time>
      </trkpt>
      <trkpt lat="43.50806" lon="6.41479">
        <ele>280.8</ele>
        <time>2026-02-23T11:47:07.000Z</time>
      </trkpt>
      <trkpt lat="43.50806" lon="6.41485">
        <ele>281</ele>
        <time>2026-02-23T11:47:21.000Z</time>
      </trkpt>
      <trkpt lat="43.50806" lon="6.41486">
        <ele>280.9</ele>
        <time>2026-02-23T11:47:41.000Z</time>
      </trkpt>
      <trkpt lat="43.50809" lon="6.41483">
        <ele>281.4</ele>
        <time>2026-02-23T11:50:33.000Z</time>
      </trkpt>
      <trkpt lat="43.50808" lon="6.41486">
        <ele>281.5</ele>
        <time>2026-02-23T11:51:13.000Z</time>
      </trkpt>
      <trkpt lat="43.50808" lon="6.41483">
        <ele>282.3</ele>
        <time>2026-02-23T11:54:03.000Z</time>
      </trkpt>
      <trkpt lat="43.50808" lon="6.4148">
        <ele>282.3</ele>
        <time>2026-02-23T11:54:15.000Z</time>
      </trkpt>
      <trkpt lat="43.50807" lon="6.4148">
        <ele>282.6</ele>
        <time>2026-02-23T11:55:11.000Z</time>
      </trkpt>
      <trkpt lat="43.5081" lon="6.41492">
        <ele>282.6</ele>
        <time>2026-02-23T11:55:29.000Z</time>
      </trkpt>
      <trkpt lat="43.50819" lon="6.41488">
        <ele>282.8</ele>
        <time>2026-02-23T11:56:08.000Z</time>
      </trkpt>
      <trkpt lat="43.50824" lon="6.41478">
        <ele>282.9</ele>
        <time>2026-02-23T11:56:22.000Z</time>
      </trkpt>
      <trkpt lat="43.50831" lon="6.41468">
        <ele>282.9</ele>
        <time>2026-02-23T11:56:35.000Z</time>
      </trkpt>
      <trkpt lat="43.50837" lon="6.41457">
        <ele>283</ele>
        <time>2026-02-23T11:56:48.000Z</time>
      </trkpt>
      <trkpt lat="43.50843" lon="6.41447">
        <ele>283.1</ele>
        <time>2026-02-23T11:56:57.000Z</time>
      </trkpt>
      <trkpt lat="43.50851" lon="6.4144">
        <ele>283.4</ele>
        <time>2026-02-23T11:57:06.000Z</time>
      </trkpt>
      <trkpt lat="43.50857" lon="6.4143">
        <ele>283.9</ele>
        <time>2026-02-23T11:57:15.000Z</time>
      </trkpt>
      <trkpt lat="43.50863" lon="6.4142">
        <ele>284.5</ele>
        <time>2026-02-23T11:57:27.000Z</time>
      </trkpt>
      <trkpt lat="43.50871" lon="6.41411">
        <ele>285</ele>
        <time>2026-02-23T11:57:38.000Z</time>
      </trkpt>
      <trkpt lat="43.50876" lon="6.414">
        <ele>285.8</ele>
        <time>2026-02-23T11:57:57.000Z</time>
      </trkpt>
      <trkpt lat="43.5088" lon="6.41387">
        <ele>286.5</ele>
        <time>2026-02-23T11:58:10.000Z</time>
      </trkpt>
      <trkpt lat="43.50885" lon="6.41376">
        <ele>287.1</ele>
        <time>2026-02-23T11:58:20.000Z</time>
      </trkpt>
      <trkpt lat="43.50891" lon="6.41367">
        <ele>287.9</ele>
        <time>2026-02-23T11:58:34.000Z</time>
      </trkpt>
      <trkpt lat="43.50898" lon="6.41358">
        <ele>288.5</ele>
        <time>2026-02-23T11:58:46.000Z</time>
      </trkpt>
      <trkpt lat="43.50902" lon="6.41346">
        <ele>288.9</ele>
        <time>2026-02-23T11:58:54.000Z</time>
      </trkpt>
      <trkpt lat="43.5091" lon="6.41338">
        <ele>289.6</ele>
        <time>2026-02-23T11:59:08.000Z</time>
      </trkpt>
      <trkpt lat="43.50914" lon="6.41327">
        <ele>290.3</ele>
        <time>2026-02-23T11:59:19.000Z</time>
      </trkpt>
      <trkpt lat="43.50922" lon="6.41321">
        <ele>291.4</ele>
        <time>2026-02-23T11:59:38.000Z</time>
      </trkpt>
      <trkpt lat="43.50928" lon="6.41311">
        <ele>292</ele>
        <time>2026-02-23T11:59:46.000Z</time>
      </trkpt>
      <trkpt lat="43.50936" lon="6.41301">
        <ele>292.5</ele>
        <time>2026-02-23T11:59:57.000Z</time>
      </trkpt>
      <trkpt lat="43.50941" lon="6.4129">
        <ele>293.1</ele>
        <time>2026-02-23T12:00:09.000Z</time>
      </trkpt>
      <trkpt lat="43.50948" lon="6.41282">
        <ele>293.6</ele>
        <time>2026-02-23T12:00:22.000Z</time>
      </trkpt>
      <trkpt lat="43.50956" lon="6.41273">
        <ele>293.9</ele>
        <time>2026-02-23T12:00:33.000Z</time>
      </trkpt>
      <trkpt lat="43.50965" lon="6.4127">
        <ele>294.2</ele>
        <time>2026-02-23T12:00:47.000Z</time>
      </trkpt>
      <trkpt lat="43.50973" lon="6.41262">
        <ele>294.3</ele>
        <time>2026-02-23T12:00:56.000Z</time>
      </trkpt>
      <trkpt lat="43.5098" lon="6.41254">
        <ele>294.4</ele>
        <time>2026-02-23T12:01:04.000Z</time>
      </trkpt>
      <trkpt lat="43.50989" lon="6.4125">
        <ele>294.4</ele>
        <time>2026-02-23T12:01:16.000Z</time>
      </trkpt>
      <trkpt lat="43.50998" lon="6.41245">
        <ele>294.2</ele>
        <time>2026-02-23T12:01:28.000Z</time>
      </trkpt>
      <trkpt lat="43.51005" lon="6.41236">
        <ele>294</ele>
        <time>2026-02-23T12:01:38.000Z</time>
      </trkpt>
      <trkpt lat="43.51009" lon="6.41224">
        <ele>293.9</ele>
        <time>2026-02-23T12:01:45.000Z</time>
      </trkpt>
      <trkpt lat="43.51007" lon="6.41211">
        <ele>293.8</ele>
        <time>2026-02-23T12:01:53.000Z</time>
      </trkpt>
      <trkpt lat="43.51006" lon="6.41198">
        <ele>293.5</ele>
        <time>2026-02-23T12:02:09.000Z</time>
      </trkpt>
      <trkpt lat="43.5101" lon="6.41186">
        <ele>292.7</ele>
        <time>2026-02-23T12:02:24.000Z</time>
      </trkpt>
      <trkpt lat="43.51016" lon="6.41175">
        <ele>292</ele>
        <time>2026-02-23T12:02:35.000Z</time>
      </trkpt>
      <trkpt lat="43.51011" lon="6.41163">
        <ele>291.2</ele>
        <time>2026-02-23T12:02:50.000Z</time>
      </trkpt>
      <trkpt lat="43.51004" lon="6.41156">
        <ele>289.9</ele>
        <time>2026-02-23T12:03:01.000Z</time>
      </trkpt>
      <trkpt lat="43.51009" lon="6.41145">
        <ele>287.7</ele>
        <time>2026-02-23T12:03:16.000Z</time>
      </trkpt>
      <trkpt lat="43.51016" lon="6.41138">
        <ele>286.2</ele>
        <time>2026-02-23T12:03:29.000Z</time>
      </trkpt>
      <trkpt lat="43.51024" lon="6.4113">
        <ele>285.2</ele>
        <time>2026-02-23T12:03:43.000Z</time>
      </trkpt>
      <trkpt lat="43.5103" lon="6.4112">
        <ele>284.2</ele>
        <time>2026-02-23T12:03:56.000Z</time>
      </trkpt>
      <trkpt lat="43.51033" lon="6.41108">
        <ele>283.3</ele>
        <time>2026-02-23T12:04:05.000Z</time>
      </trkpt>
      <trkpt lat="43.51037" lon="6.41094">
        <ele>282</ele>
        <time>2026-02-23T12:04:17.000Z</time>
      </trkpt>
      <trkpt lat="43.51039" lon="6.41088">
        <ele>280</ele>
        <time>2026-02-23T12:04:42.000Z</time>
      </trkpt>
      <trkpt lat="43.5104" lon="6.41088">
        <ele>279.9</ele>
        <time>2026-02-23T12:04:47.000Z</time>
      </trkpt>
      <trkpt lat="43.51039" lon="6.41075">
        <ele>279.4</ele>
        <time>2026-02-23T12:05:16.000Z</time>
      </trkpt>
      <trkpt lat="43.51038" lon="6.41063">
        <ele>276.9</ele>
        <time>2026-02-23T12:05:35.000Z</time>
      </trkpt>
      <trkpt lat="43.51045" lon="6.41054">
        <ele>274.6</ele>
        <time>2026-02-23T12:06:01.000Z</time>
      </trkpt>
      <trkpt lat="43.51052" lon="6.41048">
        <ele>274.3</ele>
        <time>2026-02-23T12:06:34.000Z</time>
      </trkpt>
      <trkpt lat="43.51053" lon="6.41048">
        <ele>274.3</ele>
        <time>2026-02-23T12:06:37.000Z</time>
      </trkpt>
      <trkpt lat="43.51051" lon="6.41048">
        <ele>274</ele>
        <time>2026-02-23T12:06:58.000Z</time>
      </trkpt>
      <trkpt lat="43.51061" lon="6.41043">
        <ele>274.1</ele>
        <time>2026-02-23T12:07:11.000Z</time>
      </trkpt>
      <trkpt lat="43.51069" lon="6.41037">
        <ele>273.4</ele>
        <time>2026-02-23T12:07:34.000Z</time>
      </trkpt>
      <trkpt lat="43.51078" lon="6.41034">
        <ele>272.7</ele>
        <time>2026-02-23T12:07:45.000Z</time>
      </trkpt>
      <trkpt lat="43.51087" lon="6.4103">
        <ele>271.6</ele>
        <time>2026-02-23T12:07:58.000Z</time>
      </trkpt>
      <trkpt lat="43.51095" lon="6.41023">
        <ele>270</ele>
        <time>2026-02-23T12:08:15.000Z</time>
      </trkpt>
      <trkpt lat="43.51102" lon="6.41016">
        <ele>268.7</ele>
        <time>2026-02-23T12:08:27.000Z</time>
      </trkpt>
      <trkpt lat="43.51106" lon="6.41004">
        <ele>267.6</ele>
        <time>2026-02-23T12:08:37.000Z</time>
      </trkpt>
      <trkpt lat="43.51111" lon="6.40993">
        <ele>266.2</ele>
        <time>2026-02-23T12:08:49.000Z</time>
      </trkpt>
      <trkpt lat="43.51118" lon="6.40985">
        <ele>264.3</ele>
        <time>2026-02-23T12:09:06.000Z</time>
      </trkpt>
      <trkpt lat="43.51126" lon="6.40981">
        <ele>263.3</ele>
        <time>2026-02-23T12:09:21.000Z</time>
      </trkpt>
      <trkpt lat="43.51134" lon="6.40972">
        <ele>262.2</ele>
        <time>2026-02-23T12:09:35.000Z</time>
      </trkpt>
      <trkpt lat="43.51138" lon="6.40959">
        <ele>261.6</ele>
        <time>2026-02-23T12:09:43.000Z</time>
      </trkpt>
      <trkpt lat="43.51132" lon="6.40949">
        <ele>260.8</ele>
        <time>2026-02-23T12:09:53.000Z</time>
      </trkpt>
      <trkpt lat="43.51122" lon="6.40947">
        <ele>259.7</ele>
        <time>2026-02-23T12:10:05.000Z</time>
      </trkpt>
      <trkpt lat="43.51112" lon="6.40945">
        <ele>259.2</ele>
        <time>2026-02-23T12:10:15.000Z</time>
      </trkpt>
      <trkpt lat="43.51103" lon="6.40943">
        <ele>258.6</ele>
        <time>2026-02-23T12:10:34.000Z</time>
      </trkpt>
      <trkpt lat="43.51094" lon="6.4094">
        <ele>257.6</ele>
        <time>2026-02-23T12:10:50.000Z</time>
      </trkpt>
      <trkpt lat="43.51086" lon="6.40937">
        <ele>256.6</ele>
        <time>2026-02-23T12:10:59.000Z</time>
      </trkpt>
      <trkpt lat="43.51077" lon="6.40931">
        <ele>254.8</ele>
        <time>2026-02-23T12:11:14.000Z</time>
      </trkpt>
      <trkpt lat="43.51068" lon="6.40927">
        <ele>252.9</ele>
        <time>2026-02-23T12:11:30.000Z</time>
      </trkpt>
      <trkpt lat="43.51059" lon="6.40927">
        <ele>250.6</ele>
        <time>2026-02-23T12:11:52.000Z</time>
      </trkpt>
      <trkpt lat="43.5105" lon="6.40923">
        <ele>249.5</ele>
        <time>2026-02-23T12:12:03.000Z</time>
      </trkpt>
      <trkpt lat="43.51041" lon="6.40925">
        <ele>248.9</ele>
        <time>2026-02-23T12:12:12.000Z</time>
      </trkpt>
      <trkpt lat="43.51032" lon="6.40927">
        <ele>248.5</ele>
        <time>2026-02-23T12:12:20.000Z</time>
      </trkpt>
      <trkpt lat="43.51023" lon="6.40924">
        <ele>247.9</ele>
        <time>2026-02-23T12:12:33.000Z</time>
      </trkpt>
      <trkpt lat="43.51014" lon="6.40921">
        <ele>246.7</ele>
        <time>2026-02-23T12:12:49.000Z</time>
      </trkpt>
      <trkpt lat="43.51005" lon="6.40919">
        <ele>245</ele>
        <time>2026-02-23T12:13:05.000Z</time>
      </trkpt>
      <trkpt lat="43.50997" lon="6.40926">
        <ele>243.6</ele>
        <time>2026-02-23T12:13:21.000Z</time>
      </trkpt>
      <trkpt lat="43.50989" lon="6.40932">
        <ele>242.4</ele>
        <time>2026-02-23T12:13:34.000Z</time>
      </trkpt>
      <trkpt lat="43.5098" lon="6.40934">
        <ele>241.9</ele>
        <time>2026-02-23T12:13:39.000Z</time>
      </trkpt>
      <trkpt lat="43.5097" lon="6.40937">
        <ele>241.3</ele>
        <time>2026-02-23T12:13:47.000Z</time>
      </trkpt>
      <trkpt lat="43.50962" lon="6.40942">
        <ele>241</ele>
        <time>2026-02-23T12:13:56.000Z</time>
      </trkpt>
      <trkpt lat="43.50952" lon="6.40945">
        <ele>240.9</ele>
        <time>2026-02-23T12:14:06.000Z</time>
      </trkpt>
      <trkpt lat="43.50943" lon="6.40946">
        <ele>241</ele>
        <time>2026-02-23T12:14:16.000Z</time>
      </trkpt>
      <trkpt lat="43.50934" lon="6.40951">
        <ele>241.2</ele>
        <time>2026-02-23T12:14:29.000Z</time>
      </trkpt>
      <trkpt lat="43.50925" lon="6.40953">
        <ele>242.5</ele>
        <time>2026-02-23T12:14:45.000Z</time>
      </trkpt>
      <trkpt lat="43.50917" lon="6.4096">
        <ele>244.4</ele>
        <time>2026-02-23T12:15:03.000Z</time>
      </trkpt>
      <trkpt lat="43.50909" lon="6.40967">
        <ele>246.3</ele>
        <time>2026-02-23T12:15:22.000Z</time>
      </trkpt>
      <trkpt lat="43.50901" lon="6.40971">
        <ele>246.9</ele>
        <time>2026-02-23T12:15:32.000Z</time>
      </trkpt>
      <trkpt lat="43.50891" lon="6.40969">
        <ele>247</ele>
        <time>2026-02-23T12:15:46.000Z</time>
      </trkpt>
      <trkpt lat="43.50883" lon="6.40964">
        <ele>246.2</ele>
        <time>2026-02-23T12:15:57.000Z</time>
      </trkpt>
      <trkpt lat="43.50875" lon="6.4096">
        <ele>244.8</ele>
        <time>2026-02-23T12:16:08.000Z</time>
      </trkpt>
      <trkpt lat="43.50866" lon="6.40965">
        <ele>244.2</ele>
        <time>2026-02-23T12:16:18.000Z</time>
      </trkpt>
      <trkpt lat="43.50856" lon="6.40967">
        <ele>244.6</ele>
        <time>2026-02-23T12:16:28.000Z</time>
      </trkpt>
      <trkpt lat="43.50848" lon="6.40974">
        <ele>244.8</ele>
        <time>2026-02-23T12:16:37.000Z</time>
      </trkpt>
      <trkpt lat="43.50844" lon="6.40984">
        <ele>245.1</ele>
        <time>2026-02-23T12:17:11.000Z</time>
      </trkpt>
      <trkpt lat="43.50844" lon="6.40985">
        <ele>245.1</ele>
        <time>2026-02-23T12:17:12.000Z</time>
      </trkpt>
      <trkpt lat="43.50843" lon="6.40986">
        <ele>245</ele>
        <time>2026-02-23T12:17:15.000Z</time>
      </trkpt>
      <trkpt lat="43.50835" lon="6.40992">
        <ele>244.8</ele>
        <time>2026-02-23T12:17:35.000Z</time>
      </trkpt>
      <trkpt lat="43.5083" lon="6.41002">
        <ele>244.4</ele>
        <time>2026-02-23T12:17:48.000Z</time>
      </trkpt>
      <trkpt lat="43.50822" lon="6.4101">
        <ele>243.2</ele>
        <time>2026-02-23T12:18:08.000Z</time>
      </trkpt>
      <trkpt lat="43.50814" lon="6.41017">
        <ele>241.9</ele>
        <time>2026-02-23T12:18:20.000Z</time>
      </trkpt>
      <trkpt lat="43.50806" lon="6.41022">
        <ele>240.6</ele>
        <time>2026-02-23T12:18:37.000Z</time>
      </trkpt>
      <trkpt lat="43.50797" lon="6.41027">
        <ele>239.3</ele>
        <time>2026-02-23T12:18:55.000Z</time>
      </trkpt>
      <trkpt lat="43.50789" lon="6.41031">
        <ele>238</ele>
        <time>2026-02-23T12:19:09.000Z</time>
      </trkpt>
      <trkpt lat="43.5078" lon="6.41033">
        <ele>235.8</ele>
        <time>2026-02-23T12:19:27.000Z</time>
      </trkpt>
      <trkpt lat="43.5077" lon="6.41035">
        <ele>234.6</ele>
        <time>2026-02-23T12:19:39.000Z</time>
      </trkpt>
      <trkpt lat="43.50763" lon="6.41043">
        <ele>233.3</ele>
        <time>2026-02-23T12:19:52.000Z</time>
      </trkpt>
      <trkpt lat="43.50754" lon="6.41044">
        <ele>232.5</ele>
        <time>2026-02-23T12:20:05.000Z</time>
      </trkpt>
      <trkpt lat="43.50744" lon="6.41048">
        <ele>232</ele>
        <time>2026-02-23T12:20:17.000Z</time>
      </trkpt>
      <trkpt lat="43.50735" lon="6.41052">
        <ele>231.6</ele>
        <time>2026-02-23T12:20:28.000Z</time>
      </trkpt>
      <trkpt lat="43.50728" lon="6.4106">
        <ele>231.4</ele>
        <time>2026-02-23T12:20:36.000Z</time>
      </trkpt>
      <trkpt lat="43.5072" lon="6.41066">
        <ele>231.4</ele>
        <time>2026-02-23T12:20:47.000Z</time>
      </trkpt>
      <trkpt lat="43.50713" lon="6.41073">
        <ele>231.5</ele>
        <time>2026-02-23T12:20:59.000Z</time>
      </trkpt>
      <trkpt lat="43.50704" lon="6.41078">
        <ele>231.6</ele>
        <time>2026-02-23T12:21:10.000Z</time>
      </trkpt>
      <trkpt lat="43.50696" lon="6.41085">
        <ele>231.9</ele>
        <time>2026-02-23T12:21:22.000Z</time>
      </trkpt>
      <trkpt lat="43.50688" lon="6.41091">
        <ele>232.3</ele>
        <time>2026-02-23T12:21:34.000Z</time>
      </trkpt>
      <trkpt lat="43.5068" lon="6.41096">
        <ele>232.6</ele>
        <time>2026-02-23T12:21:46.000Z</time>
      </trkpt>
      <trkpt lat="43.50675" lon="6.41107">
        <ele>232.6</ele>
        <time>2026-02-23T12:21:55.000Z</time>
      </trkpt>
      <trkpt lat="43.50667" lon="6.41113">
        <ele>232.5</ele>
        <time>2026-02-23T12:22:05.000Z</time>
      </trkpt>
      <trkpt lat="43.50657" lon="6.41111">
        <ele>231.8</ele>
        <time>2026-02-23T12:22:18.000Z</time>
      </trkpt>
      <trkpt lat="43.50648" lon="6.41112">
        <ele>230.9</ele>
        <time>2026-02-23T12:22:26.000Z</time>
      </trkpt>
      <trkpt lat="43.50639" lon="6.41116">
        <ele>230.3</ele>
        <time>2026-02-23T12:22:35.000Z</time>
      </trkpt>
      <trkpt lat="43.50635" lon="6.41129">
        <ele>230.2</ele>
        <time>2026-02-23T12:22:45.000Z</time>
      </trkpt>
      <trkpt lat="43.50635" lon="6.41142">
        <ele>230.5</ele>
        <time>2026-02-23T12:22:53.000Z</time>
      </trkpt>
      <trkpt lat="43.50633" lon="6.41154">
        <ele>231.1</ele>
        <time>2026-02-23T12:23:06.000Z</time>
      </trkpt>
      <trkpt lat="43.50633" lon="6.41167">
        <ele>232.7</ele>
        <time>2026-02-23T12:23:24.000Z</time>
      </trkpt>
      <trkpt lat="43.50635" lon="6.41179">
        <ele>233.4</ele>
        <time>2026-02-23T12:23:34.000Z</time>
      </trkpt>
      <trkpt lat="43.50632" lon="6.41192">
        <ele>234.7</ele>
        <time>2026-02-23T12:23:49.000Z</time>
      </trkpt>
      <trkpt lat="43.5063" lon="6.41205">
        <ele>235.4</ele>
        <time>2026-02-23T12:23:59.000Z</time>
      </trkpt>
      <trkpt lat="43.50626" lon="6.41216">
        <ele>236.1</ele>
        <time>2026-02-23T12:24:11.000Z</time>
      </trkpt>
      <trkpt lat="43.50622" lon="6.41228">
        <ele>236.7</ele>
        <time>2026-02-23T12:24:26.000Z</time>
      </trkpt>
      <trkpt lat="43.50618" lon="6.41239">
        <ele>237.2</ele>
        <time>2026-02-23T12:24:39.000Z</time>
      </trkpt>
      <trkpt lat="43.50618" lon="6.41253">
        <ele>237.9</ele>
        <time>2026-02-23T12:24:50.000Z</time>
      </trkpt>
      <trkpt lat="43.50618" lon="6.41266">
        <ele>238.1</ele>
        <time>2026-02-23T12:25:02.000Z</time>
      </trkpt>
      <trkpt lat="43.50614" lon="6.41278">
        <ele>237.8</ele>
        <time>2026-02-23T12:25:14.000Z</time>
      </trkpt>
      <trkpt lat="43.50607" lon="6.41287">
        <ele>236.6</ele>
        <time>2026-02-23T12:25:32.000Z</time>
      </trkpt>
      <trkpt lat="43.50598" lon="6.41281">
        <ele>235.4</ele>
        <time>2026-02-23T12:25:48.000Z</time>
      </trkpt>
      <trkpt lat="43.50589" lon="6.41279">
        <ele>234.7</ele>
        <time>2026-02-23T12:25:58.000Z</time>
      </trkpt>
      <trkpt lat="43.5058" lon="6.41283">
        <ele>234.3</ele>
        <time>2026-02-23T12:26:07.000Z</time>
      </trkpt>
      <trkpt lat="43.50572" lon="6.4129">
        <ele>234.1</ele>
        <time>2026-02-23T12:26:16.000Z</time>
      </trkpt>
      <trkpt lat="43.50564" lon="6.41296">
        <ele>233.9</ele>
        <time>2026-02-23T12:26:23.000Z</time>
      </trkpt>
      <trkpt lat="43.50558" lon="6.41306">
        <ele>233.8</ele>
        <time>2026-02-23T12:26:30.000Z</time>
      </trkpt>
      <trkpt lat="43.50553" lon="6.41316">
        <ele>233.6</ele>
        <time>2026-02-23T12:26:43.000Z</time>
      </trkpt>
      <trkpt lat="43.50544" lon="6.41321">
        <ele>233.4</ele>
        <time>2026-02-23T12:27:00.000Z</time>
      </trkpt>
      <trkpt lat="43.50534" lon="6.41324">
        <ele>233.4</ele>
        <time>2026-02-23T12:27:10.000Z</time>
      </trkpt>
      <trkpt lat="43.50525" lon="6.41327">
        <ele>233.4</ele>
        <time>2026-02-23T12:27:21.000Z</time>
      </trkpt>
      <trkpt lat="43.50516" lon="6.41329">
        <ele>233.5</ele>
        <time>2026-02-23T12:27:32.000Z</time>
      </trkpt>
      <trkpt lat="43.50507" lon="6.41331">
        <ele>233.9</ele>
        <time>2026-02-23T12:27:45.000Z</time>
      </trkpt>
      <trkpt lat="43.50499" lon="6.41324">
        <ele>234.5</ele>
        <time>2026-02-23T12:28:04.000Z</time>
      </trkpt>
      <trkpt lat="43.5049" lon="6.41324">
        <ele>236.2</ele>
        <time>2026-02-23T12:28:40.000Z</time>
      </trkpt>
      <trkpt lat="43.50488" lon="6.41325">
        <ele>236.2</ele>
        <time>2026-02-23T12:28:58.000Z</time>
      </trkpt>
      <trkpt lat="43.50489" lon="6.4133">
        <ele>236.3</ele>
        <time>2026-02-23T12:29:47.000Z</time>
      </trkpt>
      <trkpt lat="43.50487" lon="6.41332">
        <ele>236.3</ele>
        <time>2026-02-23T12:30:02.000Z</time>
      </trkpt>
      <trkpt lat="43.50486" lon="6.41332">
        <ele>236.2</ele>
        <time>2026-02-23T12:31:35.000Z</time>
      </trkpt>
      <trkpt lat="43.50487" lon="6.41329">
        <ele>236.3</ele>
        <time>2026-02-23T12:32:02.000Z</time>
      </trkpt>
      <trkpt lat="43.5049" lon="6.41327">
        <ele>236.3</ele>
        <time>2026-02-23T12:32:14.000Z</time>
      </trkpt>
      <trkpt lat="43.50496" lon="6.41317">
        <ele>236.1</ele>
        <time>2026-02-23T12:32:32.000Z</time>
      </trkpt>
      <trkpt lat="43.50497" lon="6.41303">
        <ele>235.3</ele>
        <time>2026-02-23T12:32:53.000Z</time>
      </trkpt>
      <trkpt lat="43.50503" lon="6.41293">
        <ele>234.4</ele>
        <time>2026-02-23T12:33:05.000Z</time>
      </trkpt>
      <trkpt lat="43.50503" lon="6.4128">
        <ele>233.6</ele>
        <time>2026-02-23T12:33:19.000Z</time>
      </trkpt>
      <trkpt lat="43.50507" lon="6.41267">
        <ele>232.3</ele>
        <time>2026-02-23T12:33:37.000Z</time>
      </trkpt>
      <trkpt lat="43.50509" lon="6.41255">
        <ele>231.3</ele>
        <time>2026-02-23T12:33:52.000Z</time>
      </trkpt>
      <trkpt lat="43.50516" lon="6.41247">
        <ele>230.5</ele>
        <time>2026-02-23T12:34:05.000Z</time>
      </trkpt>
      <trkpt lat="43.5052" lon="6.41235">
        <ele>229.4</ele>
        <time>2026-02-23T12:34:23.000Z</time>
      </trkpt>
      <trkpt lat="43.50526" lon="6.41225">
        <ele>228.7</ele>
        <time>2026-02-23T12:34:36.000Z</time>
      </trkpt>
      <trkpt lat="43.50532" lon="6.41215">
        <ele>227.6</ele>
        <time>2026-02-23T12:34:56.000Z</time>
      </trkpt>
      <trkpt lat="43.50538" lon="6.41205">
        <ele>226.6</ele>
        <time>2026-02-23T12:35:11.000Z</time>
      </trkpt>
      <trkpt lat="43.50542" lon="6.41194">
        <ele>225.6</ele>
        <time>2026-02-23T12:35:32.000Z</time>
      </trkpt>
      <trkpt lat="43.50549" lon="6.41186">
        <ele>224.9</ele>
        <time>2026-02-23T12:35:50.000Z</time>
      </trkpt>
      <trkpt lat="43.50553" lon="6.41174">
        <ele>224.3</ele>
        <time>2026-02-23T12:36:11.000Z</time>
      </trkpt>
      <trkpt lat="43.50554" lon="6.41161">
        <ele>223.8</ele>
        <time>2026-02-23T12:36:29.000Z</time>
      </trkpt>
      <trkpt lat="43.50556" lon="6.41149">
        <ele>223.4</ele>
        <time>2026-02-23T12:36:46.000Z</time>
      </trkpt>
      <trkpt lat="43.50559" lon="6.41137">
        <ele>222.9</ele>
        <time>2026-02-23T12:37:06.000Z</time>
      </trkpt>
      <trkpt lat="43.5056" lon="6.41123">
        <ele>222.5</ele>
        <time>2026-02-23T12:37:20.000Z</time>
      </trkpt>
      <trkpt lat="43.50563" lon="6.41111">
        <ele>222.2</ele>
        <time>2026-02-23T12:37:32.000Z</time>
      </trkpt>
      <trkpt lat="43.50568" lon="6.411">
        <ele>221.7</ele>
        <time>2026-02-23T12:37:45.000Z</time>
      </trkpt>
      <trkpt lat="43.50569" lon="6.41087">
        <ele>221</ele>
        <time>2026-02-23T12:38:01.000Z</time>
      </trkpt>
      <trkpt lat="43.50564" lon="6.41076">
        <ele>220.4</ele>
        <time>2026-02-23T12:38:19.000Z</time>
      </trkpt>
      <trkpt lat="43.50567" lon="6.41064">
        <ele>220</ele>
        <time>2026-02-23T12:38:35.000Z</time>
      </trkpt>
      <trkpt lat="43.50571" lon="6.41052">
        <ele>219.2</ele>
        <time>2026-02-23T12:38:54.000Z</time>
      </trkpt>
      <trkpt lat="43.50573" lon="6.4104">
        <ele>218.1</ele>
        <time>2026-02-23T12:39:14.000Z</time>
      </trkpt>
      <trkpt lat="43.50579" lon="6.41029">
        <ele>216.9</ele>
        <time>2026-02-23T12:39:33.000Z</time>
      </trkpt>
      <trkpt lat="43.50584" lon="6.41018">
        <ele>216.5</ele>
        <time>2026-02-23T12:39:46.000Z</time>
      </trkpt>
      <trkpt lat="43.5059" lon="6.41008">
        <ele>216.2</ele>
        <time>2026-02-23T12:39:58.000Z</time>
      </trkpt>
      <trkpt lat="43.50589" lon="6.40996">
        <ele>215.8</ele>
        <time>2026-02-23T12:40:10.000Z</time>
      </trkpt>
      <trkpt lat="43.50588" lon="6.40982">
        <ele>215.5</ele>
        <time>2026-02-23T12:40:19.000Z</time>
      </trkpt>
      <trkpt lat="43.50586" lon="6.4097">
        <ele>215.2</ele>
        <time>2026-02-23T12:40:31.000Z</time>
      </trkpt>
      <trkpt lat="43.50584" lon="6.40958">
        <ele>214.8</ele>
        <time>2026-02-23T12:40:49.000Z</time>
      </trkpt>
      <trkpt lat="43.50581" lon="6.40945">
        <ele>214.8</ele>
        <time>2026-02-23T12:41:05.000Z</time>
      </trkpt>
      <trkpt lat="43.50582" lon="6.40933">
        <ele>214.9</ele>
        <time>2026-02-23T12:41:12.000Z</time>
      </trkpt>
      <trkpt lat="43.50583" lon="6.4092">
        <ele>214.9</ele>
        <time>2026-02-23T12:41:22.000Z</time>
      </trkpt>
      <trkpt lat="43.50585" lon="6.40908">
        <ele>214.8</ele>
        <time>2026-02-23T12:41:32.000Z</time>
      </trkpt>
      <trkpt lat="43.50591" lon="6.40898">
        <ele>214.6</ele>
        <time>2026-02-23T12:41:43.000Z</time>
      </trkpt>
      <trkpt lat="43.50587" lon="6.40886">
        <ele>214.3</ele>
        <time>2026-02-23T12:41:52.000Z</time>
      </trkpt>
      <trkpt lat="43.50585" lon="6.40873">
        <ele>214</ele>
        <time>2026-02-23T12:42:11.000Z</time>
      </trkpt>
      <trkpt lat="43.50583" lon="6.4086">
        <ele>213</ele>
        <time>2026-02-23T12:42:27.000Z</time>
      </trkpt>
      <trkpt lat="43.50581" lon="6.40847">
        <ele>212.2</ele>
        <time>2026-02-23T12:42:37.000Z</time>
      </trkpt>
      <trkpt lat="43.50579" lon="6.40834">
        <ele>211.4</ele>
        <time>2026-02-23T12:42:50.000Z</time>
      </trkpt>
      <trkpt lat="43.50573" lon="6.40824">
        <ele>211.1</ele>
        <time>2026-02-23T12:42:59.000Z</time>
      </trkpt>
      <trkpt lat="43.50574" lon="6.40816">
        <ele>210.8</ele>
        <time>2026-02-23T12:43:30.000Z</time>
      </trkpt>
      <trkpt lat="43.50572" lon="6.40813">
        <ele>210.8</ele>
        <time>2026-02-23T12:43:33.000Z</time>
      </trkpt>
      <trkpt lat="43.50565" lon="6.40804">
        <ele>210.8</ele>
        <time>2026-02-23T12:43:42.000Z</time>
      </trkpt>
      <trkpt lat="43.50564" lon="6.40791">
        <ele>210.7</ele>
        <time>2026-02-23T12:43:52.000Z</time>
      </trkpt>
      <trkpt lat="43.5056" lon="6.40778">
        <ele>210.7</ele>
        <time>2026-02-23T12:44:01.000Z</time>
      </trkpt>
      <trkpt lat="43.50557" lon="6.40765">
        <ele>210.6</ele>
        <time>2026-02-23T12:44:11.000Z</time>
      </trkpt>
      <trkpt lat="43.50554" lon="6.40753">
        <ele>210.5</ele>
        <time>2026-02-23T12:44:20.000Z</time>
      </trkpt>
      <trkpt lat="43.50546" lon="6.40745">
        <ele>210.5</ele>
        <time>2026-02-23T12:44:30.000Z</time>
      </trkpt>
      <trkpt lat="43.50537" lon="6.40739">
        <ele>210.5</ele>
        <time>2026-02-23T12:44:39.000Z</time>
      </trkpt>
      <trkpt lat="43.50529" lon="6.40732">
        <ele>210.4</ele>
        <time>2026-02-23T12:44:47.000Z</time>
      </trkpt>
      <trkpt lat="43.5052" lon="6.40724">
        <ele>210.1</ele>
        <time>2026-02-23T12:44:58.000Z</time>
      </trkpt>
      <trkpt lat="43.50512" lon="6.40717">
        <ele>209.5</ele>
        <time>2026-02-23T12:45:08.000Z</time>
      </trkpt>
      <trkpt lat="43.50504" lon="6.40711">
        <ele>208.7</ele>
        <time>2026-02-23T12:45:17.000Z</time>
      </trkpt>
      <trkpt lat="43.50496" lon="6.40703">
        <ele>207.9</ele>
        <time>2026-02-23T12:45:29.000Z</time>
      </trkpt>
      <trkpt lat="43.50488" lon="6.40695">
        <ele>207.6</ele>
        <time>2026-02-23T12:45:39.000Z</time>
      </trkpt>
      <trkpt lat="43.50483" lon="6.40683">
        <ele>207.8</ele>
        <time>2026-02-23T12:45:51.000Z</time>
      </trkpt>
      <trkpt lat="43.5048" lon="6.40672">
        <ele>208.1</ele>
        <time>2026-02-23T12:46:00.000Z</time>
      </trkpt>
      <trkpt lat="43.50475" lon="6.40662">
        <ele>208.3</ele>
        <time>2026-02-23T12:46:10.000Z</time>
      </trkpt>
      <trkpt lat="43.50472" lon="6.40649">
        <ele>208.3</ele>
        <time>2026-02-23T12:46:20.000Z</time>
      </trkpt>
      <trkpt lat="43.5047" lon="6.40637">
        <ele>208.1</ele>
        <time>2026-02-23T12:46:31.000Z</time>
      </trkpt>
      <trkpt lat="43.50466" lon="6.40625">
        <ele>207.4</ele>
        <time>2026-02-23T12:46:43.000Z</time>
      </trkpt>
      <trkpt lat="43.50461" lon="6.40616">
        <ele>206.5</ele>
        <time>2026-02-23T12:46:55.000Z</time>
      </trkpt>
      <trkpt lat="43.50454" lon="6.40607">
        <ele>205.6</ele>
        <time>2026-02-23T12:47:06.000Z</time>
      </trkpt>
      <trkpt lat="43.50447" lon="6.40599">
        <ele>204.8</ele>
        <time>2026-02-23T12:47:18.000Z</time>
      </trkpt>
      <trkpt lat="43.50439" lon="6.40592">
        <ele>204.4</ele>
        <time>2026-02-23T12:47:28.000Z</time>
      </trkpt>
      <trkpt lat="43.5043" lon="6.40587">
        <ele>204.1</ele>
        <time>2026-02-23T12:47:38.000Z</time>
      </trkpt>
      <trkpt lat="43.50421" lon="6.40583">
        <ele>204</ele>
        <time>2026-02-23T12:47:49.000Z</time>
      </trkpt>
      <trkpt lat="43.50412" lon="6.40578">
        <ele>203.7</ele>
        <time>2026-02-23T12:47:59.000Z</time>
      </trkpt>
      <trkpt lat="43.50404" lon="6.40574">
        <ele>203.5</ele>
        <time>2026-02-23T12:48:09.000Z</time>
      </trkpt>
      <trkpt lat="43.50395" lon="6.40569">
        <ele>202.9</ele>
        <time>2026-02-23T12:48:22.000Z</time>
      </trkpt>
      <trkpt lat="43.50386" lon="6.40568">
        <ele>202.3</ele>
        <time>2026-02-23T12:48:35.000Z</time>
      </trkpt>
      <trkpt lat="43.50376" lon="6.40567">
        <ele>201.6</ele>
        <time>2026-02-23T12:48:46.000Z</time>
      </trkpt>
      <trkpt lat="43.50367" lon="6.40567">
        <ele>201.2</ele>
        <time>2026-02-23T12:48:57.000Z</time>
      </trkpt>
      <trkpt lat="43.50358" lon="6.40566">
        <ele>200.7</ele>
        <time>2026-02-23T12:49:10.000Z</time>
      </trkpt>
      <trkpt lat="43.50357" lon="6.40566">
        <ele>200.6</ele>
        <time>2026-02-23T12:49:25.000Z</time>
      </trkpt>
      <trkpt lat="43.50353" lon="6.40565">
        <ele>200.4</ele>
        <time>2026-02-23T12:49:36.000Z</time>
      </trkpt>
      <trkpt lat="43.50344" lon="6.40562">
        <ele>200.1</ele>
        <time>2026-02-23T12:49:46.000Z</time>
      </trkpt>
      <trkpt lat="43.50334" lon="6.40563">
        <ele>199.9</ele>
        <time>2026-02-23T12:49:58.000Z</time>
      </trkpt>
      <trkpt lat="43.50329" lon="6.40559">
        <ele>199.7</ele>
        <time>2026-02-23T12:50:25.000Z</time>
      </trkpt>
      <trkpt lat="43.50329" lon="6.4056">
        <ele>199.7</ele>
        <time>2026-02-23T12:50:26.000Z</time>
      </trkpt>
      <trkpt lat="43.50333" lon="6.40548">
        <ele>199.8</ele>
        <time>2026-02-23T12:51:38.000Z</time>
      </trkpt>
      <trkpt lat="43.50336" lon="6.40536">
        <ele>199.9</ele>
        <time>2026-02-23T12:51:47.000Z</time>
      </trkpt>
      <trkpt lat="43.50337" lon="6.40523">
        <ele>200.1</ele>
        <time>2026-02-23T12:51:55.000Z</time>
      </trkpt>
      <trkpt lat="43.50336" lon="6.4051">
        <ele>200.6</ele>
        <time>2026-02-23T12:52:05.000Z</time>
      </trkpt>
      <trkpt lat="43.5034" lon="6.40498">
        <ele>201.1</ele>
        <time>2026-02-23T12:52:12.000Z</time>
      </trkpt>
      <trkpt lat="43.50336" lon="6.40485">
        <ele>201.7</ele>
        <time>2026-02-23T12:52:21.000Z</time>
      </trkpt>
      <trkpt lat="43.50328" lon="6.40478">
        <ele>202.3</ele>
        <time>2026-02-23T12:52:31.000Z</time>
      </trkpt>
      <trkpt lat="43.50324" lon="6.40465">
        <ele>202.3</ele>
        <time>2026-02-23T12:53:00.000Z</time>
      </trkpt>
      <trkpt lat="43.50319" lon="6.40454">
        <ele>202.1</ele>
        <time>2026-02-23T12:53:12.000Z</time>
      </trkpt>
      <trkpt lat="43.50312" lon="6.40446">
        <ele>201.9</ele>
        <time>2026-02-23T12:53:38.000Z</time>
      </trkpt>
      <trkpt lat="43.50307" lon="6.40435">
        <ele>201.6</ele>
        <time>2026-02-23T12:53:51.000Z</time>
      </trkpt>
      <trkpt lat="43.50302" lon="6.40424">
        <ele>200.3</ele>
        <time>2026-02-23T12:54:12.000Z</time>
      </trkpt>
      <trkpt lat="43.50303" lon="6.40411">
        <ele>199.5</ele>
        <time>2026-02-23T12:54:28.000Z</time>
      </trkpt>
      <trkpt lat="43.50303" lon="6.40399">
        <ele>198.2</ele>
        <time>2026-02-23T12:54:45.000Z</time>
      </trkpt>
      <trkpt lat="43.50309" lon="6.40389">
        <ele>196.9</ele>
        <time>2026-02-23T12:55:01.000Z</time>
      </trkpt>
      <trkpt lat="43.50311" lon="6.40376">
        <ele>195.4</ele>
        <time>2026-02-23T12:55:25.000Z</time>
      </trkpt>
      <trkpt lat="43.50309" lon="6.40363">
        <ele>194.4</ele>
        <time>2026-02-23T12:55:39.000Z</time>
      </trkpt>
      <trkpt lat="43.50303" lon="6.40354">
        <ele>193.5</ele>
        <time>2026-02-23T12:55:49.000Z</time>
      </trkpt>
      <trkpt lat="43.50301" lon="6.40342">
        <ele>192.4</ele>
        <time>2026-02-23T12:56:03.000Z</time>
      </trkpt>
      <trkpt lat="43.50301" lon="6.40328">
        <ele>191.3</ele>
        <time>2026-02-23T12:56:16.000Z</time>
      </trkpt>
      <trkpt lat="43.50298" lon="6.40316">
        <ele>190.1</ele>
        <time>2026-02-23T12:56:32.000Z</time>
      </trkpt>
      <trkpt lat="43.50297" lon="6.40303">
        <ele>188.9</ele>
        <time>2026-02-23T12:56:50.000Z</time>
      </trkpt>
      <trkpt lat="43.50304" lon="6.40293">
        <ele>188.4</ele>
        <time>2026-02-23T12:56:58.000Z</time>
      </trkpt>
      <trkpt lat="43.50305" lon="6.4028">
        <ele>187.2</ele>
        <time>2026-02-23T12:57:14.000Z</time>
      </trkpt>
      <trkpt lat="43.50305" lon="6.40276">
        <ele>186.1</ele>
        <time>2026-02-23T12:57:29.000Z</time>
      </trkpt>
      <trkpt lat="43.50304" lon="6.40271">
        <ele>185.8</ele>
        <time>2026-02-23T12:57:42.000Z</time>
      </trkpt>
      <trkpt lat="43.50306" lon="6.40257">
        <ele>185.4</ele>
        <time>2026-02-23T12:57:52.000Z</time>
      </trkpt>
      <trkpt lat="43.50311" lon="6.40246">
        <ele>184.6</ele>
        <time>2026-02-23T12:58:02.000Z</time>
      </trkpt>
      <trkpt lat="43.50312" lon="6.40233">
        <ele>183.7</ele>
        <time>2026-02-23T12:58:14.000Z</time>
      </trkpt>
      <trkpt lat="43.5031" lon="6.40221">
        <ele>183.1</ele>
        <time>2026-02-23T12:58:25.000Z</time>
      </trkpt>
      <trkpt lat="43.50309" lon="6.40219">
        <ele>182.4</ele>
        <time>2026-02-23T12:58:41.000Z</time>
      </trkpt>
      <trkpt lat="43.50307" lon="6.40216">
        <ele>182.1</ele>
        <time>2026-02-23T12:58:58.000Z</time>
      </trkpt>
      <trkpt lat="43.50307" lon="6.40216">
        <ele>182</ele>
        <time>2026-02-23T12:59:10.000Z</time>
      </trkpt>
      <trkpt lat="43.50309" lon="6.40213">
        <ele>181.8</ele>
        <time>2026-02-23T12:59:17.000Z</time>
      </trkpt>
      <trkpt lat="43.50308" lon="6.402">
        <ele>180.5</ele>
        <time>2026-02-23T12:59:42.000Z</time>
      </trkpt>
      <trkpt lat="43.50309" lon="6.40186">
        <ele>178.7</ele>
        <time>2026-02-23T12:59:58.000Z</time>
      </trkpt>
      <trkpt lat="43.50305" lon="6.40175">
        <ele>177.3</ele>
        <time>2026-02-23T13:00:16.000Z</time>
      </trkpt>
      <trkpt lat="43.50302" lon="6.40162">
        <ele>176.1</ele>
        <time>2026-02-23T13:00:32.000Z</time>
      </trkpt>
      <trkpt lat="43.50303" lon="6.40149">
        <ele>175.2</ele>
        <time>2026-02-23T13:00:44.000Z</time>
      </trkpt>
      <trkpt lat="43.50304" lon="6.40137">
        <ele>174.2</ele>
        <time>2026-02-23T13:01:13.000Z</time>
      </trkpt>
      <trkpt lat="43.50306" lon="6.40134">
        <ele>173.7</ele>
        <time>2026-02-23T13:01:36.000Z</time>
      </trkpt>
      <trkpt lat="43.50304" lon="6.40134">
        <ele>173.5</ele>
        <time>2026-02-23T13:01:55.000Z</time>
      </trkpt>
      <trkpt lat="43.50301" lon="6.40139">
        <ele>173</ele>
        <time>2026-02-23T13:02:17.000Z</time>
      </trkpt>
      <trkpt lat="43.50301" lon="6.40139">
        <ele>172.9</ele>
        <time>2026-02-23T13:02:18.000Z</time>
      </trkpt>
      <trkpt lat="43.50304" lon="6.40136">
        <ele>172.4</ele>
        <time>2026-02-23T13:02:37.000Z</time>
      </trkpt>
      <trkpt lat="43.50305" lon="6.40135">
        <ele>172.4</ele>
        <time>2026-02-23T13:02:42.000Z</time>
      </trkpt>
      <trkpt lat="43.50304" lon="6.40134">
        <ele>172</ele>
        <time>2026-02-23T13:02:56.000Z</time>
      </trkpt>
      <trkpt lat="43.50301" lon="6.40135">
        <ele>171.9</ele>
        <time>2026-02-23T13:03:05.000Z</time>
      </trkpt>
      <trkpt lat="43.50292" lon="6.40135">
        <ele>171.8</ele>
        <time>2026-02-23T13:03:15.000Z</time>
      </trkpt>
      <trkpt lat="43.50285" lon="6.40126">
        <ele>171.6</ele>
        <time>2026-02-23T13:03:23.000Z</time>
      </trkpt>
      <trkpt lat="43.50279" lon="6.40116">
        <ele>171.5</ele>
        <time>2026-02-23T13:03:33.000Z</time>
      </trkpt>
      <trkpt lat="43.50284" lon="6.40105">
        <ele>171.5</ele>
        <time>2026-02-23T13:03:54.000Z</time>
      </trkpt>
      <trkpt lat="43.50289" lon="6.40094">
        <ele>171.9</ele>
        <time>2026-02-23T13:04:19.000Z</time>
      </trkpt>
      <trkpt lat="43.50288" lon="6.40093">
        <ele>172.4</ele>
        <time>2026-02-23T13:04:42.000Z</time>
      </trkpt>
      <trkpt lat="43.50288" lon="6.40093">
        <ele>172.4</ele>
        <time>2026-02-23T13:04:53.000Z</time>
      </trkpt>
      <trkpt lat="43.50288" lon="6.40093">
        <ele>172.4</ele>
        <time>2026-02-23T13:05:03.000Z</time>
      </trkpt>
      <trkpt lat="43.5029" lon="6.4009">
        <ele>171.2</ele>
        <time>2026-02-23T13:06:33.000Z</time>
      </trkpt>
      <trkpt lat="43.5029" lon="6.4009">
        <ele>170.8</ele>
        <time>2026-02-23T13:06:45.000Z</time>
      </trkpt>
      <trkpt lat="43.5029" lon="6.4009">
        <ele>170.8</ele>
        <time>2026-02-23T13:06:47.000Z</time>
      </trkpt>
      <trkpt lat="43.5029" lon="6.4009">
        <ele>170.6</ele>
        <time>2026-02-23T13:07:01.000Z</time>
      </trkpt>
      <trkpt lat="43.50289" lon="6.40086">
        <ele>170.4</ele>
        <time>2026-02-23T13:07:13.000Z</time>
      </trkpt>
      <trkpt lat="43.50289" lon="6.40085">
        <ele>170.4</ele>
        <time>2026-02-23T13:07:24.000Z</time>
      </trkpt>
      <trkpt lat="43.50288" lon="6.40085">
        <ele>170.3</ele>
        <time>2026-02-23T13:07:45.000Z</time>
      </trkpt>
      <trkpt lat="43.50288" lon="6.40086">
        <ele>170.2</ele>
        <time>2026-02-23T13:07:56.000Z</time>
      </trkpt>
      <trkpt lat="43.50288" lon="6.40087">
        <ele>170.1</ele>
        <time>2026-02-23T13:08:03.000Z</time>
      </trkpt>
      <trkpt lat="43.50289" lon="6.40086">
        <ele>169.9</ele>
        <time>2026-02-23T13:08:14.000Z</time>
      </trkpt>
      <trkpt lat="43.5029" lon="6.40087">
        <ele>169.5</ele>
        <time>2026-02-23T13:08:55.000Z</time>
      </trkpt>
      <trkpt lat="43.5029" lon="6.40085">
        <ele>169.4</ele>
        <time>2026-02-23T13:09:06.000Z</time>
      </trkpt>
      <trkpt lat="43.5029" lon="6.40085">
        <ele>169</ele>
        <time>2026-02-23T13:09:32.000Z</time>
      </trkpt>
      <trkpt lat="43.5029" lon="6.40085">
        <ele>168.7</ele>
        <time>2026-02-23T13:09:46.000Z</time>
      </trkpt>
      <trkpt lat="43.50289" lon="6.40086">
        <ele>168.2</ele>
        <time>2026-02-23T13:10:03.000Z</time>
      </trkpt>
      <trkpt lat="43.50289" lon="6.40086">
        <ele>168.1</ele>
        <time>2026-02-23T13:10:14.000Z</time>
      </trkpt>
      <trkpt lat="43.5029" lon="6.40084">
        <ele>167.5</ele>
        <time>2026-02-23T13:10:58.000Z</time>
      </trkpt>
      <trkpt lat="43.50296" lon="6.40074">
        <ele>166.6</ele>
        <time>2026-02-23T13:11:14.000Z</time>
      </trkpt>
      <trkpt lat="43.50303" lon="6.40065">
        <ele>165.6</ele>
        <time>2026-02-23T13:11:35.000Z</time>
      </trkpt>
      <trkpt lat="43.50309" lon="6.40054">
        <ele>165.6</ele>
        <time>2026-02-23T13:11:45.000Z</time>
      </trkpt>
      <trkpt lat="43.50312" lon="6.40042">
        <ele>165.6</ele>
        <time>2026-02-23T13:11:55.000Z</time>
      </trkpt>
      <trkpt lat="43.50311" lon="6.40029">
        <ele>165.6</ele>
        <time>2026-02-23T13:12:11.000Z</time>
      </trkpt>
      <trkpt lat="43.50306" lon="6.40018">
        <ele>165.7</ele>
        <time>2026-02-23T13:12:23.000Z</time>
      </trkpt>
      <trkpt lat="43.50297" lon="6.40012">
        <ele>165.8</ele>
        <time>2026-02-23T13:12:32.000Z</time>
      </trkpt>
      <trkpt lat="43.5029" lon="6.40004">
        <ele>166.3</ele>
        <time>2026-02-23T13:12:47.000Z</time>
      </trkpt>
      <trkpt lat="43.50282" lon="6.39997">
        <ele>166.9</ele>
        <time>2026-02-23T13:13:00.000Z</time>
      </trkpt>
      <trkpt lat="43.50273" lon="6.39994">
        <ele>167.3</ele>
        <time>2026-02-23T13:13:11.000Z</time>
      </trkpt>
      <trkpt lat="43.50263" lon="6.39994">
        <ele>168.2</ele>
        <time>2026-02-23T13:13:24.000Z</time>
      </trkpt>
      <trkpt lat="43.50254" lon="6.39998">
        <ele>169</ele>
        <time>2026-02-23T13:13:36.000Z</time>
      </trkpt>
      <trkpt lat="43.50244" lon="6.40001">
        <ele>169.6</ele>
        <time>2026-02-23T13:13:51.000Z</time>
      </trkpt>
      <trkpt lat="43.50235" lon="6.4">
        <ele>170</ele>
        <time>2026-02-23T13:14:01.000Z</time>
      </trkpt>
      <trkpt lat="43.50226" lon="6.4">
        <ele>170.4</ele>
        <time>2026-02-23T13:14:14.000Z</time>
      </trkpt>
      <trkpt lat="43.50217" lon="6.39994">
        <ele>170.4</ele>
        <time>2026-02-23T13:14:24.000Z</time>
      </trkpt>
      <trkpt lat="43.50207" lon="6.39991">
        <ele>170.2</ele>
        <time>2026-02-23T13:14:34.000Z</time>
      </trkpt>
      <trkpt lat="43.50199" lon="6.39985">
        <ele>170</ele>
        <time>2026-02-23T13:14:45.000Z</time>
      </trkpt>
      <trkpt lat="43.5019" lon="6.39979">
        <ele>169.6</ele>
        <time>2026-02-23T13:14:55.000Z</time>
      </trkpt>
      <trkpt lat="43.50181" lon="6.39972">
        <ele>168.9</ele>
        <time>2026-02-23T13:15:06.000Z</time>
      </trkpt>
      <trkpt lat="43.50175" lon="6.39961">
        <ele>168.5</ele>
        <time>2026-02-23T13:15:18.000Z</time>
      </trkpt>
      <trkpt lat="43.50166" lon="6.3996">
        <ele>168.5</ele>
        <time>2026-02-23T13:15:24.000Z</time>
      </trkpt>
      <trkpt lat="43.50159" lon="6.39951">
        <ele>168.5</ele>
        <time>2026-02-23T13:15:33.000Z</time>
      </trkpt>
      <trkpt lat="43.50156" lon="6.39939">
        <ele>168.5</ele>
        <time>2026-02-23T13:15:45.000Z</time>
      </trkpt>
      <trkpt lat="43.50156" lon="6.39926">
        <ele>168.6</ele>
        <time>2026-02-23T13:15:55.000Z</time>
      </trkpt>
      <trkpt lat="43.50154" lon="6.39914">
        <ele>168.8</ele>
        <time>2026-02-23T13:16:06.000Z</time>
      </trkpt>
      <trkpt lat="43.50153" lon="6.399">
        <ele>169.3</ele>
        <time>2026-02-23T13:16:17.000Z</time>
      </trkpt>
      <trkpt lat="43.50152" lon="6.39888">
        <ele>170.1</ele>
        <time>2026-02-23T13:16:28.000Z</time>
      </trkpt>
      <trkpt lat="43.50153" lon="6.39875">
        <ele>170.7</ele>
        <time>2026-02-23T13:16:40.000Z</time>
      </trkpt>
      <trkpt lat="43.50152" lon="6.39862">
        <ele>171.3</ele>
        <time>2026-02-23T13:16:51.000Z</time>
      </trkpt>
      <trkpt lat="43.50153" lon="6.3985">
        <ele>171.7</ele>
        <time>2026-02-23T13:17:00.000Z</time>
      </trkpt>
      <trkpt lat="43.50157" lon="6.39838">
        <ele>172</ele>
        <time>2026-02-23T13:17:13.000Z</time>
      </trkpt>
      <trkpt lat="43.50158" lon="6.39825">
        <ele>172.5</ele>
        <time>2026-02-23T13:17:23.000Z</time>
      </trkpt>
      <trkpt lat="43.50155" lon="6.39813">
        <ele>172.9</ele>
        <time>2026-02-23T13:17:31.000Z</time>
      </trkpt>
      <trkpt lat="43.50155" lon="6.398">
        <ele>173.5</ele>
        <time>2026-02-23T13:17:46.000Z</time>
      </trkpt>
      <trkpt lat="43.50156" lon="6.39788">
        <ele>173.9</ele>
        <time>2026-02-23T13:17:59.000Z</time>
      </trkpt>
      <trkpt lat="43.5016" lon="6.39775">
        <ele>174.9</ele>
        <time>2026-02-23T13:18:13.000Z</time>
      </trkpt>
      <trkpt lat="43.50161" lon="6.39761">
        <ele>175.7</ele>
        <time>2026-02-23T13:18:24.000Z</time>
      </trkpt>
      <trkpt lat="43.50159" lon="6.39749">
        <ele>176.7</ele>
        <time>2026-02-23T13:18:35.000Z</time>
      </trkpt>
      <trkpt lat="43.50158" lon="6.39736">
        <ele>177.2</ele>
        <time>2026-02-23T13:18:46.000Z</time>
      </trkpt>
      <trkpt lat="43.50159" lon="6.39724">
        <ele>177.6</ele>
        <time>2026-02-23T13:18:57.000Z</time>
      </trkpt>
      <trkpt lat="43.50156" lon="6.39712">
        <ele>177.9</ele>
        <time>2026-02-23T13:19:06.000Z</time>
      </trkpt>
      <trkpt lat="43.50158" lon="6.397">
        <ele>178.2</ele>
        <time>2026-02-23T13:19:18.000Z</time>
      </trkpt>
      <trkpt lat="43.50157" lon="6.39688">
        <ele>178.3</ele>
        <time>2026-02-23T13:19:26.000Z</time>
      </trkpt>
      <trkpt lat="43.50161" lon="6.39677">
        <ele>178.7</ele>
        <time>2026-02-23T13:19:37.000Z</time>
      </trkpt>
      <trkpt lat="43.50162" lon="6.39664">
        <ele>179.2</ele>
        <time>2026-02-23T13:19:48.000Z</time>
      </trkpt>
      <trkpt lat="43.50162" lon="6.39651">
        <ele>180.1</ele>
        <time>2026-02-23T13:20:00.000Z</time>
      </trkpt>
      <trkpt lat="43.50159" lon="6.39638">
        <ele>180.7</ele>
        <time>2026-02-23T13:20:12.000Z</time>
      </trkpt>
      <trkpt lat="43.50157" lon="6.39626">
        <ele>181.3</ele>
        <time>2026-02-23T13:20:25.000Z</time>
      </trkpt>
      <trkpt lat="43.50155" lon="6.39613">
        <ele>181.9</ele>
        <time>2026-02-23T13:20:37.000Z</time>
      </trkpt>
      <trkpt lat="43.50153" lon="6.39601">
        <ele>182.5</ele>
        <time>2026-02-23T13:20:51.000Z</time>
      </trkpt>
      <trkpt lat="43.50151" lon="6.39589">
        <ele>183.2</ele>
        <time>2026-02-23T13:21:04.000Z</time>
      </trkpt>
      <trkpt lat="43.50151" lon="6.39576">
        <ele>183.8</ele>
        <time>2026-02-23T13:21:15.000Z</time>
      </trkpt>
      <trkpt lat="43.50153" lon="6.39563">
        <ele>184.3</ele>
        <time>2026-02-23T13:21:27.000Z</time>
      </trkpt>
      <trkpt lat="43.50153" lon="6.3955">
        <ele>184.6</ele>
        <time>2026-02-23T13:21:43.000Z</time>
      </trkpt>
      <trkpt lat="43.50154" lon="6.39536">
        <ele>184.7</ele>
        <time>2026-02-23T13:21:56.000Z</time>
      </trkpt>
      <trkpt lat="43.50153" lon="6.39524">
        <ele>184.8</ele>
        <time>2026-02-23T13:22:07.000Z</time>
      </trkpt>
      <trkpt lat="43.50153" lon="6.39511">
        <ele>184.9</ele>
        <time>2026-02-23T13:22:19.000Z</time>
      </trkpt>
      <trkpt lat="43.50149" lon="6.39499">
        <ele>185</ele>
        <time>2026-02-23T13:22:28.000Z</time>
      </trkpt>
      <trkpt lat="43.50147" lon="6.39487">
        <ele>185.3</ele>
        <time>2026-02-23T13:22:40.000Z</time>
      </trkpt>
      <trkpt lat="43.50145" lon="6.39474">
        <ele>186.1</ele>
        <time>2026-02-23T13:23:06.000Z</time>
      </trkpt>
      <trkpt lat="43.50142" lon="6.39462">
        <ele>186.5</ele>
        <time>2026-02-23T13:23:15.000Z</time>
      </trkpt>
      <trkpt lat="43.5014" lon="6.3945">
        <ele>187</ele>
        <time>2026-02-23T13:23:24.000Z</time>
      </trkpt>
      <trkpt lat="43.50137" lon="6.39438">
        <ele>187.6</ele>
        <time>2026-02-23T13:23:35.000Z</time>
      </trkpt>
      <trkpt lat="43.50133" lon="6.39427">
        <ele>188.2</ele>
        <time>2026-02-23T13:23:45.000Z</time>
      </trkpt>
      <trkpt lat="43.5013" lon="6.39415">
        <ele>189.3</ele>
        <time>2026-02-23T13:23:57.000Z</time>
      </trkpt>
      <trkpt lat="43.50127" lon="6.39403">
        <ele>190.2</ele>
        <time>2026-02-23T13:24:08.000Z</time>
      </trkpt>
      <trkpt lat="43.50121" lon="6.39393">
        <ele>190.9</ele>
        <time>2026-02-23T13:24:20.000Z</time>
      </trkpt>
      <trkpt lat="43.5012" lon="6.3938">
        <ele>191.8</ele>
        <time>2026-02-23T13:24:33.000Z</time>
      </trkpt>
      <trkpt lat="43.5012" lon="6.39367">
        <ele>192.6</ele>
        <time>2026-02-23T13:24:45.000Z</time>
      </trkpt>
      <trkpt lat="43.50123" lon="6.39354">
        <ele>193.3</ele>
        <time>2026-02-23T13:24:56.000Z</time>
      </trkpt>
      <trkpt lat="43.50126" lon="6.39342">
        <ele>193.8</ele>
        <time>2026-02-23T13:25:07.000Z</time>
      </trkpt>
      <trkpt lat="43.50128" lon="6.39336">
        <ele>194.4</ele>
        <time>2026-02-23T13:25:28.000Z</time>
      </trkpt>
      <trkpt lat="43.50128" lon="6.39332">
        <ele>194.4</ele>
        <time>2026-02-23T13:25:39.000Z</time>
      </trkpt>
      <trkpt lat="43.50128" lon="6.39332">
        <ele>194.4</ele>
        <time>2026-02-23T13:25:53.000Z</time>
      </trkpt>
      <trkpt lat="43.50128" lon="6.39332">
        <ele>194.4</ele>
        <time>2026-02-23T13:26:03.000Z</time>
      </trkpt>
      <trkpt lat="43.50132" lon="6.3932">
        <ele>193.8</ele>
        <time>2026-02-23T13:26:21.000Z</time>
      </trkpt>
      <trkpt lat="43.50135" lon="6.3931">
        <ele>192.8</ele>
        <time>2026-02-23T13:26:48.000Z</time>
      </trkpt>
      <trkpt lat="43.50135" lon="6.39312">
        <ele>192.6</ele>
        <time>2026-02-23T13:26:55.000Z</time>
      </trkpt>
      <trkpt lat="43.50135" lon="6.39312">
        <ele>192.3</ele>
        <time>2026-02-23T13:27:12.000Z</time>
      </trkpt>
      <trkpt lat="43.50137" lon="6.39315">
        <ele>192</ele>
        <time>2026-02-23T13:27:25.000Z</time>
      </trkpt>
      <trkpt lat="43.50135" lon="6.39317">
        <ele>190.7</ele>
        <time>2026-02-23T13:27:52.000Z</time>
      </trkpt>
      <trkpt lat="43.50135" lon="6.39317">
        <ele>190</ele>
        <time>2026-02-23T13:28:46.000Z</time>
      </trkpt>
      <trkpt lat="43.50135" lon="6.39317">
        <ele>189.9</ele>
        <time>2026-02-23T13:28:57.000Z</time>
      </trkpt>
      <trkpt lat="43.50135" lon="6.39317">
        <ele>189.9</ele>
        <time>2026-02-23T13:28:58.000Z</time>
      </trkpt>
      <trkpt lat="43.50135" lon="6.39318">
        <ele>189.9</ele>
        <time>2026-02-23T13:29:13.000Z</time>
      </trkpt>
      <trkpt lat="43.50136" lon="6.39313">
        <ele>190.4</ele>
        <time>2026-02-23T13:31:38.000Z</time>
      </trkpt>
      <trkpt lat="43.50142" lon="6.39303">
        <ele>190.2</ele>
        <time>2026-02-23T13:31:56.000Z</time>
      </trkpt>
      <trkpt lat="43.50149" lon="6.39294">
        <ele>189.9</ele>
        <time>2026-02-23T13:32:05.000Z</time>
      </trkpt>
      <trkpt lat="43.50151" lon="6.39282">
        <ele>189.5</ele>
        <time>2026-02-23T13:32:15.000Z</time>
      </trkpt>
      <trkpt lat="43.50157" lon="6.39271">
        <ele>189.1</ele>
        <time>2026-02-23T13:32:25.000Z</time>
      </trkpt>
      <trkpt lat="43.50163" lon="6.39261">
        <ele>188.9</ele>
        <time>2026-02-23T13:32:35.000Z</time>
      </trkpt>
      <trkpt lat="43.50164" lon="6.39248">
        <ele>188.9</ele>
        <time>2026-02-23T13:32:45.000Z</time>
      </trkpt>
      <trkpt lat="43.50165" lon="6.39235">
        <ele>188.8</ele>
        <time>2026-02-23T13:32:55.000Z</time>
      </trkpt>
      <trkpt lat="43.50166" lon="6.39222">
        <ele>188.8</ele>
        <time>2026-02-23T13:33:06.000Z</time>
      </trkpt>
      <trkpt lat="43.50166" lon="6.39208">
        <ele>188.9</ele>
        <time>2026-02-23T13:33:19.000Z</time>
      </trkpt>
      <trkpt lat="43.5017" lon="6.39197">
        <ele>188.9</ele>
        <time>2026-02-23T13:33:28.000Z</time>
      </trkpt>
      <trkpt lat="43.50171" lon="6.39184">
        <ele>189.1</ele>
        <time>2026-02-23T13:33:38.000Z</time>
      </trkpt>
      <trkpt lat="43.50172" lon="6.39171">
        <ele>189.8</ele>
        <time>2026-02-23T13:33:48.000Z</time>
      </trkpt>
      <trkpt lat="43.50175" lon="6.39159">
        <ele>190.8</ele>
        <time>2026-02-23T13:34:00.000Z</time>
      </trkpt>
      <trkpt lat="43.50175" lon="6.39146">
        <ele>191.8</ele>
        <time>2026-02-23T13:34:11.000Z</time>
      </trkpt>
      <trkpt lat="43.50175" lon="6.39133">
        <ele>192.3</ele>
        <time>2026-02-23T13:34:34.000Z</time>
      </trkpt>
      <trkpt lat="43.50175" lon="6.39121">
        <ele>192.2</ele>
        <time>2026-02-23T13:34:45.000Z</time>
      </trkpt>
      <trkpt lat="43.50177" lon="6.39109">
        <ele>191.7</ele>
        <time>2026-02-23T13:34:56.000Z</time>
      </trkpt>
      <trkpt lat="43.50178" lon="6.39095">
        <ele>191</ele>
        <time>2026-02-23T13:35:09.000Z</time>
      </trkpt>
      <trkpt lat="43.50183" lon="6.39083">
        <ele>190.3</ele>
        <time>2026-02-23T13:35:19.000Z</time>
      </trkpt>
      <trkpt lat="43.50188" lon="6.39071">
        <ele>189.7</ele>
        <time>2026-02-23T13:35:29.000Z</time>
      </trkpt>
      <trkpt lat="43.50187" lon="6.39059">
        <ele>189.2</ele>
        <time>2026-02-23T13:35:43.000Z</time>
      </trkpt>
      <trkpt lat="43.50189" lon="6.39045">
        <ele>188.6</ele>
        <time>2026-02-23T13:35:54.000Z</time>
      </trkpt>
      <trkpt lat="43.5019" lon="6.39032">
        <ele>188</ele>
        <time>2026-02-23T13:36:06.000Z</time>
      </trkpt>
      <trkpt lat="43.50193" lon="6.39019">
        <ele>187.5</ele>
        <time>2026-02-23T13:36:18.000Z</time>
      </trkpt>
      <trkpt lat="43.50192" lon="6.39006">
        <ele>187.4</ele>
        <time>2026-02-23T13:36:27.000Z</time>
      </trkpt>
      <trkpt lat="43.50194" lon="6.38993">
        <ele>186.6</ele>
        <time>2026-02-23T13:36:40.000Z</time>
      </trkpt>
      <trkpt lat="43.50196" lon="6.3898">
        <ele>186.2</ele>
        <time>2026-02-23T13:36:51.000Z</time>
      </trkpt>
      <trkpt lat="43.50198" lon="6.38967">
        <ele>186.1</ele>
        <time>2026-02-23T13:37:02.000Z</time>
      </trkpt>
      <trkpt lat="43.50202" lon="6.38954">
        <ele>186.2</ele>
        <time>2026-02-23T13:37:14.000Z</time>
      </trkpt>
      <trkpt lat="43.50204" lon="6.38942">
        <ele>186.3</ele>
        <time>2026-02-23T13:37:25.000Z</time>
      </trkpt>
      <trkpt lat="43.50204" lon="6.38928">
        <ele>186.4</ele>
        <time>2026-02-23T13:37:35.000Z</time>
      </trkpt>
      <trkpt lat="43.50209" lon="6.38916">
        <ele>186.4</ele>
        <time>2026-02-23T13:37:45.000Z</time>
      </trkpt>
      <trkpt lat="43.50211" lon="6.38904">
        <ele>186.4</ele>
        <time>2026-02-23T13:37:55.000Z</time>
      </trkpt>
      <trkpt lat="43.50211" lon="6.3889">
        <ele>186.4</ele>
        <time>2026-02-23T13:38:05.000Z</time>
      </trkpt>
      <trkpt lat="43.50214" lon="6.38878">
        <ele>186.4</ele>
        <time>2026-02-23T13:38:14.000Z</time>
      </trkpt>
      <trkpt lat="43.50218" lon="6.38867">
        <ele>186.5</ele>
        <time>2026-02-23T13:38:24.000Z</time>
      </trkpt>
      <trkpt lat="43.5022" lon="6.38854">
        <ele>186.8</ele>
        <time>2026-02-23T13:38:34.000Z</time>
      </trkpt>
      <trkpt lat="43.50221" lon="6.38841">
        <ele>187.3</ele>
        <time>2026-02-23T13:38:46.000Z</time>
      </trkpt>
      <trkpt lat="43.50224" lon="6.3883">
        <ele>188.9</ele>
        <time>2026-02-23T13:39:17.000Z</time>
      </trkpt>
      <trkpt lat="43.50226" lon="6.38829">
        <ele>189</ele>
        <time>2026-02-23T13:39:23.000Z</time>
      </trkpt>
      <trkpt lat="43.5023" lon="6.38835">
        <ele>189.2</ele>
        <time>2026-02-23T13:40:27.000Z</time>
      </trkpt>
      <trkpt lat="43.50233" lon="6.38833">
        <ele>189.2</ele>
        <time>2026-02-23T13:40:43.000Z</time>
      </trkpt>
      <trkpt lat="43.50243" lon="6.38835">
        <ele>189.5</ele>
        <time>2026-02-23T13:40:54.000Z</time>
      </trkpt>
      <trkpt lat="43.50252" lon="6.38839">
        <ele>189.8</ele>
        <time>2026-02-23T13:41:05.000Z</time>
      </trkpt>
      <trkpt lat="43.50261" lon="6.38845">
        <ele>190.1</ele>
        <time>2026-02-23T13:41:16.000Z</time>
      </trkpt>
      <trkpt lat="43.5027" lon="6.38848">
        <ele>190.2</ele>
        <time>2026-02-23T13:41:25.000Z</time>
      </trkpt>
      <trkpt lat="43.5028" lon="6.38848">
        <ele>190.3</ele>
        <time>2026-02-23T13:41:33.000Z</time>
      </trkpt>
      <trkpt lat="43.50289" lon="6.38846">
        <ele>190.5</ele>
        <time>2026-02-23T13:41:44.000Z</time>
      </trkpt>
      <trkpt lat="43.50298" lon="6.38851">
        <ele>190.9</ele>
        <time>2026-02-23T13:41:54.000Z</time>
      </trkpt>
      <trkpt lat="43.50307" lon="6.3885">
        <ele>191.5</ele>
        <time>2026-02-23T13:42:10.000Z</time>
      </trkpt>
      <trkpt lat="43.50317" lon="6.38852">
        <ele>191.9</ele>
        <time>2026-02-23T13:42:21.000Z</time>
      </trkpt>
      <trkpt lat="43.50326" lon="6.38852">
        <ele>192.5</ele>
        <time>2026-02-23T13:42:36.000Z</time>
      </trkpt>
      <trkpt lat="43.50335" lon="6.38851">
        <ele>192.6</ele>
        <time>2026-02-23T13:42:44.000Z</time>
      </trkpt>
      <trkpt lat="43.50344" lon="6.38858">
        <ele>192.8</ele>
        <time>2026-02-23T13:42:52.000Z</time>
      </trkpt>
      <trkpt lat="43.50353" lon="6.38857">
        <ele>192.9</ele>
        <time>2026-02-23T13:43:02.000Z</time>
      </trkpt>
      <trkpt lat="43.50363" lon="6.38856">
        <ele>193</ele>
        <time>2026-02-23T13:43:11.000Z</time>
      </trkpt>
      <trkpt lat="43.50372" lon="6.38857">
        <ele>193.2</ele>
        <time>2026-02-23T13:43:24.000Z</time>
      </trkpt>
      <trkpt lat="43.50381" lon="6.38853">
        <ele>193.4</ele>
        <time>2026-02-23T13:43:33.000Z</time>
      </trkpt>
      <trkpt lat="43.5039" lon="6.38849">
        <ele>193.7</ele>
        <time>2026-02-23T13:43:43.000Z</time>
      </trkpt>
      <trkpt lat="43.50399" lon="6.38846">
        <ele>194.1</ele>
        <time>2026-02-23T13:44:07.000Z</time>
      </trkpt>
      <trkpt lat="43.50408" lon="6.38841">
        <ele>194</ele>
        <time>2026-02-23T13:44:15.000Z</time>
      </trkpt>
      <trkpt lat="43.50417" lon="6.38837">
        <ele>193.4</ele>
        <time>2026-02-23T13:44:32.000Z</time>
      </trkpt>
      <trkpt lat="43.50426" lon="6.38833">
        <ele>193.3</ele>
        <time>2026-02-23T13:44:40.000Z</time>
      </trkpt>
      <trkpt lat="43.50435" lon="6.38831">
        <ele>193.4</ele>
        <time>2026-02-23T13:44:52.000Z</time>
      </trkpt>
      <trkpt lat="43.50443" lon="6.38839">
        <ele>193.3</ele>
        <time>2026-02-23T13:45:03.000Z</time>
      </trkpt>
      <trkpt lat="43.50451" lon="6.38849">
        <ele>193.1</ele>
        <time>2026-02-23T13:45:14.000Z</time>
      </trkpt>
      <trkpt lat="43.5046" lon="6.38853">
        <ele>192.8</ele>
        <time>2026-02-23T13:45:22.000Z</time>
      </trkpt>
      <trkpt lat="43.50466" lon="6.38863">
        <ele>192.5</ele>
        <time>2026-02-23T13:45:31.000Z</time>
      </trkpt>
      <trkpt lat="43.50475" lon="6.38869">
        <ele>191.8</ele>
        <time>2026-02-23T13:45:41.000Z</time>
      </trkpt>
      <trkpt lat="43.50483" lon="6.38877">
        <ele>191.2</ele>
        <time>2026-02-23T13:45:50.000Z</time>
      </trkpt>
      <trkpt lat="43.5049" lon="6.38884">
        <ele>190.8</ele>
        <time>2026-02-23T13:45:59.000Z</time>
      </trkpt>
      <trkpt lat="43.50499" lon="6.38889">
        <ele>190.6</ele>
        <time>2026-02-23T13:46:07.000Z</time>
      </trkpt>
      <trkpt lat="43.50507" lon="6.38896">
        <ele>190.2</ele>
        <time>2026-02-23T13:46:20.000Z</time>
      </trkpt>
      <trkpt lat="43.50515" lon="6.38903">
        <ele>189.7</ele>
        <time>2026-02-23T13:46:30.000Z</time>
      </trkpt>
      <trkpt lat="43.50524" lon="6.38908">
        <ele>189.3</ele>
        <time>2026-02-23T13:46:39.000Z</time>
      </trkpt>
      <trkpt lat="43.50532" lon="6.38913">
        <ele>188.1</ele>
        <time>2026-02-23T13:46:50.000Z</time>
      </trkpt>
      <trkpt lat="43.50542" lon="6.38915">
        <ele>187.9</ele>
        <time>2026-02-23T13:46:58.000Z</time>
      </trkpt>
      <trkpt lat="43.50551" lon="6.38914">
        <ele>187.8</ele>
        <time>2026-02-23T13:47:21.000Z</time>
      </trkpt>
      <trkpt lat="43.5056" lon="6.38917">
        <ele>187.8</ele>
        <time>2026-02-23T13:47:30.000Z</time>
      </trkpt>
      <trkpt lat="43.50564" lon="6.38921">
        <ele>188.1</ele>
        <time>2026-02-23T13:48:07.000Z</time>
      </trkpt>
      <trkpt lat="43.50564" lon="6.38921">
        <ele>188.1</ele>
        <time>2026-02-23T13:48:13.000Z</time>
      </trkpt>
      <trkpt lat="43.50567" lon="6.38934">
        <ele>187.9</ele>
        <time>2026-02-23T13:48:52.000Z</time>
      </trkpt>
      <trkpt lat="43.50568" lon="6.38947">
        <ele>187.8</ele>
        <time>2026-02-23T13:49:00.000Z</time>
      </trkpt>
      <trkpt lat="43.50571" lon="6.38959">
        <ele>187.8</ele>
        <time>2026-02-23T13:49:11.000Z</time>
      </trkpt>
      <trkpt lat="43.50573" lon="6.38971">
        <ele>187.7</ele>
        <time>2026-02-23T13:49:21.000Z</time>
      </trkpt>
      <trkpt lat="43.50575" lon="6.38985">
        <ele>187.4</ele>
        <time>2026-02-23T13:49:32.000Z</time>
      </trkpt>
      <trkpt lat="43.50576" lon="6.38997">
        <ele>187.1</ele>
        <time>2026-02-23T13:49:43.000Z</time>
      </trkpt>
      <trkpt lat="43.50579" lon="6.39009">
        <ele>186.8</ele>
        <time>2026-02-23T13:49:52.000Z</time>
      </trkpt>
      <trkpt lat="43.50582" lon="6.39022">
        <ele>186.5</ele>
        <time>2026-02-23T13:50:04.000Z</time>
      </trkpt>
      <trkpt lat="43.50587" lon="6.39032">
        <ele>186.4</ele>
        <time>2026-02-23T13:50:22.000Z</time>
      </trkpt>
      <trkpt lat="43.50587" lon="6.39038">
        <ele>186</ele>
        <time>2026-02-23T13:50:50.000Z</time>
      </trkpt>
      <trkpt lat="43.50585" lon="6.3904">
        <ele>185.9</ele>
        <time>2026-02-23T13:51:03.000Z</time>
      </trkpt>
      <trkpt lat="43.50579" lon="6.39048">
        <ele>185.8</ele>
        <time>2026-02-23T13:51:27.000Z</time>
      </trkpt>
      <trkpt lat="43.50587" lon="6.39048">
        <ele>185.9</ele>
        <time>2026-02-23T13:51:38.000Z</time>
      </trkpt>
      <trkpt lat="43.50589" lon="6.39036">
        <ele>186.1</ele>
        <time>2026-02-23T13:51:49.000Z</time>
      </trkpt>
      <trkpt lat="43.50589" lon="6.39023">
        <ele>186.2</ele>
        <time>2026-02-23T13:52:00.000Z</time>
      </trkpt>
      <trkpt lat="43.50585" lon="6.39011">
        <ele>186.4</ele>
        <time>2026-02-23T13:52:09.000Z</time>
      </trkpt>
      <trkpt lat="43.50582" lon="6.38998">
        <ele>186.4</ele>
        <time>2026-02-23T13:52:21.000Z</time>
      </trkpt>
      <trkpt lat="43.5058" lon="6.38985">
        <ele>186.5</ele>
        <time>2026-02-23T13:52:29.000Z</time>
      </trkpt>
      <trkpt lat="43.50581" lon="6.38972">
        <ele>186.5</ele>
        <time>2026-02-23T13:52:39.000Z</time>
      </trkpt>
      <trkpt lat="43.50578" lon="6.38959">
        <ele>186.7</ele>
        <time>2026-02-23T13:52:51.000Z</time>
      </trkpt>
      <trkpt lat="43.50574" lon="6.38947">
        <ele>187</ele>
        <time>2026-02-23T13:52:59.000Z</time>
      </trkpt>
      <trkpt lat="43.5057" lon="6.38934">
        <ele>187.4</ele>
        <time>2026-02-23T13:53:08.000Z</time>
      </trkpt>
      <trkpt lat="43.50567" lon="6.38921">
        <ele>187.8</ele>
        <time>2026-02-23T13:53:18.000Z</time>
      </trkpt>
      <trkpt lat="43.50576" lon="6.38916">
        <ele>188.3</ele>
        <time>2026-02-23T13:53:44.000Z</time>
      </trkpt>
      <trkpt lat="43.50585" lon="6.38916">
        <ele>188.1</ele>
        <time>2026-02-23T13:53:54.000Z</time>
      </trkpt>
      <trkpt lat="43.50594" lon="6.38916">
        <ele>187.4</ele>
        <time>2026-02-23T13:54:03.000Z</time>
      </trkpt>
      <trkpt lat="43.50604" lon="6.38916">
        <ele>186.1</ele>
        <time>2026-02-23T13:54:13.000Z</time>
      </trkpt>
      <trkpt lat="43.50614" lon="6.38916">
        <ele>184.7</ele>
        <time>2026-02-23T13:54:22.000Z</time>
      </trkpt>
      <trkpt lat="43.50623" lon="6.38919">
        <ele>183.4</ele>
        <time>2026-02-23T13:54:32.000Z</time>
      </trkpt>
      <trkpt lat="43.50628" lon="6.38931">
        <ele>182.3</ele>
        <time>2026-02-23T13:54:44.000Z</time>
      </trkpt>
      <trkpt lat="43.50631" lon="6.38944">
        <ele>181.8</ele>
        <time>2026-02-23T13:54:54.000Z</time>
      </trkpt>
      <trkpt lat="43.50632" lon="6.38956">
        <ele>181.6</ele>
        <time>2026-02-23T13:55:03.000Z</time>
      </trkpt>
      <trkpt lat="43.50638" lon="6.38967">
        <ele>181.5</ele>
        <time>2026-02-23T13:55:12.000Z</time>
      </trkpt>
      <trkpt lat="43.50643" lon="6.38977">
        <ele>181.4</ele>
        <time>2026-02-23T13:55:21.000Z</time>
      </trkpt>
      <trkpt lat="43.50648" lon="6.38988">
        <ele>180.9</ele>
        <time>2026-02-23T13:55:32.000Z</time>
      </trkpt>
      <trkpt lat="43.50653" lon="6.38999">
        <ele>179.6</ele>
        <time>2026-02-23T13:55:49.000Z</time>
      </trkpt>
      <trkpt lat="43.50662" lon="6.39005">
        <ele>178.2</ele>
        <time>2026-02-23T13:55:58.000Z</time>
      </trkpt>
      <trkpt lat="43.50671" lon="6.39003">
        <ele>177.2</ele>
        <time>2026-02-23T13:56:06.000Z</time>
      </trkpt>
      <trkpt lat="43.5068" lon="6.39">
        <ele>176</ele>
        <time>2026-02-23T13:56:20.000Z</time>
      </trkpt>
      <trkpt lat="43.50689" lon="6.39002">
        <ele>174.8</ele>
        <time>2026-02-23T13:56:42.000Z</time>
      </trkpt>
      <trkpt lat="43.50698" lon="6.39004">
        <ele>174.2</ele>
        <time>2026-02-23T13:56:59.000Z</time>
      </trkpt>
      <trkpt lat="43.50708" lon="6.39004">
        <ele>173.4</ele>
        <time>2026-02-23T13:57:09.000Z</time>
      </trkpt>
      <trkpt lat="43.50714" lon="6.38994">
        <ele>172.4</ele>
        <time>2026-02-23T13:57:19.000Z</time>
      </trkpt>
      <trkpt lat="43.50719" lon="6.38983">
        <ele>171.5</ele>
        <time>2026-02-23T13:57:34.000Z</time>
      </trkpt>
      <trkpt lat="43.50724" lon="6.38972">
        <ele>171.2</ele>
        <time>2026-02-23T13:57:44.000Z</time>
      </trkpt>
      <trkpt lat="43.50726" lon="6.38959">
        <ele>171.1</ele>
        <time>2026-02-23T13:57:56.000Z</time>
      </trkpt>
      <trkpt lat="43.5073" lon="6.38947">
        <ele>170.9</ele>
        <time>2026-02-23T13:58:08.000Z</time>
      </trkpt>
      <trkpt lat="43.50734" lon="6.38936">
        <ele>170.9</ele>
        <time>2026-02-23T13:58:18.000Z</time>
      </trkpt>
      <trkpt lat="43.50738" lon="6.38925">
        <ele>171</ele>
        <time>2026-02-23T13:58:31.000Z</time>
      </trkpt>
      <trkpt lat="43.50743" lon="6.38913">
        <ele>171.1</ele>
        <time>2026-02-23T13:58:41.000Z</time>
      </trkpt>
      <trkpt lat="43.50743" lon="6.389">
        <ele>171.2</ele>
        <time>2026-02-23T13:58:53.000Z</time>
      </trkpt>
      <trkpt lat="43.5074" lon="6.38902">
        <ele>171.4</ele>
        <time>2026-02-23T13:59:03.000Z</time>
      </trkpt>
      <trkpt lat="43.50741" lon="6.38901">
        <ele>171.4</ele>
        <time>2026-02-23T13:59:05.000Z</time>
      </trkpt>
      <trkpt lat="43.50742" lon="6.38889">
        <ele>171.6</ele>
        <time>2026-02-23T13:59:17.000Z</time>
      </trkpt>
      <trkpt lat="43.50746" lon="6.38878">
        <ele>171.8</ele>
        <time>2026-02-23T13:59:29.000Z</time>
      </trkpt>
      <trkpt lat="43.50754" lon="6.38871">
        <ele>172.3</ele>
        <time>2026-02-23T13:59:39.000Z</time>
      </trkpt>
      <trkpt lat="43.50763" lon="6.38875">
        <ele>173.3</ele>
        <time>2026-02-23T13:59:57.000Z</time>
      </trkpt>
      <trkpt lat="43.50769" lon="6.38864">
        <ele>173.7</ele>
        <time>2026-02-23T14:00:06.000Z</time>
      </trkpt>
      <trkpt lat="43.50774" lon="6.38853">
        <ele>173.9</ele>
        <time>2026-02-23T14:00:16.000Z</time>
      </trkpt>
      <trkpt lat="43.50782" lon="6.38853">
        <ele>174.3</ele>
        <time>2026-02-23T14:00:36.000Z</time>
      </trkpt>
      <trkpt lat="43.5078" lon="6.38852">
        <ele>174.4</ele>
        <time>2026-02-23T14:00:41.000Z</time>
      </trkpt>
      <trkpt lat="43.50779" lon="6.38851">
        <ele>174.4</ele>
        <time>2026-02-23T14:01:08.000Z</time>
      </trkpt>
      <trkpt lat="43.50777" lon="6.38851">
        <ele>174.4</ele>
        <time>2026-02-23T14:01:22.000Z</time>
      </trkpt>
      <trkpt lat="43.50775" lon="6.38852">
        <ele>174.4</ele>
        <time>2026-02-23T14:01:30.000Z</time>
      </trkpt>
      <trkpt lat="43.50775" lon="6.38851">
        <ele>174.2</ele>
        <time>2026-02-23T14:01:36.000Z</time>
      </trkpt>
      <trkpt lat="43.50774" lon="6.38851">
        <ele>174.1</ele>
        <time>2026-02-23T14:02:04.000Z</time>
      </trkpt>
      <trkpt lat="43.50775" lon="6.38848">
        <ele>174.4</ele>
        <time>2026-02-23T14:02:23.000Z</time>
      </trkpt>
      <trkpt lat="43.50776" lon="6.38854">
        <ele>174.6</ele>
        <time>2026-02-23T14:03:03.000Z</time>
      </trkpt>
      <trkpt lat="43.50773" lon="6.38853">
        <ele>174.7</ele>
        <time>2026-02-23T14:04:21.000Z</time>
      </trkpt>
      <trkpt lat="43.50772" lon="6.38866">
        <ele>176.6</ele>
        <time>2026-02-23T14:04:58.000Z</time>
      </trkpt>
      <trkpt lat="43.5077" lon="6.38866">
        <ele>174.9</ele>
        <time>2026-02-23T14:05:16.000Z</time>
      </trkpt>
      <trkpt lat="43.50774" lon="6.38864">
        <ele>174.8</ele>
        <time>2026-02-23T14:05:50.000Z</time>
      </trkpt>
      <trkpt lat="43.50774" lon="6.38864">
        <ele>174.8</ele>
        <time>2026-02-23T14:06:43.000Z</time>
      </trkpt>
      <trkpt lat="43.50778" lon="6.38863">
        <ele>174.8</ele>
        <time>2026-02-23T14:06:52.000Z</time>
      </trkpt>
      <trkpt lat="43.50778" lon="6.38862">
        <ele>174.8</ele>
        <time>2026-02-23T14:07:03.000Z</time>
      </trkpt>
      <trkpt lat="43.5078" lon="6.38858">
        <ele>174.9</ele>
        <time>2026-02-23T14:08:13.000Z</time>
      </trkpt>
      <trkpt lat="43.5078" lon="6.38861">
        <ele>174.9</ele>
        <time>2026-02-23T14:08:33.000Z</time>
      </trkpt>
      <trkpt lat="43.50783" lon="6.38856">
        <ele>174.9</ele>
        <time>2026-02-23T14:09:24.000Z</time>
      </trkpt>
      <trkpt lat="43.50783" lon="6.38856">
        <ele>174.9</ele>
        <time>2026-02-23T14:09:35.000Z</time>
      </trkpt>
      <trkpt lat="43.50783" lon="6.38855">
        <ele>175</ele>
        <time>2026-02-23T14:10:20.000Z</time>
      </trkpt>
      <trkpt lat="43.50783" lon="6.38854">
        <ele>174.9</ele>
        <time>2026-02-23T14:10:42.000Z</time>
      </trkpt>
      <trkpt lat="43.50783" lon="6.38854">
        <ele>174.9</ele>
        <time>2026-02-23T14:11:05.000Z</time>
      </trkpt>
      <trkpt lat="43.50776" lon="6.38847">
        <ele>174.9</ele>
        <time>2026-02-23T14:11:32.000Z</time>
      </trkpt>
      <trkpt lat="43.50775" lon="6.38848">
        <ele>174.9</ele>
        <time>2026-02-23T14:12:18.000Z</time>
      </trkpt>
      <trkpt lat="43.50775" lon="6.38849">
        <ele>174.9</ele>
        <time>2026-02-23T14:12:23.100Z</time>
      </trkpt>
      <trkpt lat="43.50775" lon="6.38849">
        <ele>174.9</ele>
        <time>2026-02-23T14:12:23.100Z</time>
      </trkpt>
    </trkseg>
  </trk>
</gpx>